<?xml version="1.0" encoding="UTF-8" standalone="no" ?>
<gpx xmlns="http://www.topografix.com/GPX/1/1" xmlns:xsi="http://www.w3.org/2001/XMLSchema-instance" xsi:schemaLocation="http://www.topografix.com/GPX/1/1 http://www.topografix.com/GPX/1/1/gpx.xsd" version="1.1" creator="VisuGPX - https://www.visugpx.com">
  <metadata>
    <name>SAINT ANTONIN DU VAR CHATEAU MENTONE</name>
    <desc><![CDATA[Randonnée autour du château Mentone à Saint Antonin du Var]]></desc>
  </metadata>
  <trk>
    <name><![CDATA[Tracé actuel: 01 DEC 2015 10:45]]></name>
    <trkseg>
      <trkpt lat="43.52534" lon="6.27672">
        <ele>130.88</ele>
        <time>2015-12-01T09:45:51Z</time>
      </trkpt>
      <trkpt lat="43.52534" lon="6.27672">
        <ele>132.32</ele>
        <time>2015-12-01T09:45:53Z</time>
      </trkpt>
      <trkpt lat="43.52534" lon="6.27673">
        <ele>129.92</ele>
        <time>2015-12-01T09:45:55Z</time>
      </trkpt>
      <trkpt lat="43.52533" lon="6.27687">
        <ele>133.28</ele>
        <time>2015-12-01T09:45:56Z</time>
      </trkpt>
      <trkpt lat="43.52533" lon="6.27693">
        <ele>133.76</ele>
        <time>2015-12-01T09:45:57Z</time>
      </trkpt>
      <trkpt lat="43.52534" lon="6.27699">
        <ele>129.43</ele>
        <time>2015-12-01T09:45:59Z</time>
      </trkpt>
      <trkpt lat="43.52534" lon="6.277">
        <ele>133.28</ele>
        <time>2015-12-01T09:46:00Z</time>
      </trkpt>
      <trkpt lat="43.52526" lon="6.27703">
        <ele>141.93</ele>
        <time>2015-12-01T09:46:05Z</time>
      </trkpt>
      <trkpt lat="43.52526" lon="6.27704">
        <ele>147.22</ele>
        <time>2015-12-01T09:46:07Z</time>
      </trkpt>
      <trkpt lat="43.52526" lon="6.27704">
        <ele>150.58</ele>
        <time>2015-12-01T09:46:08Z</time>
      </trkpt>
      <trkpt lat="43.52525" lon="6.27704">
        <ele>153.95</ele>
        <time>2015-12-01T09:46:09Z</time>
      </trkpt>
      <trkpt lat="43.52525" lon="6.27704">
        <ele>156.83</ele>
        <time>2015-12-01T09:46:10Z</time>
      </trkpt>
      <trkpt lat="43.52524" lon="6.27705">
        <ele>160.2</ele>
        <time>2015-12-01T09:46:11Z</time>
      </trkpt>
      <trkpt lat="43.52524" lon="6.27705">
        <ele>165.96</ele>
        <time>2015-12-01T09:46:13Z</time>
      </trkpt>
      <trkpt lat="43.52524" lon="6.27705">
        <ele>171.25</ele>
        <time>2015-12-01T09:46:15Z</time>
      </trkpt>
      <trkpt lat="43.52524" lon="6.27705">
        <ele>177.5</ele>
        <time>2015-12-01T09:46:17Z</time>
      </trkpt>
      <trkpt lat="43.52525" lon="6.27704">
        <ele>181.83</ele>
        <time>2015-12-01T09:46:19Z</time>
      </trkpt>
      <trkpt lat="43.52525" lon="6.27704">
        <ele>187.11</ele>
        <time>2015-12-01T09:46:21Z</time>
      </trkpt>
      <trkpt lat="43.52524" lon="6.27704">
        <ele>187.59</ele>
        <time>2015-12-01T09:46:22Z</time>
      </trkpt>
      <trkpt lat="43.52524" lon="6.27704">
        <ele>191.44</ele>
        <time>2015-12-01T09:46:23Z</time>
      </trkpt>
      <trkpt lat="43.52524" lon="6.27704">
        <ele>194.8</ele>
        <time>2015-12-01T09:46:25Z</time>
      </trkpt>
      <trkpt lat="43.52523" lon="6.27704">
        <ele>200.57</ele>
        <time>2015-12-01T09:46:28Z</time>
      </trkpt>
      <trkpt lat="43.52523" lon="6.27704">
        <ele>205.38</ele>
        <time>2015-12-01T09:46:30Z</time>
      </trkpt>
      <trkpt lat="43.52522" lon="6.27704">
        <ele>210.19</ele>
        <time>2015-12-01T09:46:34Z</time>
      </trkpt>
      <trkpt lat="43.52522" lon="6.27703">
        <ele>213.55</ele>
        <time>2015-12-01T09:46:37Z</time>
      </trkpt>
      <trkpt lat="43.52522" lon="6.27703">
        <ele>216.91</ele>
        <time>2015-12-01T09:46:39Z</time>
      </trkpt>
      <trkpt lat="43.52523" lon="6.27702">
        <ele>220.28</ele>
        <time>2015-12-01T09:46:42Z</time>
      </trkpt>
      <trkpt lat="43.52524" lon="6.27699">
        <ele>223.16</ele>
        <time>2015-12-01T09:46:45Z</time>
      </trkpt>
      <trkpt lat="43.52525" lon="6.27698">
        <ele>227.49</ele>
        <time>2015-12-01T09:46:49Z</time>
      </trkpt>
      <trkpt lat="43.52525" lon="6.27697">
        <ele>228.45</ele>
        <time>2015-12-01T09:46:50Z</time>
      </trkpt>
      <trkpt lat="43.52526" lon="6.27695">
        <ele>229.41</ele>
        <time>2015-12-01T09:46:52Z</time>
      </trkpt>
      <trkpt lat="43.52529" lon="6.2769">
        <ele>233.26</ele>
        <time>2015-12-01T09:46:57Z</time>
      </trkpt>
      <trkpt lat="43.52528" lon="6.27686">
        <ele>236.62</ele>
        <time>2015-12-01T09:47:03Z</time>
      </trkpt>
      <trkpt lat="43.52528" lon="6.27686">
        <ele>237.58</ele>
        <time>2015-12-01T09:47:05Z</time>
      </trkpt>
      <trkpt lat="43.52531" lon="6.27682">
        <ele>239.51</ele>
        <time>2015-12-01T09:47:09Z</time>
      </trkpt>
      <trkpt lat="43.52536" lon="6.27677">
        <ele>242.39</ele>
        <time>2015-12-01T09:47:15Z</time>
      </trkpt>
      <trkpt lat="43.52537" lon="6.27676">
        <ele>243.35</ele>
        <time>2015-12-01T09:47:17Z</time>
      </trkpt>
      <trkpt lat="43.52542" lon="6.27673">
        <ele>244.79</ele>
        <time>2015-12-01T09:47:22Z</time>
      </trkpt>
      <trkpt lat="43.52552" lon="6.27659">
        <ele>247.68</ele>
        <time>2015-12-01T09:47:36Z</time>
      </trkpt>
      <trkpt lat="43.52553" lon="6.27656">
        <ele>248.16</ele>
        <time>2015-12-01T09:47:38Z</time>
      </trkpt>
      <trkpt lat="43.52555" lon="6.27654">
        <ele>248.16</ele>
        <time>2015-12-01T09:47:40Z</time>
      </trkpt>
      <trkpt lat="43.52555" lon="6.27651">
        <ele>248.64</ele>
        <time>2015-12-01T09:47:42Z</time>
      </trkpt>
      <trkpt lat="43.52557" lon="6.27648">
        <ele>249.12</ele>
        <time>2015-12-01T09:47:44Z</time>
      </trkpt>
      <trkpt lat="43.52558" lon="6.27645">
        <ele>249.12</ele>
        <time>2015-12-01T09:47:46Z</time>
      </trkpt>
      <trkpt lat="43.52562" lon="6.27636">
        <ele>250.56</ele>
        <time>2015-12-01T09:47:53Z</time>
      </trkpt>
      <trkpt lat="43.52565" lon="6.27618">
        <ele>251.04</ele>
        <time>2015-12-01T09:48:06Z</time>
      </trkpt>
      <trkpt lat="43.52563" lon="6.27608">
        <ele>251.04</ele>
        <time>2015-12-01T09:48:12Z</time>
      </trkpt>
      <trkpt lat="43.52561" lon="6.27587">
        <ele>250.08</ele>
        <time>2015-12-01T09:48:26Z</time>
      </trkpt>
      <trkpt lat="43.52561" lon="6.27586">
        <ele>250.08</ele>
        <time>2015-12-01T09:48:27Z</time>
      </trkpt>
      <trkpt lat="43.52557" lon="6.27573">
        <ele>249.6</ele>
        <time>2015-12-01T09:48:36Z</time>
      </trkpt>
      <trkpt lat="43.52551" lon="6.27557">
        <ele>249.12</ele>
        <time>2015-12-01T09:48:48Z</time>
      </trkpt>
      <trkpt lat="43.5255" lon="6.27549">
        <ele>249.12</ele>
        <time>2015-12-01T09:48:53Z</time>
      </trkpt>
      <trkpt lat="43.52543" lon="6.2753">
        <ele>248.64</ele>
        <time>2015-12-01T09:49:07Z</time>
      </trkpt>
      <trkpt lat="43.5254" lon="6.27522">
        <ele>248.64</ele>
        <time>2015-12-01T09:49:13Z</time>
      </trkpt>
      <trkpt lat="43.52538" lon="6.2752">
        <ele>248.64</ele>
        <time>2015-12-01T09:49:16Z</time>
      </trkpt>
      <trkpt lat="43.52532" lon="6.27504">
        <ele>248.16</ele>
        <time>2015-12-01T09:49:28Z</time>
      </trkpt>
      <trkpt lat="43.52528" lon="6.27499">
        <ele>248.64</ele>
        <time>2015-12-01T09:49:33Z</time>
      </trkpt>
      <trkpt lat="43.52524" lon="6.27499">
        <ele>248.64</ele>
        <time>2015-12-01T09:49:38Z</time>
      </trkpt>
      <trkpt lat="43.52514" lon="6.27504">
        <ele>248.16</ele>
        <time>2015-12-01T09:49:48Z</time>
      </trkpt>
      <trkpt lat="43.52512" lon="6.2751">
        <ele>248.16</ele>
        <time>2015-12-01T09:49:53Z</time>
      </trkpt>
      <trkpt lat="43.52507" lon="6.27524">
        <ele>248.16</ele>
        <time>2015-12-01T09:50:05Z</time>
      </trkpt>
      <trkpt lat="43.52499" lon="6.27544">
        <ele>248.16</ele>
        <time>2015-12-01T09:50:20Z</time>
      </trkpt>
      <trkpt lat="43.52495" lon="6.27558">
        <ele>248.16</ele>
        <time>2015-12-01T09:50:30Z</time>
      </trkpt>
      <trkpt lat="43.52493" lon="6.27567">
        <ele>248.16</ele>
        <time>2015-12-01T09:50:36Z</time>
      </trkpt>
      <trkpt lat="43.52484" lon="6.27589">
        <ele>248.16</ele>
        <time>2015-12-01T09:50:52Z</time>
      </trkpt>
      <trkpt lat="43.52481" lon="6.27605">
        <ele>247.68</ele>
        <time>2015-12-01T09:51:04Z</time>
      </trkpt>
      <trkpt lat="43.5248" lon="6.27609">
        <ele>247.68</ele>
        <time>2015-12-01T09:51:07Z</time>
      </trkpt>
      <trkpt lat="43.52472" lon="6.27632">
        <ele>248.16</ele>
        <time>2015-12-01T09:51:24Z</time>
      </trkpt>
      <trkpt lat="43.52465" lon="6.27653">
        <ele>248.16</ele>
        <time>2015-12-01T09:51:38Z</time>
      </trkpt>
      <trkpt lat="43.52458" lon="6.27677">
        <ele>247.68</ele>
        <time>2015-12-01T09:51:54Z</time>
      </trkpt>
      <trkpt lat="43.52451" lon="6.27697">
        <ele>247.68</ele>
        <time>2015-12-01T09:52:07Z</time>
      </trkpt>
      <trkpt lat="43.52449" lon="6.27704">
        <ele>247.68</ele>
        <time>2015-12-01T09:52:12Z</time>
      </trkpt>
      <trkpt lat="43.52441" lon="6.27725">
        <ele>247.68</ele>
        <time>2015-12-01T09:52:27Z</time>
      </trkpt>
      <trkpt lat="43.52438" lon="6.27739">
        <ele>247.68</ele>
        <time>2015-12-01T09:52:36Z</time>
      </trkpt>
      <trkpt lat="43.52431" lon="6.27762">
        <ele>247.68</ele>
        <time>2015-12-01T09:52:51Z</time>
      </trkpt>
      <trkpt lat="43.52424" lon="6.27782">
        <ele>247.68</ele>
        <time>2015-12-01T09:53:04Z</time>
      </trkpt>
      <trkpt lat="43.52418" lon="6.27804">
        <ele>247.68</ele>
        <time>2015-12-01T09:53:18Z</time>
      </trkpt>
      <trkpt lat="43.52408" lon="6.2783">
        <ele>247.68</ele>
        <time>2015-12-01T09:53:35Z</time>
      </trkpt>
      <trkpt lat="43.52403" lon="6.27846">
        <ele>247.68</ele>
        <time>2015-12-01T09:53:45Z</time>
      </trkpt>
      <trkpt lat="43.52401" lon="6.27854">
        <ele>247.68</ele>
        <time>2015-12-01T09:53:51Z</time>
      </trkpt>
      <trkpt lat="43.52393" lon="6.2788">
        <ele>247.2</ele>
        <time>2015-12-01T09:54:07Z</time>
      </trkpt>
      <trkpt lat="43.52387" lon="6.27899">
        <ele>247.2</ele>
        <time>2015-12-01T09:54:20Z</time>
      </trkpt>
      <trkpt lat="43.52381" lon="6.27924">
        <ele>247.2</ele>
        <time>2015-12-01T09:54:36Z</time>
      </trkpt>
      <trkpt lat="43.52378" lon="6.27931">
        <ele>247.2</ele>
        <time>2015-12-01T09:54:41Z</time>
      </trkpt>
      <trkpt lat="43.52376" lon="6.27939">
        <ele>247.2</ele>
        <time>2015-12-01T09:54:46Z</time>
      </trkpt>
      <trkpt lat="43.52366" lon="6.27964">
        <ele>247.2</ele>
        <time>2015-12-01T09:55:03Z</time>
      </trkpt>
      <trkpt lat="43.52363" lon="6.27971">
        <ele>247.2</ele>
        <time>2015-12-01T09:55:07Z</time>
      </trkpt>
      <trkpt lat="43.5236" lon="6.27976">
        <ele>247.2</ele>
        <time>2015-12-01T09:55:11Z</time>
      </trkpt>
      <trkpt lat="43.52356" lon="6.27986">
        <ele>247.2</ele>
        <time>2015-12-01T09:55:18Z</time>
      </trkpt>
      <trkpt lat="43.52353" lon="6.2799">
        <ele>246.72</ele>
        <time>2015-12-01T09:55:22Z</time>
      </trkpt>
      <trkpt lat="43.52349" lon="6.27997">
        <ele>246.72</ele>
        <time>2015-12-01T09:55:27Z</time>
      </trkpt>
      <trkpt lat="43.52347" lon="6.28003">
        <ele>246.72</ele>
        <time>2015-12-01T09:55:32Z</time>
      </trkpt>
      <trkpt lat="43.52342" lon="6.28015">
        <ele>246.72</ele>
        <time>2015-12-01T09:55:40Z</time>
      </trkpt>
      <trkpt lat="43.52332" lon="6.28034">
        <ele>246.72</ele>
        <time>2015-12-01T09:55:55Z</time>
      </trkpt>
      <trkpt lat="43.52331" lon="6.28036">
        <ele>246.72</ele>
        <time>2015-12-01T09:55:56Z</time>
      </trkpt>
      <trkpt lat="43.52328" lon="6.28041">
        <ele>246.72</ele>
        <time>2015-12-01T09:56:00Z</time>
      </trkpt>
      <trkpt lat="43.52318" lon="6.28056">
        <ele>246.72</ele>
        <time>2015-12-01T09:56:13Z</time>
      </trkpt>
      <trkpt lat="43.52306" lon="6.28071">
        <ele>246.23</ele>
        <time>2015-12-01T09:56:26Z</time>
      </trkpt>
      <trkpt lat="43.52306" lon="6.28072">
        <ele>246.72</ele>
        <time>2015-12-01T09:56:27Z</time>
      </trkpt>
      <trkpt lat="43.523" lon="6.28081">
        <ele>246.23</ele>
        <time>2015-12-01T09:56:34Z</time>
      </trkpt>
      <trkpt lat="43.52296" lon="6.28085">
        <ele>246.23</ele>
        <time>2015-12-01T09:56:38Z</time>
      </trkpt>
      <trkpt lat="43.52294" lon="6.28087">
        <ele>246.23</ele>
        <time>2015-12-01T09:56:40Z</time>
      </trkpt>
      <trkpt lat="43.52282" lon="6.28104">
        <ele>246.23</ele>
        <time>2015-12-01T09:56:55Z</time>
      </trkpt>
      <trkpt lat="43.52274" lon="6.28112">
        <ele>246.23</ele>
        <time>2015-12-01T09:57:05Z</time>
      </trkpt>
      <trkpt lat="43.52268" lon="6.28119">
        <ele>246.23</ele>
        <time>2015-12-01T09:57:11Z</time>
      </trkpt>
      <trkpt lat="43.52265" lon="6.28123">
        <ele>246.23</ele>
        <time>2015-12-01T09:57:15Z</time>
      </trkpt>
      <trkpt lat="43.52262" lon="6.28128">
        <ele>246.23</ele>
        <time>2015-12-01T09:57:19Z</time>
      </trkpt>
      <trkpt lat="43.52248" lon="6.2814">
        <ele>246.23</ele>
        <time>2015-12-01T09:57:34Z</time>
      </trkpt>
      <trkpt lat="43.52234" lon="6.28154">
        <ele>246.23</ele>
        <time>2015-12-01T09:57:48Z</time>
      </trkpt>
      <trkpt lat="43.52228" lon="6.28161">
        <ele>246.23</ele>
        <time>2015-12-01T09:57:55Z</time>
      </trkpt>
      <trkpt lat="43.52223" lon="6.28165">
        <ele>246.23</ele>
        <time>2015-12-01T09:58:00Z</time>
      </trkpt>
      <trkpt lat="43.52216" lon="6.2817">
        <ele>246.23</ele>
        <time>2015-12-01T09:58:07Z</time>
      </trkpt>
      <trkpt lat="43.52205" lon="6.28179">
        <ele>246.23</ele>
        <time>2015-12-01T09:58:21Z</time>
      </trkpt>
      <trkpt lat="43.52201" lon="6.28181">
        <ele>246.23</ele>
        <time>2015-12-01T09:58:27Z</time>
      </trkpt>
      <trkpt lat="43.52197" lon="6.28188">
        <ele>245.75</ele>
        <time>2015-12-01T09:58:33Z</time>
      </trkpt>
      <trkpt lat="43.52183" lon="6.28199">
        <ele>245.75</ele>
        <time>2015-12-01T09:58:46Z</time>
      </trkpt>
      <trkpt lat="43.52166" lon="6.28211">
        <ele>245.75</ele>
        <time>2015-12-01T09:59:02Z</time>
      </trkpt>
      <trkpt lat="43.52162" lon="6.28213">
        <ele>245.75</ele>
        <time>2015-12-01T09:59:06Z</time>
      </trkpt>
      <trkpt lat="43.52148" lon="6.28223">
        <ele>245.75</ele>
        <time>2015-12-01T09:59:19Z</time>
      </trkpt>
      <trkpt lat="43.52143" lon="6.28225">
        <ele>245.75</ele>
        <time>2015-12-01T09:59:23Z</time>
      </trkpt>
      <trkpt lat="43.52136" lon="6.28231">
        <ele>245.27</ele>
        <time>2015-12-01T09:59:30Z</time>
      </trkpt>
      <trkpt lat="43.52122" lon="6.2824">
        <ele>245.75</ele>
        <time>2015-12-01T09:59:41Z</time>
      </trkpt>
      <trkpt lat="43.52108" lon="6.28247">
        <ele>246.23</ele>
        <time>2015-12-01T09:59:52Z</time>
      </trkpt>
      <trkpt lat="43.521" lon="6.28247">
        <ele>245.27</ele>
        <time>2015-12-01T10:00:00Z</time>
      </trkpt>
      <trkpt lat="43.52095" lon="6.28246">
        <ele>245.27</ele>
        <time>2015-12-01T10:00:04Z</time>
      </trkpt>
      <trkpt lat="43.52088" lon="6.28251">
        <ele>245.27</ele>
        <time>2015-12-01T10:00:12Z</time>
      </trkpt>
      <trkpt lat="43.52084" lon="6.28251">
        <ele>244.79</ele>
        <time>2015-12-01T10:00:15Z</time>
      </trkpt>
      <trkpt lat="43.52076" lon="6.28255">
        <ele>245.27</ele>
        <time>2015-12-01T10:00:22Z</time>
      </trkpt>
      <trkpt lat="43.52073" lon="6.28256">
        <ele>244.79</ele>
        <time>2015-12-01T10:00:25Z</time>
      </trkpt>
      <trkpt lat="43.52071" lon="6.28258">
        <ele>245.27</ele>
        <time>2015-12-01T10:00:27Z</time>
      </trkpt>
      <trkpt lat="43.52062" lon="6.28265">
        <ele>244.79</ele>
        <time>2015-12-01T10:00:34Z</time>
      </trkpt>
      <trkpt lat="43.52049" lon="6.2827">
        <ele>244.79</ele>
        <time>2015-12-01T10:00:46Z</time>
      </trkpt>
      <trkpt lat="43.52045" lon="6.28272">
        <ele>245.27</ele>
        <time>2015-12-01T10:00:50Z</time>
      </trkpt>
      <trkpt lat="43.52029" lon="6.2828">
        <ele>244.79</ele>
        <time>2015-12-01T10:01:03Z</time>
      </trkpt>
      <trkpt lat="43.52011" lon="6.28286">
        <ele>244.31</ele>
        <time>2015-12-01T10:01:17Z</time>
      </trkpt>
      <trkpt lat="43.5201" lon="6.28287">
        <ele>244.31</ele>
        <time>2015-12-01T10:01:18Z</time>
      </trkpt>
      <trkpt lat="43.51997" lon="6.28292">
        <ele>244.31</ele>
        <time>2015-12-01T10:01:28Z</time>
      </trkpt>
      <trkpt lat="43.51992" lon="6.28295">
        <ele>243.83</ele>
        <time>2015-12-01T10:01:33Z</time>
      </trkpt>
      <trkpt lat="43.51974" lon="6.2831">
        <ele>244.31</ele>
        <time>2015-12-01T10:01:47Z</time>
      </trkpt>
      <trkpt lat="43.51955" lon="6.2832">
        <ele>244.31</ele>
        <time>2015-12-01T10:02:02Z</time>
      </trkpt>
      <trkpt lat="43.51937" lon="6.2833">
        <ele>243.83</ele>
        <time>2015-12-01T10:02:18Z</time>
      </trkpt>
      <trkpt lat="43.51926" lon="6.28337">
        <ele>243.83</ele>
        <time>2015-12-01T10:02:30Z</time>
      </trkpt>
      <trkpt lat="43.51917" lon="6.28341">
        <ele>243.83</ele>
        <time>2015-12-01T10:02:37Z</time>
      </trkpt>
      <trkpt lat="43.51914" lon="6.28343">
        <ele>243.83</ele>
        <time>2015-12-01T10:02:39Z</time>
      </trkpt>
      <trkpt lat="43.5191" lon="6.28348">
        <ele>243.83</ele>
        <time>2015-12-01T10:02:44Z</time>
      </trkpt>
      <trkpt lat="43.51903" lon="6.2835">
        <ele>243.83</ele>
        <time>2015-12-01T10:02:48Z</time>
      </trkpt>
      <trkpt lat="43.51887" lon="6.28353">
        <ele>243.83</ele>
        <time>2015-12-01T10:03:01Z</time>
      </trkpt>
      <trkpt lat="43.51885" lon="6.28355">
        <ele>243.83</ele>
        <time>2015-12-01T10:03:03Z</time>
      </trkpt>
      <trkpt lat="43.5188" lon="6.28361">
        <ele>243.83</ele>
        <time>2015-12-01T10:03:08Z</time>
      </trkpt>
      <trkpt lat="43.51875" lon="6.28367">
        <ele>243.83</ele>
        <time>2015-12-01T10:03:13Z</time>
      </trkpt>
      <trkpt lat="43.51862" lon="6.28382">
        <ele>243.35</ele>
        <time>2015-12-01T10:03:28Z</time>
      </trkpt>
      <trkpt lat="43.5185" lon="6.28396">
        <ele>243.35</ele>
        <time>2015-12-01T10:03:40Z</time>
      </trkpt>
      <trkpt lat="43.51843" lon="6.28409">
        <ele>243.35</ele>
        <time>2015-12-01T10:03:50Z</time>
      </trkpt>
      <trkpt lat="43.51842" lon="6.28414">
        <ele>243.35</ele>
        <time>2015-12-01T10:03:53Z</time>
      </trkpt>
      <trkpt lat="43.51834" lon="6.28431">
        <ele>243.35</ele>
        <time>2015-12-01T10:04:07Z</time>
      </trkpt>
      <trkpt lat="43.51831" lon="6.28441">
        <ele>243.35</ele>
        <time>2015-12-01T10:04:15Z</time>
      </trkpt>
      <trkpt lat="43.51827" lon="6.28465">
        <ele>242.87</ele>
        <time>2015-12-01T10:04:32Z</time>
      </trkpt>
      <trkpt lat="43.51823" lon="6.28482">
        <ele>242.87</ele>
        <time>2015-12-01T10:04:45Z</time>
      </trkpt>
      <trkpt lat="43.51821" lon="6.2851">
        <ele>242.87</ele>
        <time>2015-12-01T10:05:02Z</time>
      </trkpt>
      <trkpt lat="43.51822" lon="6.28537">
        <ele>242.87</ele>
        <time>2015-12-01T10:05:19Z</time>
      </trkpt>
      <trkpt lat="43.51826" lon="6.28557">
        <ele>242.87</ele>
        <time>2015-12-01T10:05:33Z</time>
      </trkpt>
      <trkpt lat="43.51827" lon="6.28561">
        <ele>242.87</ele>
        <time>2015-12-01T10:05:35Z</time>
      </trkpt>
      <trkpt lat="43.51829" lon="6.28586">
        <ele>242.87</ele>
        <time>2015-12-01T10:05:50Z</time>
      </trkpt>
      <trkpt lat="43.51835" lon="6.2861">
        <ele>242.39</ele>
        <time>2015-12-01T10:06:06Z</time>
      </trkpt>
      <trkpt lat="43.51837" lon="6.28616">
        <ele>242.39</ele>
        <time>2015-12-01T10:06:10Z</time>
      </trkpt>
      <trkpt lat="43.51844" lon="6.28628">
        <ele>241.91</ele>
        <time>2015-12-01T10:06:21Z</time>
      </trkpt>
      <trkpt lat="43.51851" lon="6.28642">
        <ele>241.43</ele>
        <time>2015-12-01T10:06:33Z</time>
      </trkpt>
      <trkpt lat="43.51856" lon="6.28651">
        <ele>241.43</ele>
        <time>2015-12-01T10:06:41Z</time>
      </trkpt>
      <trkpt lat="43.51866" lon="6.28674">
        <ele>240.95</ele>
        <time>2015-12-01T10:06:59Z</time>
      </trkpt>
      <trkpt lat="43.51875" lon="6.28694">
        <ele>240.47</ele>
        <time>2015-12-01T10:07:15Z</time>
      </trkpt>
      <trkpt lat="43.51876" lon="6.28696">
        <ele>240.95</ele>
        <time>2015-12-01T10:07:16Z</time>
      </trkpt>
      <trkpt lat="43.51886" lon="6.28718">
        <ele>240.95</ele>
        <time>2015-12-01T10:07:33Z</time>
      </trkpt>
      <trkpt lat="43.51896" lon="6.28739">
        <ele>240.47</ele>
        <time>2015-12-01T10:07:50Z</time>
      </trkpt>
      <trkpt lat="43.51903" lon="6.2876">
        <ele>240.47</ele>
        <time>2015-12-01T10:08:05Z</time>
      </trkpt>
      <trkpt lat="43.51912" lon="6.28781">
        <ele>240.47</ele>
        <time>2015-12-01T10:08:21Z</time>
      </trkpt>
      <trkpt lat="43.51916" lon="6.28799">
        <ele>240.47</ele>
        <time>2015-12-01T10:08:34Z</time>
      </trkpt>
      <trkpt lat="43.51919" lon="6.28824">
        <ele>240.47</ele>
        <time>2015-12-01T10:08:50Z</time>
      </trkpt>
      <trkpt lat="43.51923" lon="6.28854">
        <ele>240.47</ele>
        <time>2015-12-01T10:09:09Z</time>
      </trkpt>
      <trkpt lat="43.51922" lon="6.28879">
        <ele>240.95</ele>
        <time>2015-12-01T10:09:25Z</time>
      </trkpt>
      <trkpt lat="43.51918" lon="6.28892">
        <ele>240.47</ele>
        <time>2015-12-01T10:09:40Z</time>
      </trkpt>
      <trkpt lat="43.51918" lon="6.28893">
        <ele>240.47</ele>
        <time>2015-12-01T10:09:56Z</time>
      </trkpt>
      <trkpt lat="43.51918" lon="6.28885">
        <ele>239.51</ele>
        <time>2015-12-01T10:10:03Z</time>
      </trkpt>
      <trkpt lat="43.51916" lon="6.28881">
        <ele>238.54</ele>
        <time>2015-12-01T10:10:07Z</time>
      </trkpt>
      <trkpt lat="43.51911" lon="6.28898">
        <ele>238.54</ele>
        <time>2015-12-01T10:10:19Z</time>
      </trkpt>
      <trkpt lat="43.51908" lon="6.28921">
        <ele>237.58</ele>
        <time>2015-12-01T10:10:33Z</time>
      </trkpt>
      <trkpt lat="43.51906" lon="6.28929">
        <ele>236.14</ele>
        <time>2015-12-01T10:10:44Z</time>
      </trkpt>
      <trkpt lat="43.51907" lon="6.2893">
        <ele>236.14</ele>
        <time>2015-12-01T10:11:08Z</time>
      </trkpt>
      <trkpt lat="43.51907" lon="6.2893">
        <ele>235.66</ele>
        <time>2015-12-01T10:11:33Z</time>
      </trkpt>
      <trkpt lat="43.5191" lon="6.28931">
        <ele>236.62</ele>
        <time>2015-12-01T10:11:42Z</time>
      </trkpt>
      <trkpt lat="43.5192" lon="6.28934">
        <ele>237.58</ele>
        <time>2015-12-01T10:11:51Z</time>
      </trkpt>
      <trkpt lat="43.51937" lon="6.28942">
        <ele>239.51</ele>
        <time>2015-12-01T10:12:06Z</time>
      </trkpt>
      <trkpt lat="43.51938" lon="6.28942">
        <ele>239.51</ele>
        <time>2015-12-01T10:12:07Z</time>
      </trkpt>
      <trkpt lat="43.51951" lon="6.2894">
        <ele>240.95</ele>
        <time>2015-12-01T10:12:18Z</time>
      </trkpt>
      <trkpt lat="43.51967" lon="6.28939">
        <ele>242.39</ele>
        <time>2015-12-01T10:12:33Z</time>
      </trkpt>
      <trkpt lat="43.51983" lon="6.28935">
        <ele>243.83</ele>
        <time>2015-12-01T10:12:47Z</time>
      </trkpt>
      <trkpt lat="43.51995" lon="6.28939">
        <ele>244.31</ele>
        <time>2015-12-01T10:13:01Z</time>
      </trkpt>
      <trkpt lat="43.52003" lon="6.28938">
        <ele>244.79</ele>
        <time>2015-12-01T10:13:08Z</time>
      </trkpt>
      <trkpt lat="43.5201" lon="6.28933">
        <ele>243.83</ele>
        <time>2015-12-01T10:13:22Z</time>
      </trkpt>
      <trkpt lat="43.52012" lon="6.28932">
        <ele>245.27</ele>
        <time>2015-12-01T10:13:37Z</time>
      </trkpt>
      <trkpt lat="43.52012" lon="6.28932">
        <ele>245.27</ele>
        <time>2015-12-01T10:13:39Z</time>
      </trkpt>
      <trkpt lat="43.52006" lon="6.2893">
        <ele>244.79</ele>
        <time>2015-12-01T10:13:48Z</time>
      </trkpt>
      <trkpt lat="43.52016" lon="6.28933">
        <ele>245.75</ele>
        <time>2015-12-01T10:13:58Z</time>
      </trkpt>
      <trkpt lat="43.52031" lon="6.28931">
        <ele>246.72</ele>
        <time>2015-12-01T10:14:12Z</time>
      </trkpt>
      <trkpt lat="43.52045" lon="6.28931">
        <ele>248.16</ele>
        <time>2015-12-01T10:14:24Z</time>
      </trkpt>
      <trkpt lat="43.5205" lon="6.28928">
        <ele>248.16</ele>
        <time>2015-12-01T10:14:29Z</time>
      </trkpt>
      <trkpt lat="43.5206" lon="6.28928">
        <ele>250.08</ele>
        <time>2015-12-01T10:14:40Z</time>
      </trkpt>
      <trkpt lat="43.52079" lon="6.28929">
        <ele>252</ele>
        <time>2015-12-01T10:14:56Z</time>
      </trkpt>
      <trkpt lat="43.52087" lon="6.28929">
        <ele>253.44</ele>
        <time>2015-12-01T10:15:03Z</time>
      </trkpt>
      <trkpt lat="43.52099" lon="6.28923">
        <ele>254.41</ele>
        <time>2015-12-01T10:15:12Z</time>
      </trkpt>
      <trkpt lat="43.52101" lon="6.28924">
        <ele>254.89</ele>
        <time>2015-12-01T10:15:14Z</time>
      </trkpt>
      <trkpt lat="43.52116" lon="6.28915">
        <ele>256.33</ele>
        <time>2015-12-01T10:15:29Z</time>
      </trkpt>
      <trkpt lat="43.52131" lon="6.28908">
        <ele>257.29</ele>
        <time>2015-12-01T10:15:45Z</time>
      </trkpt>
      <trkpt lat="43.52135" lon="6.28903">
        <ele>257.77</ele>
        <time>2015-12-01T10:16:01Z</time>
      </trkpt>
      <trkpt lat="43.52134" lon="6.28903">
        <ele>257.77</ele>
        <time>2015-12-01T10:16:23Z</time>
      </trkpt>
      <trkpt lat="43.52134" lon="6.28903">
        <ele>257.77</ele>
        <time>2015-12-01T10:16:55Z</time>
      </trkpt>
      <trkpt lat="43.52133" lon="6.28902">
        <ele>257.77</ele>
        <time>2015-12-01T10:17:12Z</time>
      </trkpt>
      <trkpt lat="43.52131" lon="6.28902">
        <ele>257.77</ele>
        <time>2015-12-01T10:17:25Z</time>
      </trkpt>
      <trkpt lat="43.5213" lon="6.28903">
        <ele>257.77</ele>
        <time>2015-12-01T10:17:40Z</time>
      </trkpt>
      <trkpt lat="43.5213" lon="6.28903">
        <ele>257.29</ele>
        <time>2015-12-01T10:18:03Z</time>
      </trkpt>
      <trkpt lat="43.52129" lon="6.28903">
        <ele>257.29</ele>
        <time>2015-12-01T10:18:16Z</time>
      </trkpt>
      <trkpt lat="43.52129" lon="6.28902">
        <ele>257.29</ele>
        <time>2015-12-01T10:18:36Z</time>
      </trkpt>
      <trkpt lat="43.52129" lon="6.28902">
        <ele>257.29</ele>
        <time>2015-12-01T10:18:54Z</time>
      </trkpt>
      <trkpt lat="43.52129" lon="6.28902">
        <ele>257.77</ele>
        <time>2015-12-01T10:19:14Z</time>
      </trkpt>
      <trkpt lat="43.52129" lon="6.28902">
        <ele>257.29</ele>
        <time>2015-12-01T10:19:40Z</time>
      </trkpt>
      <trkpt lat="43.5213" lon="6.28903">
        <ele>257.29</ele>
        <time>2015-12-01T10:20:06Z</time>
      </trkpt>
      <trkpt lat="43.52131" lon="6.28902">
        <ele>257.77</ele>
        <time>2015-12-01T10:20:21Z</time>
      </trkpt>
      <trkpt lat="43.52133" lon="6.289">
        <ele>258.25</ele>
        <time>2015-12-01T10:20:27Z</time>
      </trkpt>
      <trkpt lat="43.52141" lon="6.28894">
        <ele>259.21</ele>
        <time>2015-12-01T10:20:37Z</time>
      </trkpt>
      <trkpt lat="43.52145" lon="6.28894">
        <ele>259.21</ele>
        <time>2015-12-01T10:20:40Z</time>
      </trkpt>
      <trkpt lat="43.5216" lon="6.28891">
        <ele>260.65</ele>
        <time>2015-12-01T10:20:55Z</time>
      </trkpt>
      <trkpt lat="43.52176" lon="6.28879">
        <ele>262.1</ele>
        <time>2015-12-01T10:21:10Z</time>
      </trkpt>
      <trkpt lat="43.52188" lon="6.28867">
        <ele>263.54</ele>
        <time>2015-12-01T10:21:25Z</time>
      </trkpt>
      <trkpt lat="43.52198" lon="6.28849">
        <ele>264.98</ele>
        <time>2015-12-01T10:21:41Z</time>
      </trkpt>
      <trkpt lat="43.52211" lon="6.28828">
        <ele>265.94</ele>
        <time>2015-12-01T10:21:58Z</time>
      </trkpt>
      <trkpt lat="43.52218" lon="6.28821">
        <ele>267.38</ele>
        <time>2015-12-01T10:22:11Z</time>
      </trkpt>
      <trkpt lat="43.52225" lon="6.28813">
        <ele>268.35</ele>
        <time>2015-12-01T10:22:22Z</time>
      </trkpt>
      <trkpt lat="43.52237" lon="6.28799">
        <ele>270.75</ele>
        <time>2015-12-01T10:22:36Z</time>
      </trkpt>
      <trkpt lat="43.52249" lon="6.28785">
        <ele>272.19</ele>
        <time>2015-12-01T10:22:51Z</time>
      </trkpt>
      <trkpt lat="43.52262" lon="6.28771">
        <ele>273.63</ele>
        <time>2015-12-01T10:23:07Z</time>
      </trkpt>
      <trkpt lat="43.52272" lon="6.28758">
        <ele>275.56</ele>
        <time>2015-12-01T10:23:23Z</time>
      </trkpt>
      <trkpt lat="43.52279" lon="6.28754">
        <ele>277</ele>
        <time>2015-12-01T10:23:37Z</time>
      </trkpt>
      <trkpt lat="43.52289" lon="6.28743">
        <ele>278.44</ele>
        <time>2015-12-01T10:23:54Z</time>
      </trkpt>
      <trkpt lat="43.523" lon="6.28733">
        <ele>279.88</ele>
        <time>2015-12-01T10:24:11Z</time>
      </trkpt>
      <trkpt lat="43.52309" lon="6.28719">
        <ele>280.84</ele>
        <time>2015-12-01T10:24:25Z</time>
      </trkpt>
      <trkpt lat="43.52319" lon="6.28707">
        <ele>282.28</ele>
        <time>2015-12-01T10:24:40Z</time>
      </trkpt>
      <trkpt lat="43.52332" lon="6.2869">
        <ele>283.73</ele>
        <time>2015-12-01T10:24:57Z</time>
      </trkpt>
      <trkpt lat="43.52342" lon="6.28675">
        <ele>285.17</ele>
        <time>2015-12-01T10:25:12Z</time>
      </trkpt>
      <trkpt lat="43.52342" lon="6.28673">
        <ele>285.17</ele>
        <time>2015-12-01T10:25:13Z</time>
      </trkpt>
      <trkpt lat="43.52353" lon="6.28659">
        <ele>286.61</ele>
        <time>2015-12-01T10:25:29Z</time>
      </trkpt>
      <trkpt lat="43.52361" lon="6.28643">
        <ele>287.57</ele>
        <time>2015-12-01T10:25:44Z</time>
      </trkpt>
      <trkpt lat="43.52366" lon="6.28637">
        <ele>288.53</ele>
        <time>2015-12-01T10:25:50Z</time>
      </trkpt>
      <trkpt lat="43.52372" lon="6.28612">
        <ele>289.97</ele>
        <time>2015-12-01T10:26:06Z</time>
      </trkpt>
      <trkpt lat="43.52378" lon="6.28597">
        <ele>290.94</ele>
        <time>2015-12-01T10:26:21Z</time>
      </trkpt>
      <trkpt lat="43.52379" lon="6.28592">
        <ele>290.94</ele>
        <time>2015-12-01T10:26:25Z</time>
      </trkpt>
      <trkpt lat="43.52385" lon="6.28578">
        <ele>290.94</ele>
        <time>2015-12-01T10:26:38Z</time>
      </trkpt>
      <trkpt lat="43.52387" lon="6.28571">
        <ele>291.42</ele>
        <time>2015-12-01T10:26:44Z</time>
      </trkpt>
      <trkpt lat="43.52388" lon="6.28567">
        <ele>291.42</ele>
        <time>2015-12-01T10:26:47Z</time>
      </trkpt>
      <trkpt lat="43.5239" lon="6.28562">
        <ele>291.42</ele>
        <time>2015-12-01T10:26:52Z</time>
      </trkpt>
      <trkpt lat="43.52395" lon="6.2854">
        <ele>290.94</ele>
        <time>2015-12-01T10:27:08Z</time>
      </trkpt>
      <trkpt lat="43.524" lon="6.28523">
        <ele>290.94</ele>
        <time>2015-12-01T10:27:21Z</time>
      </trkpt>
      <trkpt lat="43.52402" lon="6.28513">
        <ele>290.46</ele>
        <time>2015-12-01T10:27:31Z</time>
      </trkpt>
      <trkpt lat="43.52407" lon="6.28495">
        <ele>289.49</ele>
        <time>2015-12-01T10:27:45Z</time>
      </trkpt>
      <trkpt lat="43.52412" lon="6.28479">
        <ele>289.01</ele>
        <time>2015-12-01T10:27:58Z</time>
      </trkpt>
      <trkpt lat="43.52414" lon="6.28462">
        <ele>288.05</ele>
        <time>2015-12-01T10:28:11Z</time>
      </trkpt>
      <trkpt lat="43.52418" lon="6.28444">
        <ele>286.61</ele>
        <time>2015-12-01T10:28:25Z</time>
      </trkpt>
      <trkpt lat="43.52419" lon="6.28443">
        <ele>286.61</ele>
        <time>2015-12-01T10:28:47Z</time>
      </trkpt>
      <trkpt lat="43.52418" lon="6.28443">
        <ele>287.09</ele>
        <time>2015-12-01T10:29:08Z</time>
      </trkpt>
      <trkpt lat="43.52418" lon="6.28442">
        <ele>286.61</ele>
        <time>2015-12-01T10:29:25Z</time>
      </trkpt>
      <trkpt lat="43.52418" lon="6.28443">
        <ele>286.61</ele>
        <time>2015-12-01T10:29:45Z</time>
      </trkpt>
      <trkpt lat="43.52417" lon="6.28444">
        <ele>287.09</ele>
        <time>2015-12-01T10:30:05Z</time>
      </trkpt>
      <trkpt lat="43.52418" lon="6.28443">
        <ele>287.09</ele>
        <time>2015-12-01T10:30:27Z</time>
      </trkpt>
      <trkpt lat="43.52418" lon="6.28443">
        <ele>287.09</ele>
        <time>2015-12-01T10:30:50Z</time>
      </trkpt>
      <trkpt lat="43.52419" lon="6.28441">
        <ele>287.09</ele>
        <time>2015-12-01T10:31:11Z</time>
      </trkpt>
      <trkpt lat="43.52425" lon="6.28432">
        <ele>286.13</ele>
        <time>2015-12-01T10:31:24Z</time>
      </trkpt>
      <trkpt lat="43.52431" lon="6.28422">
        <ele>285.17</ele>
        <time>2015-12-01T10:31:37Z</time>
      </trkpt>
      <trkpt lat="43.5244" lon="6.28401">
        <ele>284.21</ele>
        <time>2015-12-01T10:31:49Z</time>
      </trkpt>
      <trkpt lat="43.52448" lon="6.2839">
        <ele>282.77</ele>
        <time>2015-12-01T10:31:58Z</time>
      </trkpt>
      <trkpt lat="43.52458" lon="6.2838">
        <ele>281.8</ele>
        <time>2015-12-01T10:32:11Z</time>
      </trkpt>
      <trkpt lat="43.52461" lon="6.28376">
        <ele>281.8</ele>
        <time>2015-12-01T10:32:15Z</time>
      </trkpt>
      <trkpt lat="43.52469" lon="6.28361">
        <ele>281.32</ele>
        <time>2015-12-01T10:32:28Z</time>
      </trkpt>
      <trkpt lat="43.52475" lon="6.28347">
        <ele>280.84</ele>
        <time>2015-12-01T10:32:36Z</time>
      </trkpt>
      <trkpt lat="43.52476" lon="6.28344">
        <ele>280.36</ele>
        <time>2015-12-01T10:32:38Z</time>
      </trkpt>
      <trkpt lat="43.52481" lon="6.28336">
        <ele>280.36</ele>
        <time>2015-12-01T10:32:44Z</time>
      </trkpt>
      <trkpt lat="43.5249" lon="6.28329">
        <ele>280.36</ele>
        <time>2015-12-01T10:32:57Z</time>
      </trkpt>
      <trkpt lat="43.52503" lon="6.28325">
        <ele>279.88</ele>
        <time>2015-12-01T10:33:08Z</time>
      </trkpt>
      <trkpt lat="43.52506" lon="6.28324">
        <ele>279.4</ele>
        <time>2015-12-01T10:33:11Z</time>
      </trkpt>
      <trkpt lat="43.52521" lon="6.28323">
        <ele>279.4</ele>
        <time>2015-12-01T10:33:25Z</time>
      </trkpt>
      <trkpt lat="43.52531" lon="6.28327">
        <ele>279.4</ele>
        <time>2015-12-01T10:33:36Z</time>
      </trkpt>
      <trkpt lat="43.52541" lon="6.28338">
        <ele>279.4</ele>
        <time>2015-12-01T10:33:49Z</time>
      </trkpt>
      <trkpt lat="43.5254" lon="6.28342">
        <ele>278.92</ele>
        <time>2015-12-01T10:33:54Z</time>
      </trkpt>
      <trkpt lat="43.5254" lon="6.28348">
        <ele>279.88</ele>
        <time>2015-12-01T10:33:57Z</time>
      </trkpt>
      <trkpt lat="43.52547" lon="6.28359">
        <ele>280.36</ele>
        <time>2015-12-01T10:34:05Z</time>
      </trkpt>
      <trkpt lat="43.52559" lon="6.28375">
        <ele>280.84</ele>
        <time>2015-12-01T10:34:19Z</time>
      </trkpt>
      <trkpt lat="43.52568" lon="6.28378">
        <ele>280.84</ele>
        <time>2015-12-01T10:34:27Z</time>
      </trkpt>
      <trkpt lat="43.5257" lon="6.28377">
        <ele>281.32</ele>
        <time>2015-12-01T10:34:29Z</time>
      </trkpt>
      <trkpt lat="43.52584" lon="6.28373">
        <ele>281.32</ele>
        <time>2015-12-01T10:34:42Z</time>
      </trkpt>
      <trkpt lat="43.52592" lon="6.28373">
        <ele>280.84</ele>
        <time>2015-12-01T10:34:48Z</time>
      </trkpt>
      <trkpt lat="43.52604" lon="6.28385">
        <ele>281.32</ele>
        <time>2015-12-01T10:35:02Z</time>
      </trkpt>
      <trkpt lat="43.52606" lon="6.28385">
        <ele>281.32</ele>
        <time>2015-12-01T10:35:06Z</time>
      </trkpt>
      <trkpt lat="43.52611" lon="6.28387">
        <ele>281.8</ele>
        <time>2015-12-01T10:35:11Z</time>
      </trkpt>
      <trkpt lat="43.52624" lon="6.28396">
        <ele>281.8</ele>
        <time>2015-12-01T10:35:24Z</time>
      </trkpt>
      <trkpt lat="43.52634" lon="6.28409">
        <ele>282.28</ele>
        <time>2015-12-01T10:35:37Z</time>
      </trkpt>
      <trkpt lat="43.52637" lon="6.28413">
        <ele>282.77</ele>
        <time>2015-12-01T10:35:42Z</time>
      </trkpt>
      <trkpt lat="43.52647" lon="6.28423">
        <ele>282.77</ele>
        <time>2015-12-01T10:35:53Z</time>
      </trkpt>
      <trkpt lat="43.52652" lon="6.28427">
        <ele>282.77</ele>
        <time>2015-12-01T10:35:57Z</time>
      </trkpt>
      <trkpt lat="43.52669" lon="6.2844">
        <ele>283.25</ele>
        <time>2015-12-01T10:36:12Z</time>
      </trkpt>
      <trkpt lat="43.52674" lon="6.28446">
        <ele>283.73</ele>
        <time>2015-12-01T10:36:19Z</time>
      </trkpt>
      <trkpt lat="43.52688" lon="6.28457">
        <ele>284.21</ele>
        <time>2015-12-01T10:36:34Z</time>
      </trkpt>
      <trkpt lat="43.52701" lon="6.28471">
        <ele>284.69</ele>
        <time>2015-12-01T10:36:47Z</time>
      </trkpt>
      <trkpt lat="43.52705" lon="6.28474">
        <ele>284.69</ele>
        <time>2015-12-01T10:36:51Z</time>
      </trkpt>
      <trkpt lat="43.52718" lon="6.28483">
        <ele>285.17</ele>
        <time>2015-12-01T10:37:04Z</time>
      </trkpt>
      <trkpt lat="43.52732" lon="6.28494">
        <ele>285.65</ele>
        <time>2015-12-01T10:37:18Z</time>
      </trkpt>
      <trkpt lat="43.52733" lon="6.28495">
        <ele>285.65</ele>
        <time>2015-12-01T10:37:19Z</time>
      </trkpt>
      <trkpt lat="43.5275" lon="6.28509">
        <ele>286.61</ele>
        <time>2015-12-01T10:37:35Z</time>
      </trkpt>
      <trkpt lat="43.52766" lon="6.28519">
        <ele>287.57</ele>
        <time>2015-12-01T10:37:53Z</time>
      </trkpt>
      <trkpt lat="43.52779" lon="6.28532">
        <ele>288.05</ele>
        <time>2015-12-01T10:38:07Z</time>
      </trkpt>
      <trkpt lat="43.52791" lon="6.28545">
        <ele>289.49</ele>
        <time>2015-12-01T10:38:23Z</time>
      </trkpt>
      <trkpt lat="43.52804" lon="6.28561">
        <ele>290.46</ele>
        <time>2015-12-01T10:38:39Z</time>
      </trkpt>
      <trkpt lat="43.52817" lon="6.2858">
        <ele>291.42</ele>
        <time>2015-12-01T10:38:57Z</time>
      </trkpt>
      <trkpt lat="43.52833" lon="6.286">
        <ele>292.38</ele>
        <time>2015-12-01T10:39:14Z</time>
      </trkpt>
      <trkpt lat="43.52847" lon="6.28603">
        <ele>293.82</ele>
        <time>2015-12-01T10:39:29Z</time>
      </trkpt>
      <trkpt lat="43.5286" lon="6.28612">
        <ele>294.78</ele>
        <time>2015-12-01T10:39:43Z</time>
      </trkpt>
      <trkpt lat="43.52876" lon="6.2862">
        <ele>296.22</ele>
        <time>2015-12-01T10:39:59Z</time>
      </trkpt>
      <trkpt lat="43.5289" lon="6.28621">
        <ele>297.18</ele>
        <time>2015-12-01T10:40:13Z</time>
      </trkpt>
      <trkpt lat="43.52912" lon="6.28617">
        <ele>298.63</ele>
        <time>2015-12-01T10:40:30Z</time>
      </trkpt>
      <trkpt lat="43.52915" lon="6.28618">
        <ele>298.63</ele>
        <time>2015-12-01T10:40:33Z</time>
      </trkpt>
      <trkpt lat="43.52931" lon="6.28616">
        <ele>299.11</ele>
        <time>2015-12-01T10:40:49Z</time>
      </trkpt>
      <trkpt lat="43.52945" lon="6.28613">
        <ele>299.59</ele>
        <time>2015-12-01T10:41:03Z</time>
      </trkpt>
      <trkpt lat="43.5296" lon="6.2861">
        <ele>300.55</ele>
        <time>2015-12-01T10:41:18Z</time>
      </trkpt>
      <trkpt lat="43.52977" lon="6.28614">
        <ele>301.03</ele>
        <time>2015-12-01T10:41:33Z</time>
      </trkpt>
      <trkpt lat="43.52993" lon="6.28616">
        <ele>301.99</ele>
        <time>2015-12-01T10:41:48Z</time>
      </trkpt>
      <trkpt lat="43.53002" lon="6.28612">
        <ele>302.47</ele>
        <time>2015-12-01T10:41:58Z</time>
      </trkpt>
      <trkpt lat="43.53018" lon="6.28622">
        <ele>302.95</ele>
        <time>2015-12-01T10:42:15Z</time>
      </trkpt>
      <trkpt lat="43.53023" lon="6.2862">
        <ele>303.43</ele>
        <time>2015-12-01T10:42:29Z</time>
      </trkpt>
      <trkpt lat="43.53023" lon="6.28619">
        <ele>302.95</ele>
        <time>2015-12-01T10:42:52Z</time>
      </trkpt>
      <trkpt lat="43.53022" lon="6.28619">
        <ele>303.43</ele>
        <time>2015-12-01T10:43:15Z</time>
      </trkpt>
      <trkpt lat="43.53022" lon="6.28619">
        <ele>302.95</ele>
        <time>2015-12-01T10:43:28Z</time>
      </trkpt>
      <trkpt lat="43.53023" lon="6.28619">
        <ele>302.95</ele>
        <time>2015-12-01T10:43:51Z</time>
      </trkpt>
      <trkpt lat="43.53021" lon="6.28619">
        <ele>302.95</ele>
        <time>2015-12-01T10:44:04Z</time>
      </trkpt>
      <trkpt lat="43.53022" lon="6.28619">
        <ele>302.95</ele>
        <time>2015-12-01T10:44:22Z</time>
      </trkpt>
      <trkpt lat="43.53018" lon="6.28613">
        <ele>302.95</ele>
        <time>2015-12-01T10:44:39Z</time>
      </trkpt>
      <trkpt lat="43.53017" lon="6.28613">
        <ele>302.95</ele>
        <time>2015-12-01T10:45:02Z</time>
      </trkpt>
      <trkpt lat="43.53017" lon="6.28613">
        <ele>303.43</ele>
        <time>2015-12-01T10:45:25Z</time>
      </trkpt>
      <trkpt lat="43.53021" lon="6.28615">
        <ele>303.43</ele>
        <time>2015-12-01T10:45:33Z</time>
      </trkpt>
      <trkpt lat="43.53026" lon="6.28622">
        <ele>303.43</ele>
        <time>2015-12-01T10:45:38Z</time>
      </trkpt>
      <trkpt lat="43.53041" lon="6.28634">
        <ele>303.43</ele>
        <time>2015-12-01T10:45:52Z</time>
      </trkpt>
      <trkpt lat="43.53056" lon="6.28647">
        <ele>303.91</ele>
        <time>2015-12-01T10:46:06Z</time>
      </trkpt>
      <trkpt lat="43.53069" lon="6.28657">
        <ele>304.39</ele>
        <time>2015-12-01T10:46:18Z</time>
      </trkpt>
      <trkpt lat="43.53088" lon="6.28661">
        <ele>305.36</ele>
        <time>2015-12-01T10:46:34Z</time>
      </trkpt>
      <trkpt lat="43.53104" lon="6.2866">
        <ele>306.8</ele>
        <time>2015-12-01T10:46:48Z</time>
      </trkpt>
      <trkpt lat="43.53119" lon="6.28658">
        <ele>306.8</ele>
        <time>2015-12-01T10:47:00Z</time>
      </trkpt>
      <trkpt lat="43.53121" lon="6.28657">
        <ele>306.8</ele>
        <time>2015-12-01T10:47:02Z</time>
      </trkpt>
      <trkpt lat="43.53139" lon="6.28662">
        <ele>307.76</ele>
        <time>2015-12-01T10:47:19Z</time>
      </trkpt>
      <trkpt lat="43.53153" lon="6.28669">
        <ele>308.72</ele>
        <time>2015-12-01T10:47:32Z</time>
      </trkpt>
      <trkpt lat="43.53167" lon="6.2868">
        <ele>309.68</ele>
        <time>2015-12-01T10:47:47Z</time>
      </trkpt>
      <trkpt lat="43.53181" lon="6.28687">
        <ele>310.64</ele>
        <time>2015-12-01T10:48:00Z</time>
      </trkpt>
      <trkpt lat="43.53194" lon="6.28691">
        <ele>311.6</ele>
        <time>2015-12-01T10:48:13Z</time>
      </trkpt>
      <trkpt lat="43.5321" lon="6.28697">
        <ele>313.05</ele>
        <time>2015-12-01T10:48:28Z</time>
      </trkpt>
      <trkpt lat="43.53226" lon="6.28707">
        <ele>313.53</ele>
        <time>2015-12-01T10:48:44Z</time>
      </trkpt>
      <trkpt lat="43.53235" lon="6.28716">
        <ele>314.01</ele>
        <time>2015-12-01T10:48:56Z</time>
      </trkpt>
      <trkpt lat="43.53239" lon="6.28719">
        <ele>314.49</ele>
        <time>2015-12-01T10:49:00Z</time>
      </trkpt>
      <trkpt lat="43.53257" lon="6.28731">
        <ele>315.45</ele>
        <time>2015-12-01T10:49:18Z</time>
      </trkpt>
      <trkpt lat="43.53271" lon="6.28739">
        <ele>316.41</ele>
        <time>2015-12-01T10:49:33Z</time>
      </trkpt>
      <trkpt lat="43.53273" lon="6.2874">
        <ele>316.41</ele>
        <time>2015-12-01T10:49:35Z</time>
      </trkpt>
      <trkpt lat="43.5329" lon="6.28744">
        <ele>317.85</ele>
        <time>2015-12-01T10:49:51Z</time>
      </trkpt>
      <trkpt lat="43.533" lon="6.28737">
        <ele>318.33</ele>
        <time>2015-12-01T10:50:00Z</time>
      </trkpt>
      <trkpt lat="43.53313" lon="6.28727">
        <ele>319.78</ele>
        <time>2015-12-01T10:50:14Z</time>
      </trkpt>
      <trkpt lat="43.53328" lon="6.28719">
        <ele>320.74</ele>
        <time>2015-12-01T10:50:30Z</time>
      </trkpt>
      <trkpt lat="43.53341" lon="6.28712">
        <ele>321.7</ele>
        <time>2015-12-01T10:50:44Z</time>
      </trkpt>
      <trkpt lat="43.53347" lon="6.28709">
        <ele>322.18</ele>
        <time>2015-12-01T10:50:50Z</time>
      </trkpt>
      <trkpt lat="43.53362" lon="6.28701">
        <ele>323.14</ele>
        <time>2015-12-01T10:51:05Z</time>
      </trkpt>
      <trkpt lat="43.53364" lon="6.28699">
        <ele>323.14</ele>
        <time>2015-12-01T10:51:08Z</time>
      </trkpt>
      <trkpt lat="43.53382" lon="6.28693">
        <ele>324.58</ele>
        <time>2015-12-01T10:51:26Z</time>
      </trkpt>
      <trkpt lat="43.53384" lon="6.28692">
        <ele>325.06</ele>
        <time>2015-12-01T10:51:28Z</time>
      </trkpt>
      <trkpt lat="43.53398" lon="6.28681">
        <ele>326.02</ele>
        <time>2015-12-01T10:51:43Z</time>
      </trkpt>
      <trkpt lat="43.53411" lon="6.28671">
        <ele>326.99</ele>
        <time>2015-12-01T10:51:57Z</time>
      </trkpt>
      <trkpt lat="43.53426" lon="6.28663">
        <ele>328.43</ele>
        <time>2015-12-01T10:52:12Z</time>
      </trkpt>
      <trkpt lat="43.53439" lon="6.2866">
        <ele>330.83</ele>
        <time>2015-12-01T10:52:27Z</time>
      </trkpt>
      <trkpt lat="43.5345" lon="6.28656">
        <ele>331.79</ele>
        <time>2015-12-01T10:52:39Z</time>
      </trkpt>
      <trkpt lat="43.53467" lon="6.28644">
        <ele>333.71</ele>
        <time>2015-12-01T10:52:58Z</time>
      </trkpt>
      <trkpt lat="43.53468" lon="6.28642">
        <ele>333.71</ele>
        <time>2015-12-01T10:53:00Z</time>
      </trkpt>
      <trkpt lat="43.53481" lon="6.28637">
        <ele>335.16</ele>
        <time>2015-12-01T10:53:15Z</time>
      </trkpt>
      <trkpt lat="43.53487" lon="6.28637">
        <ele>335.64</ele>
        <time>2015-12-01T10:53:23Z</time>
      </trkpt>
      <trkpt lat="43.53493" lon="6.28637">
        <ele>336.6</ele>
        <time>2015-12-01T10:53:28Z</time>
      </trkpt>
      <trkpt lat="43.535" lon="6.28639">
        <ele>337.56</ele>
        <time>2015-12-01T10:53:41Z</time>
      </trkpt>
      <trkpt lat="43.53501" lon="6.28635">
        <ele>337.56</ele>
        <time>2015-12-01T10:53:56Z</time>
      </trkpt>
      <trkpt lat="43.53501" lon="6.28635">
        <ele>337.08</ele>
        <time>2015-12-01T10:54:13Z</time>
      </trkpt>
      <trkpt lat="43.53501" lon="6.28635">
        <ele>337.56</ele>
        <time>2015-12-01T10:54:27Z</time>
      </trkpt>
      <trkpt lat="43.53501" lon="6.28635">
        <ele>338.52</ele>
        <time>2015-12-01T10:54:30Z</time>
      </trkpt>
      <trkpt lat="43.53501" lon="6.28636">
        <ele>337.08</ele>
        <time>2015-12-01T10:54:42Z</time>
      </trkpt>
      <trkpt lat="43.53502" lon="6.28635">
        <ele>337.56</ele>
        <time>2015-12-01T10:54:56Z</time>
      </trkpt>
      <trkpt lat="43.53503" lon="6.28635">
        <ele>337.56</ele>
        <time>2015-12-01T10:55:19Z</time>
      </trkpt>
      <trkpt lat="43.53503" lon="6.28635">
        <ele>337.56</ele>
        <time>2015-12-01T10:55:44Z</time>
      </trkpt>
      <trkpt lat="43.53503" lon="6.28635">
        <ele>337.56</ele>
        <time>2015-12-01T10:56:18Z</time>
      </trkpt>
      <trkpt lat="43.53502" lon="6.28635">
        <ele>337.56</ele>
        <time>2015-12-01T10:56:34Z</time>
      </trkpt>
      <trkpt lat="43.53502" lon="6.28635">
        <ele>337.08</ele>
        <time>2015-12-01T10:56:50Z</time>
      </trkpt>
      <trkpt lat="43.53501" lon="6.28634">
        <ele>337.08</ele>
        <time>2015-12-01T10:57:09Z</time>
      </trkpt>
      <trkpt lat="43.53492" lon="6.28631">
        <ele>336.12</ele>
        <time>2015-12-01T10:57:21Z</time>
      </trkpt>
      <trkpt lat="43.53487" lon="6.28629">
        <ele>335.64</ele>
        <time>2015-12-01T10:57:33Z</time>
      </trkpt>
      <trkpt lat="43.53492" lon="6.28631">
        <ele>336.12</ele>
        <time>2015-12-01T10:57:44Z</time>
      </trkpt>
      <trkpt lat="43.53493" lon="6.28633">
        <ele>336.12</ele>
        <time>2015-12-01T10:58:00Z</time>
      </trkpt>
      <trkpt lat="43.53494" lon="6.28633">
        <ele>336.12</ele>
        <time>2015-12-01T10:58:18Z</time>
      </trkpt>
      <trkpt lat="43.53495" lon="6.28634">
        <ele>336.6</ele>
        <time>2015-12-01T10:58:35Z</time>
      </trkpt>
      <trkpt lat="43.53496" lon="6.28634">
        <ele>337.08</ele>
        <time>2015-12-01T10:59:04Z</time>
      </trkpt>
      <trkpt lat="43.53499" lon="6.28637">
        <ele>337.08</ele>
        <time>2015-12-01T10:59:30Z</time>
      </trkpt>
      <trkpt lat="43.53502" lon="6.28637">
        <ele>337.56</ele>
        <time>2015-12-01T10:59:45Z</time>
      </trkpt>
      <trkpt lat="43.53504" lon="6.28638">
        <ele>338.04</ele>
        <time>2015-12-01T10:59:58Z</time>
      </trkpt>
      <trkpt lat="43.5351" lon="6.28644">
        <ele>339</ele>
        <time>2015-12-01T11:00:07Z</time>
      </trkpt>
      <trkpt lat="43.5352" lon="6.28657">
        <ele>340.92</ele>
        <time>2015-12-01T11:00:22Z</time>
      </trkpt>
      <trkpt lat="43.53523" lon="6.2866">
        <ele>341.41</ele>
        <time>2015-12-01T11:00:27Z</time>
      </trkpt>
      <trkpt lat="43.53533" lon="6.28677">
        <ele>342.85</ele>
        <time>2015-12-01T11:00:42Z</time>
      </trkpt>
      <trkpt lat="43.53543" lon="6.28681">
        <ele>344.29</ele>
        <time>2015-12-01T11:00:50Z</time>
      </trkpt>
      <trkpt lat="43.53549" lon="6.28684">
        <ele>344.77</ele>
        <time>2015-12-01T11:00:59Z</time>
      </trkpt>
      <trkpt lat="43.5355" lon="6.28687">
        <ele>344.77</ele>
        <time>2015-12-01T11:01:01Z</time>
      </trkpt>
      <trkpt lat="43.53552" lon="6.28689">
        <ele>345.25</ele>
        <time>2015-12-01T11:01:03Z</time>
      </trkpt>
      <trkpt lat="43.53554" lon="6.28691">
        <ele>345.73</ele>
        <time>2015-12-01T11:01:06Z</time>
      </trkpt>
      <trkpt lat="43.53557" lon="6.28694">
        <ele>346.21</ele>
        <time>2015-12-01T11:01:10Z</time>
      </trkpt>
      <trkpt lat="43.53563" lon="6.28709">
        <ele>347.65</ele>
        <time>2015-12-01T11:01:24Z</time>
      </trkpt>
      <trkpt lat="43.5357" lon="6.28728">
        <ele>349.58</ele>
        <time>2015-12-01T11:01:40Z</time>
      </trkpt>
      <trkpt lat="43.53577" lon="6.28743">
        <ele>351.02</ele>
        <time>2015-12-01T11:01:54Z</time>
      </trkpt>
      <trkpt lat="43.53585" lon="6.28759">
        <ele>352.94</ele>
        <time>2015-12-01T11:02:09Z</time>
      </trkpt>
      <trkpt lat="43.53585" lon="6.28762">
        <ele>352.94</ele>
        <time>2015-12-01T11:02:11Z</time>
      </trkpt>
      <trkpt lat="43.53591" lon="6.28772">
        <ele>353.42</ele>
        <time>2015-12-01T11:02:19Z</time>
      </trkpt>
      <trkpt lat="43.53599" lon="6.2879">
        <ele>353.42</ele>
        <time>2015-12-01T11:02:33Z</time>
      </trkpt>
      <trkpt lat="43.53606" lon="6.28804">
        <ele>353.42</ele>
        <time>2015-12-01T11:02:46Z</time>
      </trkpt>
      <trkpt lat="43.53613" lon="6.28821">
        <ele>353.9</ele>
        <time>2015-12-01T11:03:00Z</time>
      </trkpt>
      <trkpt lat="43.53619" lon="6.28846">
        <ele>354.38</ele>
        <time>2015-12-01T11:03:16Z</time>
      </trkpt>
      <trkpt lat="43.53619" lon="6.28848">
        <ele>354.38</ele>
        <time>2015-12-01T11:03:17Z</time>
      </trkpt>
      <trkpt lat="43.53624" lon="6.28863">
        <ele>355.34</ele>
        <time>2015-12-01T11:03:29Z</time>
      </trkpt>
      <trkpt lat="43.53628" lon="6.28879">
        <ele>356.79</ele>
        <time>2015-12-01T11:03:41Z</time>
      </trkpt>
      <trkpt lat="43.53635" lon="6.28898">
        <ele>358.23</ele>
        <time>2015-12-01T11:03:56Z</time>
      </trkpt>
      <trkpt lat="43.53646" lon="6.28912">
        <ele>360.15</ele>
        <time>2015-12-01T11:04:12Z</time>
      </trkpt>
      <trkpt lat="43.53659" lon="6.28924">
        <ele>362.07</ele>
        <time>2015-12-01T11:04:31Z</time>
      </trkpt>
      <trkpt lat="43.53669" lon="6.28937">
        <ele>364</ele>
        <time>2015-12-01T11:04:47Z</time>
      </trkpt>
      <trkpt lat="43.5368" lon="6.28941">
        <ele>365.92</ele>
        <time>2015-12-01T11:05:00Z</time>
      </trkpt>
      <trkpt lat="43.5369" lon="6.28927">
        <ele>367.84</ele>
        <time>2015-12-01T11:05:14Z</time>
      </trkpt>
      <trkpt lat="43.53693" lon="6.28918">
        <ele>368.32</ele>
        <time>2015-12-01T11:05:21Z</time>
      </trkpt>
      <trkpt lat="43.53704" lon="6.28899">
        <ele>369.76</ele>
        <time>2015-12-01T11:05:37Z</time>
      </trkpt>
      <trkpt lat="43.53711" lon="6.28881">
        <ele>370.24</ele>
        <time>2015-12-01T11:05:52Z</time>
      </trkpt>
      <trkpt lat="43.53716" lon="6.28867">
        <ele>370.24</ele>
        <time>2015-12-01T11:06:06Z</time>
      </trkpt>
      <trkpt lat="43.5372" lon="6.2885">
        <ele>370.73</ele>
        <time>2015-12-01T11:06:21Z</time>
      </trkpt>
      <trkpt lat="43.53726" lon="6.28836">
        <ele>371.21</ele>
        <time>2015-12-01T11:06:36Z</time>
      </trkpt>
      <trkpt lat="43.53735" lon="6.28817">
        <ele>371.21</ele>
        <time>2015-12-01T11:06:50Z</time>
      </trkpt>
      <trkpt lat="43.53738" lon="6.28803">
        <ele>370.73</ele>
        <time>2015-12-01T11:07:02Z</time>
      </trkpt>
      <trkpt lat="43.53741" lon="6.28792">
        <ele>370.73</ele>
        <time>2015-12-01T11:07:13Z</time>
      </trkpt>
      <trkpt lat="43.53743" lon="6.28789">
        <ele>370.73</ele>
        <time>2015-12-01T11:07:17Z</time>
      </trkpt>
      <trkpt lat="43.53748" lon="6.28782">
        <ele>371.21</ele>
        <time>2015-12-01T11:07:29Z</time>
      </trkpt>
      <trkpt lat="43.53752" lon="6.2878">
        <ele>371.21</ele>
        <time>2015-12-01T11:07:47Z</time>
      </trkpt>
      <trkpt lat="43.53751" lon="6.28779">
        <ele>371.21</ele>
        <time>2015-12-01T11:08:03Z</time>
      </trkpt>
      <trkpt lat="43.53751" lon="6.28779">
        <ele>371.21</ele>
        <time>2015-12-01T11:08:27Z</time>
      </trkpt>
      <trkpt lat="43.53751" lon="6.28779">
        <ele>371.69</ele>
        <time>2015-12-01T11:08:55Z</time>
      </trkpt>
      <trkpt lat="43.53766" lon="6.28784">
        <ele>372.17</ele>
        <time>2015-12-01T11:09:12Z</time>
      </trkpt>
      <trkpt lat="43.53781" lon="6.28793">
        <ele>373.13</ele>
        <time>2015-12-01T11:09:29Z</time>
      </trkpt>
      <trkpt lat="43.5379" lon="6.28796">
        <ele>373.61</ele>
        <time>2015-12-01T11:09:39Z</time>
      </trkpt>
      <trkpt lat="43.53794" lon="6.28797">
        <ele>374.09</ele>
        <time>2015-12-01T11:09:43Z</time>
      </trkpt>
      <trkpt lat="43.53797" lon="6.28798">
        <ele>374.57</ele>
        <time>2015-12-01T11:09:46Z</time>
      </trkpt>
      <trkpt lat="43.53809" lon="6.28804">
        <ele>375.05</ele>
        <time>2015-12-01T11:10:00Z</time>
      </trkpt>
      <trkpt lat="43.53822" lon="6.28811">
        <ele>375.53</ele>
        <time>2015-12-01T11:10:14Z</time>
      </trkpt>
      <trkpt lat="43.53825" lon="6.28811">
        <ele>376.01</ele>
        <time>2015-12-01T11:10:16Z</time>
      </trkpt>
      <trkpt lat="43.5384" lon="6.28812">
        <ele>376.97</ele>
        <time>2015-12-01T11:10:31Z</time>
      </trkpt>
      <trkpt lat="43.53856" lon="6.28808">
        <ele>377.94</ele>
        <time>2015-12-01T11:10:45Z</time>
      </trkpt>
      <trkpt lat="43.53874" lon="6.28809">
        <ele>378.42</ele>
        <time>2015-12-01T11:11:01Z</time>
      </trkpt>
      <trkpt lat="43.53891" lon="6.28802">
        <ele>379.38</ele>
        <time>2015-12-01T11:11:19Z</time>
      </trkpt>
      <trkpt lat="43.53908" lon="6.28789">
        <ele>379.86</ele>
        <time>2015-12-01T11:11:36Z</time>
      </trkpt>
      <trkpt lat="43.53923" lon="6.28784">
        <ele>380.82</ele>
        <time>2015-12-01T11:11:52Z</time>
      </trkpt>
      <trkpt lat="43.5394" lon="6.28784">
        <ele>380.82</ele>
        <time>2015-12-01T11:12:08Z</time>
      </trkpt>
      <trkpt lat="43.53954" lon="6.28776">
        <ele>381.3</ele>
        <time>2015-12-01T11:12:24Z</time>
      </trkpt>
      <trkpt lat="43.53968" lon="6.28767">
        <ele>381.78</ele>
        <time>2015-12-01T11:12:38Z</time>
      </trkpt>
      <trkpt lat="43.53981" lon="6.28757">
        <ele>383.22</ele>
        <time>2015-12-01T11:12:53Z</time>
      </trkpt>
      <trkpt lat="43.53995" lon="6.28747">
        <ele>383.7</ele>
        <time>2015-12-01T11:13:07Z</time>
      </trkpt>
      <trkpt lat="43.54006" lon="6.28736">
        <ele>384.18</ele>
        <time>2015-12-01T11:13:22Z</time>
      </trkpt>
      <trkpt lat="43.54008" lon="6.28733">
        <ele>384.66</ele>
        <time>2015-12-01T11:13:25Z</time>
      </trkpt>
      <trkpt lat="43.54014" lon="6.28714">
        <ele>385.63</ele>
        <time>2015-12-01T11:13:39Z</time>
      </trkpt>
      <trkpt lat="43.54015" lon="6.28691">
        <ele>386.11</ele>
        <time>2015-12-01T11:13:55Z</time>
      </trkpt>
      <trkpt lat="43.54019" lon="6.28682">
        <ele>386.11</ele>
        <time>2015-12-01T11:14:02Z</time>
      </trkpt>
      <trkpt lat="43.54027" lon="6.28666">
        <ele>387.07</ele>
        <time>2015-12-01T11:14:20Z</time>
      </trkpt>
      <trkpt lat="43.54031" lon="6.28654">
        <ele>387.07</ele>
        <time>2015-12-01T11:14:31Z</time>
      </trkpt>
      <trkpt lat="43.54039" lon="6.2863">
        <ele>385.15</ele>
        <time>2015-12-01T11:14:47Z</time>
      </trkpt>
      <trkpt lat="43.54044" lon="6.28606">
        <ele>385.15</ele>
        <time>2015-12-01T11:15:02Z</time>
      </trkpt>
      <trkpt lat="43.54037" lon="6.28589">
        <ele>385.63</ele>
        <time>2015-12-01T11:15:16Z</time>
      </trkpt>
      <trkpt lat="43.54033" lon="6.28586">
        <ele>386.11</ele>
        <time>2015-12-01T11:15:19Z</time>
      </trkpt>
      <trkpt lat="43.54026" lon="6.28581">
        <ele>386.59</ele>
        <time>2015-12-01T11:15:25Z</time>
      </trkpt>
      <trkpt lat="43.54014" lon="6.2857">
        <ele>386.11</ele>
        <time>2015-12-01T11:15:42Z</time>
      </trkpt>
      <trkpt lat="43.54013" lon="6.28569">
        <ele>386.11</ele>
        <time>2015-12-01T11:15:43Z</time>
      </trkpt>
      <trkpt lat="43.54003" lon="6.28556">
        <ele>387.07</ele>
        <time>2015-12-01T11:15:57Z</time>
      </trkpt>
      <trkpt lat="43.5399" lon="6.28536">
        <ele>388.51</ele>
        <time>2015-12-01T11:16:17Z</time>
      </trkpt>
      <trkpt lat="43.53976" lon="6.28524">
        <ele>389.95</ele>
        <time>2015-12-01T11:16:30Z</time>
      </trkpt>
      <trkpt lat="43.53963" lon="6.28514">
        <ele>388.99</ele>
        <time>2015-12-01T11:16:45Z</time>
      </trkpt>
      <trkpt lat="43.5395" lon="6.28507">
        <ele>388.51</ele>
        <time>2015-12-01T11:17:01Z</time>
      </trkpt>
      <trkpt lat="43.53933" lon="6.28497">
        <ele>387.55</ele>
        <time>2015-12-01T11:17:17Z</time>
      </trkpt>
      <trkpt lat="43.53921" lon="6.28488">
        <ele>387.07</ele>
        <time>2015-12-01T11:17:32Z</time>
      </trkpt>
      <trkpt lat="43.53901" lon="6.2848">
        <ele>387.07</ele>
        <time>2015-12-01T11:17:49Z</time>
      </trkpt>
      <trkpt lat="43.53893" lon="6.28473">
        <ele>388.03</ele>
        <time>2015-12-01T11:18:03Z</time>
      </trkpt>
      <trkpt lat="43.53878" lon="6.28462">
        <ele>388.51</ele>
        <time>2015-12-01T11:18:17Z</time>
      </trkpt>
      <trkpt lat="43.53864" lon="6.28458">
        <ele>388.51</ele>
        <time>2015-12-01T11:18:31Z</time>
      </trkpt>
      <trkpt lat="43.53852" lon="6.28453">
        <ele>388.03</ele>
        <time>2015-12-01T11:18:45Z</time>
      </trkpt>
      <trkpt lat="43.53837" lon="6.28449">
        <ele>388.03</ele>
        <time>2015-12-01T11:18:59Z</time>
      </trkpt>
      <trkpt lat="43.53827" lon="6.28444">
        <ele>388.51</ele>
        <time>2015-12-01T11:19:11Z</time>
      </trkpt>
      <trkpt lat="43.53823" lon="6.28443">
        <ele>388.51</ele>
        <time>2015-12-01T11:19:16Z</time>
      </trkpt>
      <trkpt lat="43.5381" lon="6.28434">
        <ele>388.51</ele>
        <time>2015-12-01T11:19:31Z</time>
      </trkpt>
      <trkpt lat="43.538" lon="6.28422">
        <ele>388.99</ele>
        <time>2015-12-01T11:19:48Z</time>
      </trkpt>
      <trkpt lat="43.53796" lon="6.28419">
        <ele>389.47</ele>
        <time>2015-12-01T11:19:52Z</time>
      </trkpt>
      <trkpt lat="43.5379" lon="6.28402">
        <ele>389.95</ele>
        <time>2015-12-01T11:20:05Z</time>
      </trkpt>
      <trkpt lat="43.53789" lon="6.284">
        <ele>389.95</ele>
        <time>2015-12-01T11:20:07Z</time>
      </trkpt>
      <trkpt lat="43.53785" lon="6.2839">
        <ele>389.95</ele>
        <time>2015-12-01T11:20:14Z</time>
      </trkpt>
      <trkpt lat="43.53782" lon="6.28381">
        <ele>389.95</ele>
        <time>2015-12-01T11:20:21Z</time>
      </trkpt>
      <trkpt lat="43.53776" lon="6.28364">
        <ele>389.47</ele>
        <time>2015-12-01T11:20:35Z</time>
      </trkpt>
      <trkpt lat="43.53771" lon="6.28347">
        <ele>388.99</ele>
        <time>2015-12-01T11:20:49Z</time>
      </trkpt>
      <trkpt lat="43.53771" lon="6.28331">
        <ele>389.47</ele>
        <time>2015-12-01T11:21:00Z</time>
      </trkpt>
      <trkpt lat="43.53776" lon="6.28314">
        <ele>389.47</ele>
        <time>2015-12-01T11:21:13Z</time>
      </trkpt>
      <trkpt lat="43.53784" lon="6.28303">
        <ele>388.99</ele>
        <time>2015-12-01T11:21:25Z</time>
      </trkpt>
      <trkpt lat="43.53793" lon="6.28288">
        <ele>389.47</ele>
        <time>2015-12-01T11:21:39Z</time>
      </trkpt>
      <trkpt lat="43.53793" lon="6.28286">
        <ele>389.47</ele>
        <time>2015-12-01T11:21:51Z</time>
      </trkpt>
      <trkpt lat="43.53792" lon="6.28287">
        <ele>388.99</ele>
        <time>2015-12-01T11:22:17Z</time>
      </trkpt>
      <trkpt lat="43.5379" lon="6.28286">
        <ele>388.99</ele>
        <time>2015-12-01T11:22:34Z</time>
      </trkpt>
      <trkpt lat="43.53791" lon="6.28285">
        <ele>388.99</ele>
        <time>2015-12-01T11:22:54Z</time>
      </trkpt>
      <trkpt lat="43.53789" lon="6.28287">
        <ele>388.99</ele>
        <time>2015-12-01T11:23:08Z</time>
      </trkpt>
      <trkpt lat="43.5379" lon="6.28287">
        <ele>388.99</ele>
        <time>2015-12-01T11:23:33Z</time>
      </trkpt>
      <trkpt lat="43.5379" lon="6.28284">
        <ele>388.99</ele>
        <time>2015-12-01T11:23:49Z</time>
      </trkpt>
      <trkpt lat="43.53791" lon="6.28284">
        <ele>388.99</ele>
        <time>2015-12-01T11:24:09Z</time>
      </trkpt>
      <trkpt lat="43.53795" lon="6.28278">
        <ele>388.51</ele>
        <time>2015-12-01T11:24:30Z</time>
      </trkpt>
      <trkpt lat="43.53804" lon="6.28261">
        <ele>389.47</ele>
        <time>2015-12-01T11:24:45Z</time>
      </trkpt>
      <trkpt lat="43.53813" lon="6.28242">
        <ele>390.43</ele>
        <time>2015-12-01T11:25:01Z</time>
      </trkpt>
      <trkpt lat="43.53814" lon="6.28239">
        <ele>390.43</ele>
        <time>2015-12-01T11:25:03Z</time>
      </trkpt>
      <trkpt lat="43.53814" lon="6.28236">
        <ele>390.91</ele>
        <time>2015-12-01T11:25:05Z</time>
      </trkpt>
      <trkpt lat="43.53819" lon="6.28223">
        <ele>390.91</ele>
        <time>2015-12-01T11:25:14Z</time>
      </trkpt>
      <trkpt lat="43.53821" lon="6.28212">
        <ele>391.87</ele>
        <time>2015-12-01T11:25:21Z</time>
      </trkpt>
      <trkpt lat="43.53826" lon="6.28201">
        <ele>391.87</ele>
        <time>2015-12-01T11:25:30Z</time>
      </trkpt>
      <trkpt lat="43.53837" lon="6.28183">
        <ele>391.87</ele>
        <time>2015-12-01T11:25:46Z</time>
      </trkpt>
      <trkpt lat="43.53847" lon="6.28171">
        <ele>391.87</ele>
        <time>2015-12-01T11:26:00Z</time>
      </trkpt>
      <trkpt lat="43.53858" lon="6.2816">
        <ele>392.36</ele>
        <time>2015-12-01T11:26:13Z</time>
      </trkpt>
      <trkpt lat="43.53871" lon="6.28151">
        <ele>393.32</ele>
        <time>2015-12-01T11:26:27Z</time>
      </trkpt>
      <trkpt lat="43.53882" lon="6.28143">
        <ele>395.24</ele>
        <time>2015-12-01T11:26:40Z</time>
      </trkpt>
      <trkpt lat="43.53884" lon="6.28142">
        <ele>395.24</ele>
        <time>2015-12-01T11:26:42Z</time>
      </trkpt>
      <trkpt lat="43.53901" lon="6.28126">
        <ele>397.64</ele>
        <time>2015-12-01T11:27:01Z</time>
      </trkpt>
      <trkpt lat="43.53907" lon="6.28118">
        <ele>398.6</ele>
        <time>2015-12-01T11:27:10Z</time>
      </trkpt>
      <trkpt lat="43.5391" lon="6.28113">
        <ele>398.6</ele>
        <time>2015-12-01T11:27:14Z</time>
      </trkpt>
      <trkpt lat="43.53915" lon="6.28099">
        <ele>398.12</ele>
        <time>2015-12-01T11:27:23Z</time>
      </trkpt>
      <trkpt lat="43.53917" lon="6.28092">
        <ele>398.12</ele>
        <time>2015-12-01T11:27:28Z</time>
      </trkpt>
      <trkpt lat="43.5392" lon="6.28083">
        <ele>397.64</ele>
        <time>2015-12-01T11:27:34Z</time>
      </trkpt>
      <trkpt lat="43.53921" lon="6.28075">
        <ele>397.64</ele>
        <time>2015-12-01T11:27:39Z</time>
      </trkpt>
      <trkpt lat="43.53922" lon="6.2805">
        <ele>397.64</ele>
        <time>2015-12-01T11:27:55Z</time>
      </trkpt>
      <trkpt lat="43.53925" lon="6.2803">
        <ele>397.16</ele>
        <time>2015-12-01T11:28:09Z</time>
      </trkpt>
      <trkpt lat="43.53927" lon="6.28017">
        <ele>397.16</ele>
        <time>2015-12-01T11:28:18Z</time>
      </trkpt>
      <trkpt lat="43.53932" lon="6.27997">
        <ele>397.16</ele>
        <time>2015-12-01T11:28:33Z</time>
      </trkpt>
      <trkpt lat="43.53934" lon="6.27986">
        <ele>396.68</ele>
        <time>2015-12-01T11:28:41Z</time>
      </trkpt>
      <trkpt lat="43.5394" lon="6.27962">
        <ele>396.2</ele>
        <time>2015-12-01T11:28:57Z</time>
      </trkpt>
      <trkpt lat="43.53942" lon="6.27957">
        <ele>396.2</ele>
        <time>2015-12-01T11:29:01Z</time>
      </trkpt>
      <trkpt lat="43.53945" lon="6.27934">
        <ele>395.72</ele>
        <time>2015-12-01T11:29:18Z</time>
      </trkpt>
      <trkpt lat="43.5395" lon="6.27918">
        <ele>395.72</ele>
        <time>2015-12-01T11:29:33Z</time>
      </trkpt>
      <trkpt lat="43.53951" lon="6.27909">
        <ele>395.24</ele>
        <time>2015-12-01T11:29:40Z</time>
      </trkpt>
      <trkpt lat="43.53955" lon="6.27889">
        <ele>394.76</ele>
        <time>2015-12-01T11:29:58Z</time>
      </trkpt>
      <trkpt lat="43.53963" lon="6.27861">
        <ele>394.28</ele>
        <time>2015-12-01T11:30:17Z</time>
      </trkpt>
      <trkpt lat="43.53964" lon="6.27838">
        <ele>394.28</ele>
        <time>2015-12-01T11:30:34Z</time>
      </trkpt>
      <trkpt lat="43.53969" lon="6.27815">
        <ele>393.32</ele>
        <time>2015-12-01T11:30:48Z</time>
      </trkpt>
      <trkpt lat="43.53972" lon="6.27805">
        <ele>392.84</ele>
        <time>2015-12-01T11:30:54Z</time>
      </trkpt>
      <trkpt lat="43.5397" lon="6.27787">
        <ele>392.36</ele>
        <time>2015-12-01T11:31:07Z</time>
      </trkpt>
      <trkpt lat="43.53969" lon="6.27776">
        <ele>392.36</ele>
        <time>2015-12-01T11:31:15Z</time>
      </trkpt>
      <trkpt lat="43.5397" lon="6.2776">
        <ele>391.87</ele>
        <time>2015-12-01T11:31:25Z</time>
      </trkpt>
      <trkpt lat="43.53971" lon="6.27737">
        <ele>391.87</ele>
        <time>2015-12-01T11:31:39Z</time>
      </trkpt>
      <trkpt lat="43.53972" lon="6.27718">
        <ele>391.87</ele>
        <time>2015-12-01T11:31:53Z</time>
      </trkpt>
      <trkpt lat="43.53973" lon="6.27703">
        <ele>391.87</ele>
        <time>2015-12-01T11:32:03Z</time>
      </trkpt>
      <trkpt lat="43.53972" lon="6.27687">
        <ele>391.87</ele>
        <time>2015-12-01T11:32:13Z</time>
      </trkpt>
      <trkpt lat="43.53971" lon="6.2767">
        <ele>392.36</ele>
        <time>2015-12-01T11:32:26Z</time>
      </trkpt>
      <trkpt lat="43.53972" lon="6.2765">
        <ele>392.84</ele>
        <time>2015-12-01T11:32:37Z</time>
      </trkpt>
      <trkpt lat="43.5397" lon="6.27625">
        <ele>392.84</ele>
        <time>2015-12-01T11:32:53Z</time>
      </trkpt>
      <trkpt lat="43.53971" lon="6.27616">
        <ele>393.32</ele>
        <time>2015-12-01T11:33:00Z</time>
      </trkpt>
      <trkpt lat="43.53972" lon="6.27593">
        <ele>393.8</ele>
        <time>2015-12-01T11:33:16Z</time>
      </trkpt>
      <trkpt lat="43.53972" lon="6.27591">
        <ele>394.28</ele>
        <time>2015-12-01T11:33:17Z</time>
      </trkpt>
      <trkpt lat="43.53975" lon="6.2757">
        <ele>395.24</ele>
        <time>2015-12-01T11:33:33Z</time>
      </trkpt>
      <trkpt lat="43.53964" lon="6.27548">
        <ele>394.76</ele>
        <time>2015-12-01T11:33:47Z</time>
      </trkpt>
      <trkpt lat="43.53951" lon="6.27537">
        <ele>394.28</ele>
        <time>2015-12-01T11:34:00Z</time>
      </trkpt>
      <trkpt lat="43.53942" lon="6.27519">
        <ele>393.8</ele>
        <time>2015-12-01T11:34:16Z</time>
      </trkpt>
      <trkpt lat="43.53944" lon="6.27508">
        <ele>393.8</ele>
        <time>2015-12-01T11:34:31Z</time>
      </trkpt>
      <trkpt lat="43.53941" lon="6.27507">
        <ele>393.32</ele>
        <time>2015-12-01T11:34:52Z</time>
      </trkpt>
      <trkpt lat="43.53941" lon="6.27505">
        <ele>392.84</ele>
        <time>2015-12-01T11:35:11Z</time>
      </trkpt>
      <trkpt lat="43.5394" lon="6.27506">
        <ele>392.84</ele>
        <time>2015-12-01T11:35:31Z</time>
      </trkpt>
      <trkpt lat="43.53939" lon="6.27505">
        <ele>393.32</ele>
        <time>2015-12-01T11:35:50Z</time>
      </trkpt>
      <trkpt lat="43.53938" lon="6.27508">
        <ele>392.84</ele>
        <time>2015-12-01T11:36:17Z</time>
      </trkpt>
      <trkpt lat="43.53944" lon="6.27502">
        <ele>392.84</ele>
        <time>2015-12-01T11:36:32Z</time>
      </trkpt>
      <trkpt lat="43.5395" lon="6.27493">
        <ele>392.36</ele>
        <time>2015-12-01T11:36:50Z</time>
      </trkpt>
      <trkpt lat="43.53951" lon="6.27491">
        <ele>391.87</ele>
        <time>2015-12-01T11:37:05Z</time>
      </trkpt>
      <trkpt lat="43.53949" lon="6.2749">
        <ele>391.87</ele>
        <time>2015-12-01T11:37:31Z</time>
      </trkpt>
      <trkpt lat="43.53949" lon="6.27489">
        <ele>391.87</ele>
        <time>2015-12-01T11:37:55Z</time>
      </trkpt>
      <trkpt lat="43.53949" lon="6.27488">
        <ele>391.87</ele>
        <time>2015-12-01T11:38:28Z</time>
      </trkpt>
      <trkpt lat="43.53948" lon="6.27488">
        <ele>391.39</ele>
        <time>2015-12-01T11:38:57Z</time>
      </trkpt>
      <trkpt lat="43.53949" lon="6.27489">
        <ele>391.87</ele>
        <time>2015-12-01T11:39:36Z</time>
      </trkpt>
      <trkpt lat="43.53946" lon="6.27491">
        <ele>391.87</ele>
        <time>2015-12-01T11:40:09Z</time>
      </trkpt>
      <trkpt lat="43.53945" lon="6.27491">
        <ele>391.87</ele>
        <time>2015-12-01T11:40:36Z</time>
      </trkpt>
      <trkpt lat="43.53945" lon="6.27491">
        <ele>391.87</ele>
        <time>2015-12-01T11:41:11Z</time>
      </trkpt>
      <trkpt lat="43.53944" lon="6.27491">
        <ele>391.87</ele>
        <time>2015-12-01T11:41:53Z</time>
      </trkpt>
      <trkpt lat="43.53943" lon="6.27491">
        <ele>392.36</ele>
        <time>2015-12-01T11:42:20Z</time>
      </trkpt>
      <trkpt lat="43.53943" lon="6.2749">
        <ele>392.36</ele>
        <time>2015-12-01T11:42:52Z</time>
      </trkpt>
      <trkpt lat="43.53942" lon="6.27491">
        <ele>392.36</ele>
        <time>2015-12-01T11:43:24Z</time>
      </trkpt>
      <trkpt lat="43.53942" lon="6.27492">
        <ele>392.36</ele>
        <time>2015-12-01T11:43:56Z</time>
      </trkpt>
      <trkpt lat="43.53942" lon="6.27492">
        <ele>392.36</ele>
        <time>2015-12-01T11:44:29Z</time>
      </trkpt>
      <trkpt lat="43.53942" lon="6.27492">
        <ele>392.36</ele>
        <time>2015-12-01T11:44:58Z</time>
      </trkpt>
      <trkpt lat="43.53942" lon="6.27491">
        <ele>392.36</ele>
        <time>2015-12-01T11:45:31Z</time>
      </trkpt>
      <trkpt lat="43.53942" lon="6.2749">
        <ele>392.84</ele>
        <time>2015-12-01T11:46:04Z</time>
      </trkpt>
      <trkpt lat="43.53942" lon="6.27491">
        <ele>392.84</ele>
        <time>2015-12-01T11:46:30Z</time>
      </trkpt>
      <trkpt lat="43.53943" lon="6.27492">
        <ele>392.84</ele>
        <time>2015-12-01T11:47:02Z</time>
      </trkpt>
      <trkpt lat="43.53943" lon="6.27493">
        <ele>392.84</ele>
        <time>2015-12-01T11:47:40Z</time>
      </trkpt>
      <trkpt lat="43.53943" lon="6.27495">
        <ele>392.84</ele>
        <time>2015-12-01T11:48:19Z</time>
      </trkpt>
      <trkpt lat="43.53942" lon="6.27494">
        <ele>393.32</ele>
        <time>2015-12-01T11:48:48Z</time>
      </trkpt>
      <trkpt lat="43.53941" lon="6.27492">
        <ele>393.32</ele>
        <time>2015-12-01T11:49:21Z</time>
      </trkpt>
      <trkpt lat="43.5394" lon="6.27493">
        <ele>393.32</ele>
        <time>2015-12-01T11:49:51Z</time>
      </trkpt>
      <trkpt lat="43.53941" lon="6.27494">
        <ele>393.32</ele>
        <time>2015-12-01T11:50:26Z</time>
      </trkpt>
      <trkpt lat="43.53941" lon="6.27494">
        <ele>393.32</ele>
        <time>2015-12-01T11:50:33Z</time>
      </trkpt>
      <trkpt lat="43.53948" lon="6.27486">
        <ele>392.84</ele>
        <time>2015-12-01T11:50:44Z</time>
      </trkpt>
      <trkpt lat="43.53957" lon="6.27475">
        <ele>391.39</ele>
        <time>2015-12-01T11:50:59Z</time>
      </trkpt>
      <trkpt lat="43.53967" lon="6.27464">
        <ele>391.39</ele>
        <time>2015-12-01T11:51:11Z</time>
      </trkpt>
      <trkpt lat="43.5397" lon="6.27453">
        <ele>391.39</ele>
        <time>2015-12-01T11:51:33Z</time>
      </trkpt>
      <trkpt lat="43.53975" lon="6.27451">
        <ele>391.39</ele>
        <time>2015-12-01T11:51:49Z</time>
      </trkpt>
      <trkpt lat="43.5398" lon="6.27445">
        <ele>392.36</ele>
        <time>2015-12-01T11:52:18Z</time>
      </trkpt>
      <trkpt lat="43.5398" lon="6.27444">
        <ele>391.39</ele>
        <time>2015-12-01T11:52:37Z</time>
      </trkpt>
      <trkpt lat="43.5398" lon="6.27443">
        <ele>391.39</ele>
        <time>2015-12-01T11:52:57Z</time>
      </trkpt>
      <trkpt lat="43.53981" lon="6.27443">
        <ele>391.87</ele>
        <time>2015-12-01T11:53:19Z</time>
      </trkpt>
      <trkpt lat="43.53979" lon="6.27443">
        <ele>391.87</ele>
        <time>2015-12-01T11:53:51Z</time>
      </trkpt>
      <trkpt lat="43.53979" lon="6.27443">
        <ele>391.87</ele>
        <time>2015-12-01T11:54:12Z</time>
      </trkpt>
      <trkpt lat="43.53979" lon="6.27443">
        <ele>391.87</ele>
        <time>2015-12-01T11:54:43Z</time>
      </trkpt>
      <trkpt lat="43.53979" lon="6.27443">
        <ele>391.39</ele>
        <time>2015-12-01T11:54:48Z</time>
      </trkpt>
      <trkpt lat="43.53976" lon="6.27447">
        <ele>391.87</ele>
        <time>2015-12-01T11:54:51Z</time>
      </trkpt>
      <trkpt lat="43.53973" lon="6.2745">
        <ele>391.87</ele>
        <time>2015-12-01T11:54:54Z</time>
      </trkpt>
      <trkpt lat="43.53967" lon="6.27461">
        <ele>392.84</ele>
        <time>2015-12-01T11:55:02Z</time>
      </trkpt>
      <trkpt lat="43.53954" lon="6.27474">
        <ele>393.8</ele>
        <time>2015-12-01T11:55:14Z</time>
      </trkpt>
      <trkpt lat="43.53951" lon="6.27478">
        <ele>394.28</ele>
        <time>2015-12-01T11:55:22Z</time>
      </trkpt>
      <trkpt lat="43.53951" lon="6.27482">
        <ele>394.28</ele>
        <time>2015-12-01T11:55:38Z</time>
      </trkpt>
      <trkpt lat="43.5395" lon="6.27484">
        <ele>394.28</ele>
        <time>2015-12-01T11:56:03Z</time>
      </trkpt>
      <trkpt lat="43.53951" lon="6.27483">
        <ele>393.8</ele>
        <time>2015-12-01T11:56:26Z</time>
      </trkpt>
      <trkpt lat="43.53951" lon="6.27484">
        <ele>394.28</ele>
        <time>2015-12-01T11:56:44Z</time>
      </trkpt>
      <trkpt lat="43.5395" lon="6.27486">
        <ele>394.28</ele>
        <time>2015-12-01T11:57:13Z</time>
      </trkpt>
      <trkpt lat="43.53949" lon="6.27486">
        <ele>393.8</ele>
        <time>2015-12-01T11:57:41Z</time>
      </trkpt>
      <trkpt lat="43.53949" lon="6.27487">
        <ele>394.28</ele>
        <time>2015-12-01T11:58:06Z</time>
      </trkpt>
      <trkpt lat="43.53948" lon="6.27489">
        <ele>394.28</ele>
        <time>2015-12-01T11:58:29Z</time>
      </trkpt>
      <trkpt lat="43.53948" lon="6.2749">
        <ele>394.28</ele>
        <time>2015-12-01T11:58:54Z</time>
      </trkpt>
      <trkpt lat="43.53948" lon="6.27491">
        <ele>394.28</ele>
        <time>2015-12-01T11:59:18Z</time>
      </trkpt>
      <trkpt lat="43.53948" lon="6.27491">
        <ele>394.28</ele>
        <time>2015-12-01T11:59:41Z</time>
      </trkpt>
      <trkpt lat="43.53948" lon="6.27491">
        <ele>394.28</ele>
        <time>2015-12-01T12:00:00Z</time>
      </trkpt>
      <trkpt lat="43.53947" lon="6.27491">
        <ele>394.28</ele>
        <time>2015-12-01T12:00:20Z</time>
      </trkpt>
      <trkpt lat="43.53947" lon="6.27491">
        <ele>394.28</ele>
        <time>2015-12-01T12:00:49Z</time>
      </trkpt>
      <trkpt lat="43.53948" lon="6.2749">
        <ele>394.28</ele>
        <time>2015-12-01T12:01:08Z</time>
      </trkpt>
      <trkpt lat="43.53948" lon="6.2749">
        <ele>394.28</ele>
        <time>2015-12-01T12:01:32Z</time>
      </trkpt>
      <trkpt lat="43.53948" lon="6.2749">
        <ele>394.28</ele>
        <time>2015-12-01T12:01:56Z</time>
      </trkpt>
      <trkpt lat="43.53948" lon="6.2749">
        <ele>394.28</ele>
        <time>2015-12-01T12:02:30Z</time>
      </trkpt>
      <trkpt lat="43.53949" lon="6.2749">
        <ele>394.28</ele>
        <time>2015-12-01T12:02:53Z</time>
      </trkpt>
      <trkpt lat="43.53949" lon="6.2749">
        <ele>394.28</ele>
        <time>2015-12-01T12:03:25Z</time>
      </trkpt>
      <trkpt lat="43.53949" lon="6.2749">
        <ele>394.28</ele>
        <time>2015-12-01T12:03:52Z</time>
      </trkpt>
      <trkpt lat="43.5395" lon="6.2749">
        <ele>394.28</ele>
        <time>2015-12-01T12:04:16Z</time>
      </trkpt>
      <trkpt lat="43.53951" lon="6.27489">
        <ele>394.28</ele>
        <time>2015-12-01T12:04:45Z</time>
      </trkpt>
      <trkpt lat="43.53951" lon="6.27488">
        <ele>394.28</ele>
        <time>2015-12-01T12:05:10Z</time>
      </trkpt>
      <trkpt lat="43.53952" lon="6.27488">
        <ele>393.8</ele>
        <time>2015-12-01T12:05:45Z</time>
      </trkpt>
      <trkpt lat="43.53953" lon="6.27488">
        <ele>393.8</ele>
        <time>2015-12-01T12:06:19Z</time>
      </trkpt>
      <trkpt lat="43.53954" lon="6.27487">
        <ele>393.8</ele>
        <time>2015-12-01T12:06:50Z</time>
      </trkpt>
      <trkpt lat="43.53954" lon="6.27487">
        <ele>393.8</ele>
        <time>2015-12-01T12:07:21Z</time>
      </trkpt>
      <trkpt lat="43.53955" lon="6.27488">
        <ele>393.8</ele>
        <time>2015-12-01T12:07:45Z</time>
      </trkpt>
      <trkpt lat="43.53956" lon="6.27487">
        <ele>393.8</ele>
        <time>2015-12-01T12:08:13Z</time>
      </trkpt>
      <trkpt lat="43.53955" lon="6.27487">
        <ele>393.8</ele>
        <time>2015-12-01T12:08:42Z</time>
      </trkpt>
      <trkpt lat="43.53953" lon="6.27484">
        <ele>393.8</ele>
        <time>2015-12-01T12:08:59Z</time>
      </trkpt>
      <trkpt lat="43.53954" lon="6.27484">
        <ele>393.8</ele>
        <time>2015-12-01T12:09:21Z</time>
      </trkpt>
      <trkpt lat="43.53955" lon="6.27484">
        <ele>393.8</ele>
        <time>2015-12-01T12:09:43Z</time>
      </trkpt>
      <trkpt lat="43.53955" lon="6.27484">
        <ele>393.8</ele>
        <time>2015-12-01T12:10:06Z</time>
      </trkpt>
      <trkpt lat="43.53956" lon="6.27483">
        <ele>393.32</ele>
        <time>2015-12-01T12:10:31Z</time>
      </trkpt>
      <trkpt lat="43.53955" lon="6.27485">
        <ele>393.8</ele>
        <time>2015-12-01T12:10:47Z</time>
      </trkpt>
      <trkpt lat="43.53955" lon="6.27486">
        <ele>393.8</ele>
        <time>2015-12-01T12:11:06Z</time>
      </trkpt>
      <trkpt lat="43.53953" lon="6.27486">
        <ele>393.8</ele>
        <time>2015-12-01T12:11:21Z</time>
      </trkpt>
      <trkpt lat="43.53952" lon="6.27488">
        <ele>393.8</ele>
        <time>2015-12-01T12:11:36Z</time>
      </trkpt>
      <trkpt lat="43.53955" lon="6.27485">
        <ele>392.84</ele>
        <time>2015-12-01T12:11:50Z</time>
      </trkpt>
      <trkpt lat="43.53963" lon="6.27476">
        <ele>392.36</ele>
        <time>2015-12-01T12:12:04Z</time>
      </trkpt>
      <trkpt lat="43.53972" lon="6.27462">
        <ele>390.91</ele>
        <time>2015-12-01T12:12:19Z</time>
      </trkpt>
      <trkpt lat="43.53978" lon="6.27451">
        <ele>390.91</ele>
        <time>2015-12-01T12:12:31Z</time>
      </trkpt>
      <trkpt lat="43.53981" lon="6.27443">
        <ele>390.91</ele>
        <time>2015-12-01T12:12:45Z</time>
      </trkpt>
      <trkpt lat="43.53983" lon="6.27439">
        <ele>390.91</ele>
        <time>2015-12-01T12:12:58Z</time>
      </trkpt>
      <trkpt lat="43.53986" lon="6.27436">
        <ele>390.43</ele>
        <time>2015-12-01T12:13:19Z</time>
      </trkpt>
      <trkpt lat="43.53995" lon="6.27426">
        <ele>390.43</ele>
        <time>2015-12-01T12:13:35Z</time>
      </trkpt>
      <trkpt lat="43.54005" lon="6.27413">
        <ele>390.91</ele>
        <time>2015-12-01T12:13:50Z</time>
      </trkpt>
      <trkpt lat="43.5401" lon="6.27397">
        <ele>391.39</ele>
        <time>2015-12-01T12:14:03Z</time>
      </trkpt>
      <trkpt lat="43.54015" lon="6.27385">
        <ele>391.39</ele>
        <time>2015-12-01T12:14:12Z</time>
      </trkpt>
      <trkpt lat="43.54019" lon="6.2738">
        <ele>391.39</ele>
        <time>2015-12-01T12:14:16Z</time>
      </trkpt>
      <trkpt lat="43.54027" lon="6.27363">
        <ele>391.39</ele>
        <time>2015-12-01T12:14:32Z</time>
      </trkpt>
      <trkpt lat="43.54038" lon="6.27346">
        <ele>391.39</ele>
        <time>2015-12-01T12:14:49Z</time>
      </trkpt>
      <trkpt lat="43.54052" lon="6.27329">
        <ele>391.87</ele>
        <time>2015-12-01T12:15:05Z</time>
      </trkpt>
      <trkpt lat="43.54062" lon="6.2731">
        <ele>390.43</ele>
        <time>2015-12-01T12:15:20Z</time>
      </trkpt>
      <trkpt lat="43.54069" lon="6.273">
        <ele>388.99</ele>
        <time>2015-12-01T12:15:32Z</time>
      </trkpt>
      <trkpt lat="43.54081" lon="6.27282">
        <ele>387.55</ele>
        <time>2015-12-01T12:15:48Z</time>
      </trkpt>
      <trkpt lat="43.54093" lon="6.27263">
        <ele>386.11</ele>
        <time>2015-12-01T12:16:05Z</time>
      </trkpt>
      <trkpt lat="43.54103" lon="6.27243">
        <ele>385.63</ele>
        <time>2015-12-01T12:16:20Z</time>
      </trkpt>
      <trkpt lat="43.54117" lon="6.2722">
        <ele>384.66</ele>
        <time>2015-12-01T12:16:38Z</time>
      </trkpt>
      <trkpt lat="43.5413" lon="6.272">
        <ele>384.66</ele>
        <time>2015-12-01T12:16:55Z</time>
      </trkpt>
      <trkpt lat="43.54141" lon="6.27178">
        <ele>384.66</ele>
        <time>2015-12-01T12:17:12Z</time>
      </trkpt>
      <trkpt lat="43.54143" lon="6.27173">
        <ele>384.66</ele>
        <time>2015-12-01T12:17:15Z</time>
      </trkpt>
      <trkpt lat="43.54154" lon="6.27145">
        <ele>384.66</ele>
        <time>2015-12-01T12:17:36Z</time>
      </trkpt>
      <trkpt lat="43.54158" lon="6.27125">
        <ele>385.15</ele>
        <time>2015-12-01T12:17:51Z</time>
      </trkpt>
      <trkpt lat="43.54161" lon="6.27106">
        <ele>386.59</ele>
        <time>2015-12-01T12:18:06Z</time>
      </trkpt>
      <trkpt lat="43.54164" lon="6.27081">
        <ele>388.03</ele>
        <time>2015-12-01T12:18:23Z</time>
      </trkpt>
      <trkpt lat="43.54168" lon="6.27065">
        <ele>389.47</ele>
        <time>2015-12-01T12:18:38Z</time>
      </trkpt>
      <trkpt lat="43.54178" lon="6.27047">
        <ele>390.43</ele>
        <time>2015-12-01T12:18:53Z</time>
      </trkpt>
      <trkpt lat="43.54188" lon="6.27023">
        <ele>390.43</ele>
        <time>2015-12-01T12:19:10Z</time>
      </trkpt>
      <trkpt lat="43.54196" lon="6.2701">
        <ele>389.47</ele>
        <time>2015-12-01T12:19:21Z</time>
      </trkpt>
      <trkpt lat="43.54199" lon="6.27001">
        <ele>389.47</ele>
        <time>2015-12-01T12:19:26Z</time>
      </trkpt>
      <trkpt lat="43.54198" lon="6.26992">
        <ele>389.47</ele>
        <time>2015-12-01T12:19:39Z</time>
      </trkpt>
      <trkpt lat="43.542" lon="6.26987">
        <ele>388.03</ele>
        <time>2015-12-01T12:19:56Z</time>
      </trkpt>
      <trkpt lat="43.5421" lon="6.26974">
        <ele>386.11</ele>
        <time>2015-12-01T12:20:13Z</time>
      </trkpt>
      <trkpt lat="43.54218" lon="6.26967">
        <ele>383.22</ele>
        <time>2015-12-01T12:20:30Z</time>
      </trkpt>
      <trkpt lat="43.54226" lon="6.26954">
        <ele>380.82</ele>
        <time>2015-12-01T12:20:45Z</time>
      </trkpt>
      <trkpt lat="43.54228" lon="6.2695">
        <ele>378.9</ele>
        <time>2015-12-01T12:20:59Z</time>
      </trkpt>
      <trkpt lat="43.54233" lon="6.26941">
        <ele>377.45</ele>
        <time>2015-12-01T12:21:15Z</time>
      </trkpt>
      <trkpt lat="43.54234" lon="6.26938">
        <ele>375.05</ele>
        <time>2015-12-01T12:21:29Z</time>
      </trkpt>
      <trkpt lat="43.5424" lon="6.26929">
        <ele>373.13</ele>
        <time>2015-12-01T12:21:44Z</time>
      </trkpt>
      <trkpt lat="43.54244" lon="6.26923">
        <ele>371.21</ele>
        <time>2015-12-01T12:21:58Z</time>
      </trkpt>
      <trkpt lat="43.54249" lon="6.26916">
        <ele>369.76</ele>
        <time>2015-12-01T12:22:09Z</time>
      </trkpt>
      <trkpt lat="43.54252" lon="6.2691">
        <ele>368.32</ele>
        <time>2015-12-01T12:22:23Z</time>
      </trkpt>
      <trkpt lat="43.54259" lon="6.26902">
        <ele>366.88</ele>
        <time>2015-12-01T12:22:37Z</time>
      </trkpt>
      <trkpt lat="43.54265" lon="6.26893">
        <ele>365.44</ele>
        <time>2015-12-01T12:22:51Z</time>
      </trkpt>
      <trkpt lat="43.54261" lon="6.26888">
        <ele>364.96</ele>
        <time>2015-12-01T12:23:09Z</time>
      </trkpt>
      <trkpt lat="43.54261" lon="6.26888">
        <ele>364.96</ele>
        <time>2015-12-01T12:23:30Z</time>
      </trkpt>
      <trkpt lat="43.54262" lon="6.26886">
        <ele>365.44</ele>
        <time>2015-12-01T12:24:00Z</time>
      </trkpt>
      <trkpt lat="43.54263" lon="6.26872">
        <ele>364.96</ele>
        <time>2015-12-01T12:24:15Z</time>
      </trkpt>
      <trkpt lat="43.54263" lon="6.26865">
        <ele>364.96</ele>
        <time>2015-12-01T12:24:21Z</time>
      </trkpt>
      <trkpt lat="43.54261" lon="6.26847">
        <ele>364.96</ele>
        <time>2015-12-01T12:24:35Z</time>
      </trkpt>
      <trkpt lat="43.54257" lon="6.26832">
        <ele>365.44</ele>
        <time>2015-12-01T12:24:48Z</time>
      </trkpt>
      <trkpt lat="43.54251" lon="6.26815">
        <ele>365.92</ele>
        <time>2015-12-01T12:25:01Z</time>
      </trkpt>
      <trkpt lat="43.54246" lon="6.26809">
        <ele>365.92</ele>
        <time>2015-12-01T12:25:08Z</time>
      </trkpt>
      <trkpt lat="43.54245" lon="6.26791">
        <ele>365.92</ele>
        <time>2015-12-01T12:25:23Z</time>
      </trkpt>
      <trkpt lat="43.54246" lon="6.26788">
        <ele>363.04</ele>
        <time>2015-12-01T12:25:37Z</time>
      </trkpt>
      <trkpt lat="43.54251" lon="6.26776">
        <ele>360.15</ele>
        <time>2015-12-01T12:25:55Z</time>
      </trkpt>
      <trkpt lat="43.54255" lon="6.26764">
        <ele>358.23</ele>
        <time>2015-12-01T12:26:10Z</time>
      </trkpt>
      <trkpt lat="43.54259" lon="6.26747">
        <ele>355.83</ele>
        <time>2015-12-01T12:26:25Z</time>
      </trkpt>
      <trkpt lat="43.54259" lon="6.26739">
        <ele>353.9</ele>
        <time>2015-12-01T12:26:40Z</time>
      </trkpt>
      <trkpt lat="43.54264" lon="6.26743">
        <ele>351.5</ele>
        <time>2015-12-01T12:26:54Z</time>
      </trkpt>
      <trkpt lat="43.5427" lon="6.2675">
        <ele>348.62</ele>
        <time>2015-12-01T12:27:10Z</time>
      </trkpt>
      <trkpt lat="43.54276" lon="6.26759">
        <ele>346.69</ele>
        <time>2015-12-01T12:27:26Z</time>
      </trkpt>
      <trkpt lat="43.5428" lon="6.26772">
        <ele>345.25</ele>
        <time>2015-12-01T12:27:41Z</time>
      </trkpt>
      <trkpt lat="43.54283" lon="6.26782">
        <ele>343.33</ele>
        <time>2015-12-01T12:27:56Z</time>
      </trkpt>
      <trkpt lat="43.54284" lon="6.26782">
        <ele>343.33</ele>
        <time>2015-12-01T12:28:18Z</time>
      </trkpt>
      <trkpt lat="43.54284" lon="6.26782">
        <ele>343.33</ele>
        <time>2015-12-01T12:28:43Z</time>
      </trkpt>
      <trkpt lat="43.5429" lon="6.26791">
        <ele>342.37</ele>
        <time>2015-12-01T12:29:00Z</time>
      </trkpt>
      <trkpt lat="43.54299" lon="6.26807">
        <ele>339.48</ele>
        <time>2015-12-01T12:29:16Z</time>
      </trkpt>
      <trkpt lat="43.54305" lon="6.26806">
        <ele>338.52</ele>
        <time>2015-12-01T12:29:27Z</time>
      </trkpt>
      <trkpt lat="43.54305" lon="6.26793">
        <ele>336.6</ele>
        <time>2015-12-01T12:29:43Z</time>
      </trkpt>
      <trkpt lat="43.54304" lon="6.26779">
        <ele>334.68</ele>
        <time>2015-12-01T12:30:00Z</time>
      </trkpt>
      <trkpt lat="43.54304" lon="6.26771">
        <ele>333.23</ele>
        <time>2015-12-01T12:30:15Z</time>
      </trkpt>
      <trkpt lat="43.54304" lon="6.26758">
        <ele>331.31</ele>
        <time>2015-12-01T12:30:28Z</time>
      </trkpt>
      <trkpt lat="43.54302" lon="6.26749">
        <ele>330.35</ele>
        <time>2015-12-01T12:30:39Z</time>
      </trkpt>
      <trkpt lat="43.54303" lon="6.26739">
        <ele>329.39</ele>
        <time>2015-12-01T12:30:48Z</time>
      </trkpt>
      <trkpt lat="43.54303" lon="6.26725">
        <ele>328.43</ele>
        <time>2015-12-01T12:31:02Z</time>
      </trkpt>
      <trkpt lat="43.54305" lon="6.2671">
        <ele>326.99</ele>
        <time>2015-12-01T12:31:15Z</time>
      </trkpt>
      <trkpt lat="43.54305" lon="6.26705">
        <ele>326.99</ele>
        <time>2015-12-01T12:31:19Z</time>
      </trkpt>
      <trkpt lat="43.54304" lon="6.2669">
        <ele>325.06</ele>
        <time>2015-12-01T12:31:33Z</time>
      </trkpt>
      <trkpt lat="43.54298" lon="6.26673">
        <ele>324.1</ele>
        <time>2015-12-01T12:31:48Z</time>
      </trkpt>
      <trkpt lat="43.54295" lon="6.26663">
        <ele>321.7</ele>
        <time>2015-12-01T12:32:01Z</time>
      </trkpt>
      <trkpt lat="43.54294" lon="6.2665">
        <ele>319.3</ele>
        <time>2015-12-01T12:32:15Z</time>
      </trkpt>
      <trkpt lat="43.54292" lon="6.26637">
        <ele>317.37</ele>
        <time>2015-12-01T12:32:32Z</time>
      </trkpt>
      <trkpt lat="43.54293" lon="6.26627">
        <ele>314.49</ele>
        <time>2015-12-01T12:32:48Z</time>
      </trkpt>
      <trkpt lat="43.54292" lon="6.26622">
        <ele>312.09</ele>
        <time>2015-12-01T12:33:04Z</time>
      </trkpt>
      <trkpt lat="43.54293" lon="6.2662">
        <ele>312.09</ele>
        <time>2015-12-01T12:33:25Z</time>
      </trkpt>
      <trkpt lat="43.5429" lon="6.26617">
        <ele>312.09</ele>
        <time>2015-12-01T12:33:47Z</time>
      </trkpt>
      <trkpt lat="43.54289" lon="6.26616">
        <ele>312.09</ele>
        <time>2015-12-01T12:34:09Z</time>
      </trkpt>
      <trkpt lat="43.5429" lon="6.26614">
        <ele>312.09</ele>
        <time>2015-12-01T12:34:40Z</time>
      </trkpt>
      <trkpt lat="43.5429" lon="6.26612">
        <ele>312.09</ele>
        <time>2015-12-01T12:35:08Z</time>
      </trkpt>
      <trkpt lat="43.5429" lon="6.26612">
        <ele>312.09</ele>
        <time>2015-12-01T12:35:31Z</time>
      </trkpt>
      <trkpt lat="43.54291" lon="6.26612">
        <ele>312.09</ele>
        <time>2015-12-01T12:35:56Z</time>
      </trkpt>
      <trkpt lat="43.54291" lon="6.26613">
        <ele>312.09</ele>
        <time>2015-12-01T12:36:10Z</time>
      </trkpt>
      <trkpt lat="43.54297" lon="6.26622">
        <ele>309.2</ele>
        <time>2015-12-01T12:36:26Z</time>
      </trkpt>
      <trkpt lat="43.54304" lon="6.26629">
        <ele>306.8</ele>
        <time>2015-12-01T12:36:42Z</time>
      </trkpt>
      <trkpt lat="43.54311" lon="6.26637">
        <ele>304.88</ele>
        <time>2015-12-01T12:36:55Z</time>
      </trkpt>
      <trkpt lat="43.5432" lon="6.26645">
        <ele>302.95</ele>
        <time>2015-12-01T12:37:09Z</time>
      </trkpt>
      <trkpt lat="43.54323" lon="6.26634">
        <ele>301.51</ele>
        <time>2015-12-01T12:37:22Z</time>
      </trkpt>
      <trkpt lat="43.54322" lon="6.26622">
        <ele>299.11</ele>
        <time>2015-12-01T12:37:36Z</time>
      </trkpt>
      <trkpt lat="43.54322" lon="6.26619">
        <ele>296.22</ele>
        <time>2015-12-01T12:37:50Z</time>
      </trkpt>
      <trkpt lat="43.54322" lon="6.26612">
        <ele>293.34</ele>
        <time>2015-12-01T12:38:05Z</time>
      </trkpt>
      <trkpt lat="43.54322" lon="6.26609">
        <ele>291.42</ele>
        <time>2015-12-01T12:38:16Z</time>
      </trkpt>
      <trkpt lat="43.54323" lon="6.26608">
        <ele>290.94</ele>
        <time>2015-12-01T12:38:18Z</time>
      </trkpt>
      <trkpt lat="43.54323" lon="6.26598">
        <ele>290.46</ele>
        <time>2015-12-01T12:38:28Z</time>
      </trkpt>
      <trkpt lat="43.54322" lon="6.26593">
        <ele>288.53</ele>
        <time>2015-12-01T12:38:31Z</time>
      </trkpt>
      <trkpt lat="43.54322" lon="6.26574">
        <ele>286.13</ele>
        <time>2015-12-01T12:38:44Z</time>
      </trkpt>
      <trkpt lat="43.54323" lon="6.26559">
        <ele>283.73</ele>
        <time>2015-12-01T12:38:56Z</time>
      </trkpt>
      <trkpt lat="43.54324" lon="6.26548">
        <ele>280.84</ele>
        <time>2015-12-01T12:39:11Z</time>
      </trkpt>
      <trkpt lat="43.54329" lon="6.26534">
        <ele>277.96</ele>
        <time>2015-12-01T12:39:27Z</time>
      </trkpt>
      <trkpt lat="43.5433" lon="6.26519">
        <ele>275.07</ele>
        <time>2015-12-01T12:39:42Z</time>
      </trkpt>
      <trkpt lat="43.54331" lon="6.2651">
        <ele>273.15</ele>
        <time>2015-12-01T12:39:56Z</time>
      </trkpt>
      <trkpt lat="43.54337" lon="6.26496">
        <ele>271.23</ele>
        <time>2015-12-01T12:40:10Z</time>
      </trkpt>
      <trkpt lat="43.54337" lon="6.26479">
        <ele>268.83</ele>
        <time>2015-12-01T12:40:24Z</time>
      </trkpt>
      <trkpt lat="43.5434" lon="6.2646">
        <ele>265.94</ele>
        <time>2015-12-01T12:40:38Z</time>
      </trkpt>
      <trkpt lat="43.54342" lon="6.26454">
        <ele>265.94</ele>
        <time>2015-12-01T12:40:41Z</time>
      </trkpt>
      <trkpt lat="43.5434" lon="6.26438">
        <ele>264.5</ele>
        <time>2015-12-01T12:40:55Z</time>
      </trkpt>
      <trkpt lat="43.54337" lon="6.26436">
        <ele>264.5</ele>
        <time>2015-12-01T12:41:07Z</time>
      </trkpt>
      <trkpt lat="43.54338" lon="6.26436">
        <ele>264.5</ele>
        <time>2015-12-01T12:41:21Z</time>
      </trkpt>
      <trkpt lat="43.54337" lon="6.26433">
        <ele>264.5</ele>
        <time>2015-12-01T12:41:31Z</time>
      </trkpt>
      <trkpt lat="43.54337" lon="6.26432">
        <ele>264.02</ele>
        <time>2015-12-01T12:41:47Z</time>
      </trkpt>
      <trkpt lat="43.54338" lon="6.26432">
        <ele>263.54</ele>
        <time>2015-12-01T12:42:05Z</time>
      </trkpt>
      <trkpt lat="43.54339" lon="6.26432">
        <ele>264.02</ele>
        <time>2015-12-01T12:42:27Z</time>
      </trkpt>
      <trkpt lat="43.5434" lon="6.26432">
        <ele>264.02</ele>
        <time>2015-12-01T12:42:45Z</time>
      </trkpt>
      <trkpt lat="43.5434" lon="6.26432">
        <ele>264.02</ele>
        <time>2015-12-01T12:43:12Z</time>
      </trkpt>
      <trkpt lat="43.54341" lon="6.26431">
        <ele>264.5</ele>
        <time>2015-12-01T12:43:45Z</time>
      </trkpt>
      <trkpt lat="43.54342" lon="6.26431">
        <ele>264.5</ele>
        <time>2015-12-01T12:44:09Z</time>
      </trkpt>
      <trkpt lat="43.54341" lon="6.2643">
        <ele>263.06</ele>
        <time>2015-12-01T12:44:40Z</time>
      </trkpt>
      <trkpt lat="43.5434" lon="6.2643">
        <ele>263.06</ele>
        <time>2015-12-01T12:44:56Z</time>
      </trkpt>
      <trkpt lat="43.5434" lon="6.2643">
        <ele>263.06</ele>
        <time>2015-12-01T12:45:20Z</time>
      </trkpt>
      <trkpt lat="43.5434" lon="6.2643">
        <ele>263.06</ele>
        <time>2015-12-01T12:45:42Z</time>
      </trkpt>
      <trkpt lat="43.54339" lon="6.26431">
        <ele>263.06</ele>
        <time>2015-12-01T12:46:02Z</time>
      </trkpt>
      <trkpt lat="43.54337" lon="6.26431">
        <ele>263.06</ele>
        <time>2015-12-01T12:46:33Z</time>
      </trkpt>
      <trkpt lat="43.54338" lon="6.26429">
        <ele>262.1</ele>
        <time>2015-12-01T12:46:54Z</time>
      </trkpt>
      <trkpt lat="43.54339" lon="6.26427">
        <ele>261.62</ele>
        <time>2015-12-01T12:46:56Z</time>
      </trkpt>
      <trkpt lat="43.54338" lon="6.26424">
        <ele>261.62</ele>
        <time>2015-12-01T12:46:58Z</time>
      </trkpt>
      <trkpt lat="43.54337" lon="6.26415">
        <ele>261.14</ele>
        <time>2015-12-01T12:47:03Z</time>
      </trkpt>
      <trkpt lat="43.54337" lon="6.26412">
        <ele>261.14</ele>
        <time>2015-12-01T12:47:05Z</time>
      </trkpt>
      <trkpt lat="43.54335" lon="6.26399">
        <ele>258.73</ele>
        <time>2015-12-01T12:47:17Z</time>
      </trkpt>
      <trkpt lat="43.5434" lon="6.26394">
        <ele>258.25</ele>
        <time>2015-12-01T12:47:25Z</time>
      </trkpt>
      <trkpt lat="43.54342" lon="6.26386">
        <ele>256.81</ele>
        <time>2015-12-01T12:47:33Z</time>
      </trkpt>
      <trkpt lat="43.54344" lon="6.26369">
        <ele>253.93</ele>
        <time>2015-12-01T12:47:47Z</time>
      </trkpt>
      <trkpt lat="43.54346" lon="6.26355">
        <ele>252</ele>
        <time>2015-12-01T12:48:00Z</time>
      </trkpt>
      <trkpt lat="43.54345" lon="6.26347">
        <ele>252.48</ele>
        <time>2015-12-01T12:48:14Z</time>
      </trkpt>
      <trkpt lat="43.54345" lon="6.26344">
        <ele>252.96</ele>
        <time>2015-12-01T12:48:29Z</time>
      </trkpt>
      <trkpt lat="43.54341" lon="6.26326">
        <ele>252</ele>
        <time>2015-12-01T12:48:43Z</time>
      </trkpt>
      <trkpt lat="43.54339" lon="6.26318">
        <ele>251.52</ele>
        <time>2015-12-01T12:48:49Z</time>
      </trkpt>
      <trkpt lat="43.5433" lon="6.26298">
        <ele>251.04</ele>
        <time>2015-12-01T12:49:03Z</time>
      </trkpt>
      <trkpt lat="43.54324" lon="6.26286">
        <ele>250.08</ele>
        <time>2015-12-01T12:49:15Z</time>
      </trkpt>
      <trkpt lat="43.54321" lon="6.26268">
        <ele>249.6</ele>
        <time>2015-12-01T12:49:30Z</time>
      </trkpt>
      <trkpt lat="43.5432" lon="6.26253">
        <ele>248.64</ele>
        <time>2015-12-01T12:49:42Z</time>
      </trkpt>
      <trkpt lat="43.54319" lon="6.26232">
        <ele>248.16</ele>
        <time>2015-12-01T12:49:57Z</time>
      </trkpt>
      <trkpt lat="43.54318" lon="6.26221">
        <ele>248.16</ele>
        <time>2015-12-01T12:50:05Z</time>
      </trkpt>
      <trkpt lat="43.54319" lon="6.26217">
        <ele>247.68</ele>
        <time>2015-12-01T12:50:08Z</time>
      </trkpt>
      <trkpt lat="43.54317" lon="6.26204">
        <ele>247.2</ele>
        <time>2015-12-01T12:50:16Z</time>
      </trkpt>
      <trkpt lat="43.54315" lon="6.26181">
        <ele>246.72</ele>
        <time>2015-12-01T12:50:31Z</time>
      </trkpt>
      <trkpt lat="43.54311" lon="6.26161">
        <ele>247.2</ele>
        <time>2015-12-01T12:50:47Z</time>
      </trkpt>
      <trkpt lat="43.54303" lon="6.26143">
        <ele>246.23</ele>
        <time>2015-12-01T12:51:02Z</time>
      </trkpt>
      <trkpt lat="43.54294" lon="6.26119">
        <ele>245.27</ele>
        <time>2015-12-01T12:51:20Z</time>
      </trkpt>
      <trkpt lat="43.54289" lon="6.261">
        <ele>243.35</ele>
        <time>2015-12-01T12:51:33Z</time>
      </trkpt>
      <trkpt lat="43.54281" lon="6.26086">
        <ele>241.91</ele>
        <time>2015-12-01T12:51:46Z</time>
      </trkpt>
      <trkpt lat="43.54277" lon="6.26081">
        <ele>240.95</ele>
        <time>2015-12-01T12:51:52Z</time>
      </trkpt>
      <trkpt lat="43.54274" lon="6.26075">
        <ele>239.99</ele>
        <time>2015-12-01T12:51:58Z</time>
      </trkpt>
      <trkpt lat="43.54271" lon="6.26066">
        <ele>239.02</ele>
        <time>2015-12-01T12:52:05Z</time>
      </trkpt>
      <trkpt lat="43.54265" lon="6.26045">
        <ele>236.62</ele>
        <time>2015-12-01T12:52:21Z</time>
      </trkpt>
      <trkpt lat="43.54265" lon="6.26023">
        <ele>234.7</ele>
        <time>2015-12-01T12:52:37Z</time>
      </trkpt>
      <trkpt lat="43.54265" lon="6.26018">
        <ele>233.74</ele>
        <time>2015-12-01T12:52:42Z</time>
      </trkpt>
      <trkpt lat="43.54264" lon="6.26007">
        <ele>232.3</ele>
        <time>2015-12-01T12:52:50Z</time>
      </trkpt>
      <trkpt lat="43.54268" lon="6.25985">
        <ele>230.37</ele>
        <time>2015-12-01T12:53:06Z</time>
      </trkpt>
      <trkpt lat="43.54276" lon="6.25969">
        <ele>229.89</ele>
        <time>2015-12-01T12:53:20Z</time>
      </trkpt>
      <trkpt lat="43.5428" lon="6.2596">
        <ele>229.41</ele>
        <time>2015-12-01T12:53:26Z</time>
      </trkpt>
      <trkpt lat="43.54282" lon="6.25956">
        <ele>229.41</ele>
        <time>2015-12-01T12:53:30Z</time>
      </trkpt>
      <trkpt lat="43.54292" lon="6.25937">
        <ele>229.41</ele>
        <time>2015-12-01T12:53:46Z</time>
      </trkpt>
      <trkpt lat="43.54303" lon="6.25921">
        <ele>229.41</ele>
        <time>2015-12-01T12:54:02Z</time>
      </trkpt>
      <trkpt lat="43.5431" lon="6.25912">
        <ele>229.41</ele>
        <time>2015-12-01T12:54:16Z</time>
      </trkpt>
      <trkpt lat="43.54309" lon="6.25911">
        <ele>229.41</ele>
        <time>2015-12-01T12:54:35Z</time>
      </trkpt>
      <trkpt lat="43.54308" lon="6.2591">
        <ele>229.41</ele>
        <time>2015-12-01T12:55:05Z</time>
      </trkpt>
      <trkpt lat="43.54308" lon="6.25911">
        <ele>229.41</ele>
        <time>2015-12-01T12:55:33Z</time>
      </trkpt>
      <trkpt lat="43.54308" lon="6.2591">
        <ele>229.41</ele>
        <time>2015-12-01T12:55:59Z</time>
      </trkpt>
      <trkpt lat="43.54309" lon="6.25908">
        <ele>229.41</ele>
        <time>2015-12-01T12:56:14Z</time>
      </trkpt>
      <trkpt lat="43.5431" lon="6.25905">
        <ele>229.41</ele>
        <time>2015-12-01T12:56:28Z</time>
      </trkpt>
      <trkpt lat="43.54315" lon="6.25895">
        <ele>229.41</ele>
        <time>2015-12-01T12:56:35Z</time>
      </trkpt>
      <trkpt lat="43.54324" lon="6.25873">
        <ele>228.93</ele>
        <time>2015-12-01T12:56:49Z</time>
      </trkpt>
      <trkpt lat="43.54325" lon="6.25861">
        <ele>228.93</ele>
        <time>2015-12-01T12:56:57Z</time>
      </trkpt>
      <trkpt lat="43.54325" lon="6.25841">
        <ele>228.45</ele>
        <time>2015-12-01T12:57:11Z</time>
      </trkpt>
      <trkpt lat="43.54326" lon="6.25838">
        <ele>228.45</ele>
        <time>2015-12-01T12:57:13Z</time>
      </trkpt>
      <trkpt lat="43.54331" lon="6.25817">
        <ele>228.45</ele>
        <time>2015-12-01T12:57:29Z</time>
      </trkpt>
      <trkpt lat="43.54336" lon="6.25794">
        <ele>227.97</ele>
        <time>2015-12-01T12:57:47Z</time>
      </trkpt>
      <trkpt lat="43.54344" lon="6.25776">
        <ele>228.45</ele>
        <time>2015-12-01T12:58:02Z</time>
      </trkpt>
      <trkpt lat="43.54348" lon="6.25756">
        <ele>227.49</ele>
        <time>2015-12-01T12:58:19Z</time>
      </trkpt>
      <trkpt lat="43.54349" lon="6.25755">
        <ele>227.01</ele>
        <time>2015-12-01T12:58:20Z</time>
      </trkpt>
      <trkpt lat="43.5435" lon="6.25752">
        <ele>227.01</ele>
        <time>2015-12-01T12:58:23Z</time>
      </trkpt>
      <trkpt lat="43.5436" lon="6.25742">
        <ele>225.09</ele>
        <time>2015-12-01T12:58:35Z</time>
      </trkpt>
      <trkpt lat="43.54376" lon="6.25728">
        <ele>222.68</ele>
        <time>2015-12-01T12:58:52Z</time>
      </trkpt>
      <trkpt lat="43.54388" lon="6.25701">
        <ele>220.76</ele>
        <time>2015-12-01T12:59:10Z</time>
      </trkpt>
      <trkpt lat="43.54397" lon="6.25685">
        <ele>219.8</ele>
        <time>2015-12-01T12:59:23Z</time>
      </trkpt>
      <trkpt lat="43.54409" lon="6.25673">
        <ele>218.84</ele>
        <time>2015-12-01T12:59:38Z</time>
      </trkpt>
      <trkpt lat="43.54417" lon="6.25654">
        <ele>217.88</ele>
        <time>2015-12-01T12:59:53Z</time>
      </trkpt>
      <trkpt lat="43.54425" lon="6.25637">
        <ele>216.43</ele>
        <time>2015-12-01T13:00:08Z</time>
      </trkpt>
      <trkpt lat="43.5443" lon="6.25624">
        <ele>215.95</ele>
        <time>2015-12-01T13:00:17Z</time>
      </trkpt>
      <trkpt lat="43.54443" lon="6.25607">
        <ele>214.51</ele>
        <time>2015-12-01T13:00:34Z</time>
      </trkpt>
      <trkpt lat="43.54457" lon="6.25593">
        <ele>213.55</ele>
        <time>2015-12-01T13:00:51Z</time>
      </trkpt>
      <trkpt lat="43.54468" lon="6.25581">
        <ele>212.59</ele>
        <time>2015-12-01T13:01:05Z</time>
      </trkpt>
      <trkpt lat="43.54475" lon="6.25551">
        <ele>211.15</ele>
        <time>2015-12-01T13:01:23Z</time>
      </trkpt>
      <trkpt lat="43.54483" lon="6.25529">
        <ele>210.19</ele>
        <time>2015-12-01T13:01:40Z</time>
      </trkpt>
      <trkpt lat="43.5449" lon="6.25506">
        <ele>209.7</ele>
        <time>2015-12-01T13:01:56Z</time>
      </trkpt>
      <trkpt lat="43.545" lon="6.25482">
        <ele>209.7</ele>
        <time>2015-12-01T13:02:14Z</time>
      </trkpt>
      <trkpt lat="43.54508" lon="6.25461">
        <ele>209.7</ele>
        <time>2015-12-01T13:02:29Z</time>
      </trkpt>
      <trkpt lat="43.54517" lon="6.25439">
        <ele>209.22</ele>
        <time>2015-12-01T13:02:45Z</time>
      </trkpt>
      <trkpt lat="43.54524" lon="6.25418">
        <ele>208.74</ele>
        <time>2015-12-01T13:03:01Z</time>
      </trkpt>
      <trkpt lat="43.5453" lon="6.25397">
        <ele>207.78</ele>
        <time>2015-12-01T13:03:14Z</time>
      </trkpt>
      <trkpt lat="43.54537" lon="6.2537">
        <ele>206.82</ele>
        <time>2015-12-01T13:03:31Z</time>
      </trkpt>
      <trkpt lat="43.54538" lon="6.25363">
        <ele>206.34</ele>
        <time>2015-12-01T13:03:35Z</time>
      </trkpt>
      <trkpt lat="43.54534" lon="6.25357">
        <ele>205.86</ele>
        <time>2015-12-01T13:03:39Z</time>
      </trkpt>
      <trkpt lat="43.54527" lon="6.25374">
        <ele>205.86</ele>
        <time>2015-12-01T13:03:53Z</time>
      </trkpt>
      <trkpt lat="43.54526" lon="6.25375">
        <ele>205.86</ele>
        <time>2015-12-01T13:03:54Z</time>
      </trkpt>
      <trkpt lat="43.54521" lon="6.25397">
        <ele>205.86</ele>
        <time>2015-12-01T13:04:10Z</time>
      </trkpt>
      <trkpt lat="43.54514" lon="6.25416">
        <ele>205.86</ele>
        <time>2015-12-01T13:04:25Z</time>
      </trkpt>
      <trkpt lat="43.54507" lon="6.25436">
        <ele>206.34</ele>
        <time>2015-12-01T13:04:40Z</time>
      </trkpt>
      <trkpt lat="43.54501" lon="6.25451">
        <ele>205.86</ele>
        <time>2015-12-01T13:04:52Z</time>
      </trkpt>
      <trkpt lat="43.545" lon="6.25453">
        <ele>206.34</ele>
        <time>2015-12-01T13:04:53Z</time>
      </trkpt>
      <trkpt lat="43.54495" lon="6.25465">
        <ele>206.82</ele>
        <time>2015-12-01T13:05:02Z</time>
      </trkpt>
      <trkpt lat="43.54491" lon="6.25474">
        <ele>206.34</ele>
        <time>2015-12-01T13:05:10Z</time>
      </trkpt>
      <trkpt lat="43.54482" lon="6.25493">
        <ele>206.82</ele>
        <time>2015-12-01T13:05:25Z</time>
      </trkpt>
      <trkpt lat="43.54472" lon="6.25516">
        <ele>206.82</ele>
        <time>2015-12-01T13:05:40Z</time>
      </trkpt>
      <trkpt lat="43.54463" lon="6.25534">
        <ele>207.3</ele>
        <time>2015-12-01T13:05:53Z</time>
      </trkpt>
      <trkpt lat="43.54451" lon="6.25555">
        <ele>207.78</ele>
        <time>2015-12-01T13:06:08Z</time>
      </trkpt>
      <trkpt lat="43.54442" lon="6.25572">
        <ele>207.78</ele>
        <time>2015-12-01T13:06:22Z</time>
      </trkpt>
      <trkpt lat="43.54439" lon="6.25577">
        <ele>207.78</ele>
        <time>2015-12-01T13:06:26Z</time>
      </trkpt>
      <trkpt lat="43.54428" lon="6.25597">
        <ele>208.26</ele>
        <time>2015-12-01T13:06:40Z</time>
      </trkpt>
      <trkpt lat="43.54418" lon="6.25607">
        <ele>208.26</ele>
        <time>2015-12-01T13:06:50Z</time>
      </trkpt>
      <trkpt lat="43.54404" lon="6.2562">
        <ele>208.74</ele>
        <time>2015-12-01T13:07:04Z</time>
      </trkpt>
      <trkpt lat="43.544" lon="6.25624">
        <ele>208.74</ele>
        <time>2015-12-01T13:07:09Z</time>
      </trkpt>
      <trkpt lat="43.54388" lon="6.25639">
        <ele>209.22</ele>
        <time>2015-12-01T13:07:23Z</time>
      </trkpt>
      <trkpt lat="43.54379" lon="6.25646">
        <ele>209.7</ele>
        <time>2015-12-01T13:07:32Z</time>
      </trkpt>
      <trkpt lat="43.54366" lon="6.25659">
        <ele>209.7</ele>
        <time>2015-12-01T13:07:46Z</time>
      </trkpt>
      <trkpt lat="43.5435" lon="6.25667">
        <ele>209.7</ele>
        <time>2015-12-01T13:07:59Z</time>
      </trkpt>
      <trkpt lat="43.54343" lon="6.25672">
        <ele>209.7</ele>
        <time>2015-12-01T13:08:05Z</time>
      </trkpt>
      <trkpt lat="43.54334" lon="6.25679">
        <ele>209.7</ele>
        <time>2015-12-01T13:08:14Z</time>
      </trkpt>
      <trkpt lat="43.54315" lon="6.25687">
        <ele>209.7</ele>
        <time>2015-12-01T13:08:30Z</time>
      </trkpt>
      <trkpt lat="43.54313" lon="6.25687">
        <ele>209.7</ele>
        <time>2015-12-01T13:08:46Z</time>
      </trkpt>
      <trkpt lat="43.54314" lon="6.25688">
        <ele>209.7</ele>
        <time>2015-12-01T13:09:17Z</time>
      </trkpt>
      <trkpt lat="43.54314" lon="6.25688">
        <ele>209.7</ele>
        <time>2015-12-01T13:09:46Z</time>
      </trkpt>
      <trkpt lat="43.54315" lon="6.25689">
        <ele>209.7</ele>
        <time>2015-12-01T13:10:19Z</time>
      </trkpt>
      <trkpt lat="43.54314" lon="6.25689">
        <ele>209.7</ele>
        <time>2015-12-01T13:10:49Z</time>
      </trkpt>
      <trkpt lat="43.54312" lon="6.25689">
        <ele>209.7</ele>
        <time>2015-12-01T13:10:51Z</time>
      </trkpt>
      <trkpt lat="43.54301" lon="6.25694">
        <ele>210.19</ele>
        <time>2015-12-01T13:11:01Z</time>
      </trkpt>
      <trkpt lat="43.54295" lon="6.25695">
        <ele>209.7</ele>
        <time>2015-12-01T13:11:05Z</time>
      </trkpt>
      <trkpt lat="43.54276" lon="6.25693">
        <ele>209.7</ele>
        <time>2015-12-01T13:11:19Z</time>
      </trkpt>
      <trkpt lat="43.54257" lon="6.25695">
        <ele>210.19</ele>
        <time>2015-12-01T13:11:35Z</time>
      </trkpt>
      <trkpt lat="43.54242" lon="6.25699">
        <ele>210.19</ele>
        <time>2015-12-01T13:11:49Z</time>
      </trkpt>
      <trkpt lat="43.54232" lon="6.25701">
        <ele>210.19</ele>
        <time>2015-12-01T13:11:57Z</time>
      </trkpt>
      <trkpt lat="43.54228" lon="6.25701">
        <ele>210.67</ele>
        <time>2015-12-01T13:12:00Z</time>
      </trkpt>
      <trkpt lat="43.54208" lon="6.25704">
        <ele>211.15</ele>
        <time>2015-12-01T13:12:17Z</time>
      </trkpt>
      <trkpt lat="43.54199" lon="6.25707">
        <ele>211.15</ele>
        <time>2015-12-01T13:12:25Z</time>
      </trkpt>
      <trkpt lat="43.54198" lon="6.25719">
        <ele>211.15</ele>
        <time>2015-12-01T13:12:32Z</time>
      </trkpt>
      <trkpt lat="43.54204" lon="6.25736">
        <ele>209.7</ele>
        <time>2015-12-01T13:12:44Z</time>
      </trkpt>
      <trkpt lat="43.54205" lon="6.25742">
        <ele>209.22</ele>
        <time>2015-12-01T13:12:49Z</time>
      </trkpt>
      <trkpt lat="43.54206" lon="6.25746">
        <ele>208.74</ele>
        <time>2015-12-01T13:12:52Z</time>
      </trkpt>
      <trkpt lat="43.54207" lon="6.25749">
        <ele>208.74</ele>
        <time>2015-12-01T13:12:54Z</time>
      </trkpt>
      <trkpt lat="43.5421" lon="6.25754">
        <ele>208.74</ele>
        <time>2015-12-01T13:12:58Z</time>
      </trkpt>
      <trkpt lat="43.5421" lon="6.25761">
        <ele>208.26</ele>
        <time>2015-12-01T13:13:02Z</time>
      </trkpt>
      <trkpt lat="43.54214" lon="6.25769">
        <ele>208.26</ele>
        <time>2015-12-01T13:13:16Z</time>
      </trkpt>
      <trkpt lat="43.54215" lon="6.25769">
        <ele>208.26</ele>
        <time>2015-12-01T13:13:32Z</time>
      </trkpt>
      <trkpt lat="43.54214" lon="6.25768">
        <ele>208.26</ele>
        <time>2015-12-01T13:13:43Z</time>
      </trkpt>
      <trkpt lat="43.54214" lon="6.25768">
        <ele>208.74</ele>
        <time>2015-12-01T13:13:55Z</time>
      </trkpt>
      <trkpt lat="43.54213" lon="6.25768">
        <ele>208.26</ele>
        <time>2015-12-01T13:14:10Z</time>
      </trkpt>
      <trkpt lat="43.54213" lon="6.25768">
        <ele>208.74</ele>
        <time>2015-12-01T13:14:27Z</time>
      </trkpt>
      <trkpt lat="43.54214" lon="6.25768">
        <ele>208.74</ele>
        <time>2015-12-01T13:14:36Z</time>
      </trkpt>
      <trkpt lat="43.54216" lon="6.25772">
        <ele>209.22</ele>
        <time>2015-12-01T13:14:52Z</time>
      </trkpt>
      <trkpt lat="43.54217" lon="6.25772">
        <ele>209.22</ele>
        <time>2015-12-01T13:15:19Z</time>
      </trkpt>
      <trkpt lat="43.54217" lon="6.25774">
        <ele>208.26</ele>
        <time>2015-12-01T13:15:41Z</time>
      </trkpt>
      <trkpt lat="43.54217" lon="6.25774">
        <ele>209.22</ele>
        <time>2015-12-01T13:16:01Z</time>
      </trkpt>
      <trkpt lat="43.54217" lon="6.25774">
        <ele>208.74</ele>
        <time>2015-12-01T13:16:24Z</time>
      </trkpt>
      <trkpt lat="43.54218" lon="6.25774">
        <ele>208.26</ele>
        <time>2015-12-01T13:16:42Z</time>
      </trkpt>
      <trkpt lat="43.54218" lon="6.25772">
        <ele>206.82</ele>
        <time>2015-12-01T13:16:57Z</time>
      </trkpt>
      <trkpt lat="43.54219" lon="6.25776">
        <ele>206.82</ele>
        <time>2015-12-01T13:17:01Z</time>
      </trkpt>
      <trkpt lat="43.54221" lon="6.25784">
        <ele>207.78</ele>
        <time>2015-12-01T13:17:12Z</time>
      </trkpt>
      <trkpt lat="43.54222" lon="6.2578">
        <ele>208.26</ele>
        <time>2015-12-01T13:17:27Z</time>
      </trkpt>
      <trkpt lat="43.54223" lon="6.25782">
        <ele>207.78</ele>
        <time>2015-12-01T13:17:31Z</time>
      </trkpt>
      <trkpt lat="43.54223" lon="6.25784">
        <ele>207.78</ele>
        <time>2015-12-01T13:17:33Z</time>
      </trkpt>
      <trkpt lat="43.54218" lon="6.25774">
        <ele>207.78</ele>
        <time>2015-12-01T13:17:45Z</time>
      </trkpt>
      <trkpt lat="43.54218" lon="6.25773">
        <ele>207.78</ele>
        <time>2015-12-01T13:17:46Z</time>
      </trkpt>
      <trkpt lat="43.54216" lon="6.25769">
        <ele>207.3</ele>
        <time>2015-12-01T13:18:02Z</time>
      </trkpt>
      <trkpt lat="43.54217" lon="6.25768">
        <ele>207.3</ele>
        <time>2015-12-01T13:18:26Z</time>
      </trkpt>
      <trkpt lat="43.54217" lon="6.25768">
        <ele>206.82</ele>
        <time>2015-12-01T13:18:48Z</time>
      </trkpt>
      <trkpt lat="43.54217" lon="6.25769">
        <ele>207.3</ele>
        <time>2015-12-01T13:19:02Z</time>
      </trkpt>
      <trkpt lat="43.54217" lon="6.25769">
        <ele>207.3</ele>
        <time>2015-12-01T13:19:19Z</time>
      </trkpt>
      <trkpt lat="43.54218" lon="6.25769">
        <ele>207.3</ele>
        <time>2015-12-01T13:19:40Z</time>
      </trkpt>
      <trkpt lat="43.54218" lon="6.25768">
        <ele>206.82</ele>
        <time>2015-12-01T13:19:59Z</time>
      </trkpt>
      <trkpt lat="43.54218" lon="6.25768">
        <ele>206.82</ele>
        <time>2015-12-01T13:20:01Z</time>
      </trkpt>
      <trkpt lat="43.54215" lon="6.25764">
        <ele>206.34</ele>
        <time>2015-12-01T13:20:11Z</time>
      </trkpt>
      <trkpt lat="43.54214" lon="6.25757">
        <ele>207.3</ele>
        <time>2015-12-01T13:20:22Z</time>
      </trkpt>
      <trkpt lat="43.54215" lon="6.25757">
        <ele>206.82</ele>
        <time>2015-12-01T13:20:37Z</time>
      </trkpt>
      <trkpt lat="43.54215" lon="6.25757">
        <ele>207.3</ele>
        <time>2015-12-01T13:20:55Z</time>
      </trkpt>
      <trkpt lat="43.54216" lon="6.25756">
        <ele>206.82</ele>
        <time>2015-12-01T13:21:11Z</time>
      </trkpt>
      <trkpt lat="43.54216" lon="6.25756">
        <ele>207.3</ele>
        <time>2015-12-01T13:21:16Z</time>
      </trkpt>
      <trkpt lat="43.54214" lon="6.25754">
        <ele>207.3</ele>
        <time>2015-12-01T13:21:20Z</time>
      </trkpt>
      <trkpt lat="43.54212" lon="6.25749">
        <ele>207.78</ele>
        <time>2015-12-01T13:21:25Z</time>
      </trkpt>
      <trkpt lat="43.54211" lon="6.25739">
        <ele>208.74</ele>
        <time>2015-12-01T13:21:32Z</time>
      </trkpt>
      <trkpt lat="43.54205" lon="6.25725">
        <ele>209.22</ele>
        <time>2015-12-01T13:21:43Z</time>
      </trkpt>
      <trkpt lat="43.542" lon="6.25717">
        <ele>209.7</ele>
        <time>2015-12-01T13:21:49Z</time>
      </trkpt>
      <trkpt lat="43.54187" lon="6.25709">
        <ele>209.7</ele>
        <time>2015-12-01T13:22:03Z</time>
      </trkpt>
      <trkpt lat="43.54182" lon="6.25708">
        <ele>209.7</ele>
        <time>2015-12-01T13:22:08Z</time>
      </trkpt>
      <trkpt lat="43.54169" lon="6.25707">
        <ele>209.7</ele>
        <time>2015-12-01T13:22:21Z</time>
      </trkpt>
      <trkpt lat="43.54157" lon="6.2571">
        <ele>209.7</ele>
        <time>2015-12-01T13:22:34Z</time>
      </trkpt>
      <trkpt lat="43.54147" lon="6.25712">
        <ele>209.7</ele>
        <time>2015-12-01T13:22:43Z</time>
      </trkpt>
      <trkpt lat="43.54132" lon="6.25715">
        <ele>209.7</ele>
        <time>2015-12-01T13:22:56Z</time>
      </trkpt>
      <trkpt lat="43.54125" lon="6.25716">
        <ele>209.7</ele>
        <time>2015-12-01T13:23:02Z</time>
      </trkpt>
      <trkpt lat="43.54114" lon="6.25714">
        <ele>210.19</ele>
        <time>2015-12-01T13:23:10Z</time>
      </trkpt>
      <trkpt lat="43.54103" lon="6.25716">
        <ele>210.19</ele>
        <time>2015-12-01T13:23:20Z</time>
      </trkpt>
      <trkpt lat="43.54099" lon="6.25717">
        <ele>210.67</ele>
        <time>2015-12-01T13:23:25Z</time>
      </trkpt>
      <trkpt lat="43.54083" lon="6.2572">
        <ele>211.15</ele>
        <time>2015-12-01T13:23:39Z</time>
      </trkpt>
      <trkpt lat="43.54072" lon="6.25723">
        <ele>210.67</ele>
        <time>2015-12-01T13:23:51Z</time>
      </trkpt>
      <trkpt lat="43.54062" lon="6.25726">
        <ele>211.15</ele>
        <time>2015-12-01T13:24:01Z</time>
      </trkpt>
      <trkpt lat="43.54044" lon="6.25727">
        <ele>211.15</ele>
        <time>2015-12-01T13:24:15Z</time>
      </trkpt>
      <trkpt lat="43.54037" lon="6.25726">
        <ele>211.15</ele>
        <time>2015-12-01T13:24:23Z</time>
      </trkpt>
      <trkpt lat="43.54033" lon="6.25725">
        <ele>211.15</ele>
        <time>2015-12-01T13:24:27Z</time>
      </trkpt>
      <trkpt lat="43.5403" lon="6.25726">
        <ele>211.15</ele>
        <time>2015-12-01T13:24:30Z</time>
      </trkpt>
      <trkpt lat="43.54019" lon="6.25724">
        <ele>211.63</ele>
        <time>2015-12-01T13:24:40Z</time>
      </trkpt>
      <trkpt lat="43.54007" lon="6.25723">
        <ele>211.63</ele>
        <time>2015-12-01T13:24:55Z</time>
      </trkpt>
      <trkpt lat="43.54002" lon="6.25721">
        <ele>212.11</ele>
        <time>2015-12-01T13:25:01Z</time>
      </trkpt>
      <trkpt lat="43.53999" lon="6.25721">
        <ele>211.63</ele>
        <time>2015-12-01T13:25:04Z</time>
      </trkpt>
      <trkpt lat="43.53989" lon="6.25718">
        <ele>211.63</ele>
        <time>2015-12-01T13:25:21Z</time>
      </trkpt>
      <trkpt lat="43.53989" lon="6.25718">
        <ele>211.63</ele>
        <time>2015-12-01T13:25:29Z</time>
      </trkpt>
      <trkpt lat="43.53986" lon="6.25718">
        <ele>212.11</ele>
        <time>2015-12-01T13:25:33Z</time>
      </trkpt>
      <trkpt lat="43.53973" lon="6.25713">
        <ele>212.59</ele>
        <time>2015-12-01T13:25:47Z</time>
      </trkpt>
      <trkpt lat="43.53968" lon="6.25709">
        <ele>212.11</ele>
        <time>2015-12-01T13:25:53Z</time>
      </trkpt>
      <trkpt lat="43.5396" lon="6.25705">
        <ele>212.11</ele>
        <time>2015-12-01T13:26:08Z</time>
      </trkpt>
      <trkpt lat="43.53961" lon="6.25706">
        <ele>212.11</ele>
        <time>2015-12-01T13:26:24Z</time>
      </trkpt>
      <trkpt lat="43.5396" lon="6.25707">
        <ele>212.11</ele>
        <time>2015-12-01T13:26:37Z</time>
      </trkpt>
      <trkpt lat="43.53958" lon="6.25704">
        <ele>212.11</ele>
        <time>2015-12-01T13:26:51Z</time>
      </trkpt>
      <trkpt lat="43.53955" lon="6.25701">
        <ele>212.11</ele>
        <time>2015-12-01T13:27:03Z</time>
      </trkpt>
      <trkpt lat="43.53949" lon="6.25695">
        <ele>212.11</ele>
        <time>2015-12-01T13:27:11Z</time>
      </trkpt>
      <trkpt lat="43.53947" lon="6.25694">
        <ele>212.11</ele>
        <time>2015-12-01T13:27:13Z</time>
      </trkpt>
      <trkpt lat="43.53939" lon="6.25688">
        <ele>212.11</ele>
        <time>2015-12-01T13:27:20Z</time>
      </trkpt>
      <trkpt lat="43.53933" lon="6.25681">
        <ele>212.11</ele>
        <time>2015-12-01T13:27:27Z</time>
      </trkpt>
      <trkpt lat="43.53931" lon="6.2568">
        <ele>212.11</ele>
        <time>2015-12-01T13:27:29Z</time>
      </trkpt>
      <trkpt lat="43.53915" lon="6.2567">
        <ele>212.11</ele>
        <time>2015-12-01T13:27:44Z</time>
      </trkpt>
      <trkpt lat="43.53908" lon="6.2566">
        <ele>212.59</ele>
        <time>2015-12-01T13:27:55Z</time>
      </trkpt>
      <trkpt lat="43.53905" lon="6.25657">
        <ele>212.59</ele>
        <time>2015-12-01T13:27:58Z</time>
      </trkpt>
      <trkpt lat="43.53898" lon="6.25645">
        <ele>212.59</ele>
        <time>2015-12-01T13:28:09Z</time>
      </trkpt>
      <trkpt lat="43.53886" lon="6.25633">
        <ele>212.59</ele>
        <time>2015-12-01T13:28:23Z</time>
      </trkpt>
      <trkpt lat="43.53875" lon="6.25625">
        <ele>212.59</ele>
        <time>2015-12-01T13:28:35Z</time>
      </trkpt>
      <trkpt lat="43.53873" lon="6.25625">
        <ele>212.59</ele>
        <time>2015-12-01T13:28:37Z</time>
      </trkpt>
      <trkpt lat="43.53866" lon="6.25622">
        <ele>212.59</ele>
        <time>2015-12-01T13:28:43Z</time>
      </trkpt>
      <trkpt lat="43.53863" lon="6.2562">
        <ele>212.59</ele>
        <time>2015-12-01T13:28:46Z</time>
      </trkpt>
      <trkpt lat="43.53851" lon="6.25614">
        <ele>212.59</ele>
        <time>2015-12-01T13:28:57Z</time>
      </trkpt>
      <trkpt lat="43.53836" lon="6.25601">
        <ele>212.59</ele>
        <time>2015-12-01T13:29:14Z</time>
      </trkpt>
      <trkpt lat="43.5383" lon="6.25601">
        <ele>213.07</ele>
        <time>2015-12-01T13:29:19Z</time>
      </trkpt>
      <trkpt lat="43.53819" lon="6.25587">
        <ele>213.07</ele>
        <time>2015-12-01T13:29:34Z</time>
      </trkpt>
      <trkpt lat="43.53807" lon="6.25575">
        <ele>213.07</ele>
        <time>2015-12-01T13:29:46Z</time>
      </trkpt>
      <trkpt lat="43.53798" lon="6.25566">
        <ele>213.55</ele>
        <time>2015-12-01T13:29:59Z</time>
      </trkpt>
      <trkpt lat="43.53796" lon="6.25564">
        <ele>214.03</ele>
        <time>2015-12-01T13:30:02Z</time>
      </trkpt>
      <trkpt lat="43.5379" lon="6.25558">
        <ele>214.03</ele>
        <time>2015-12-01T13:30:09Z</time>
      </trkpt>
      <trkpt lat="43.53781" lon="6.25544">
        <ele>214.03</ele>
        <time>2015-12-01T13:30:20Z</time>
      </trkpt>
      <trkpt lat="43.5378" lon="6.25541">
        <ele>214.03</ele>
        <time>2015-12-01T13:30:22Z</time>
      </trkpt>
      <trkpt lat="43.53773" lon="6.25526">
        <ele>214.03</ele>
        <time>2015-12-01T13:30:35Z</time>
      </trkpt>
      <trkpt lat="43.53765" lon="6.2551">
        <ele>214.51</ele>
        <time>2015-12-01T13:30:48Z</time>
      </trkpt>
      <trkpt lat="43.53764" lon="6.25509">
        <ele>214.51</ele>
        <time>2015-12-01T13:30:49Z</time>
      </trkpt>
      <trkpt lat="43.53755" lon="6.25491">
        <ele>214.99</ele>
        <time>2015-12-01T13:31:03Z</time>
      </trkpt>
      <trkpt lat="43.53748" lon="6.25476">
        <ele>214.99</ele>
        <time>2015-12-01T13:31:16Z</time>
      </trkpt>
      <trkpt lat="43.53747" lon="6.25474">
        <ele>214.99</ele>
        <time>2015-12-01T13:31:17Z</time>
      </trkpt>
      <trkpt lat="43.53738" lon="6.2546">
        <ele>215.47</ele>
        <time>2015-12-01T13:31:29Z</time>
      </trkpt>
      <trkpt lat="43.53728" lon="6.25441">
        <ele>216.43</ele>
        <time>2015-12-01T13:31:45Z</time>
      </trkpt>
      <trkpt lat="43.53723" lon="6.25432">
        <ele>216.43</ele>
        <time>2015-12-01T13:31:53Z</time>
      </trkpt>
      <trkpt lat="43.53719" lon="6.25425">
        <ele>216.43</ele>
        <time>2015-12-01T13:31:59Z</time>
      </trkpt>
      <trkpt lat="43.53708" lon="6.25406">
        <ele>216.43</ele>
        <time>2015-12-01T13:32:15Z</time>
      </trkpt>
      <trkpt lat="43.53699" lon="6.2539">
        <ele>216.43</ele>
        <time>2015-12-01T13:32:29Z</time>
      </trkpt>
      <trkpt lat="43.53693" lon="6.25375">
        <ele>216.91</ele>
        <time>2015-12-01T13:32:41Z</time>
      </trkpt>
      <trkpt lat="43.53688" lon="6.25367">
        <ele>216.91</ele>
        <time>2015-12-01T13:32:48Z</time>
      </trkpt>
      <trkpt lat="43.53678" lon="6.25352">
        <ele>217.4</ele>
        <time>2015-12-01T13:33:02Z</time>
      </trkpt>
      <trkpt lat="43.53665" lon="6.25335">
        <ele>217.4</ele>
        <time>2015-12-01T13:33:16Z</time>
      </trkpt>
      <trkpt lat="43.53663" lon="6.25333">
        <ele>217.4</ele>
        <time>2015-12-01T13:33:18Z</time>
      </trkpt>
      <trkpt lat="43.53661" lon="6.25331">
        <ele>217.4</ele>
        <time>2015-12-01T13:33:20Z</time>
      </trkpt>
      <trkpt lat="43.53652" lon="6.25326">
        <ele>217.4</ele>
        <time>2015-12-01T13:33:28Z</time>
      </trkpt>
      <trkpt lat="43.53649" lon="6.25323">
        <ele>217.4</ele>
        <time>2015-12-01T13:33:32Z</time>
      </trkpt>
      <trkpt lat="43.53632" lon="6.25315">
        <ele>217.4</ele>
        <time>2015-12-01T13:33:49Z</time>
      </trkpt>
      <trkpt lat="43.5363" lon="6.25314">
        <ele>217.4</ele>
        <time>2015-12-01T13:33:51Z</time>
      </trkpt>
      <trkpt lat="43.53623" lon="6.25308">
        <ele>217.4</ele>
        <time>2015-12-01T13:34:00Z</time>
      </trkpt>
      <trkpt lat="43.53607" lon="6.253">
        <ele>217.88</ele>
        <time>2015-12-01T13:34:16Z</time>
      </trkpt>
      <trkpt lat="43.53589" lon="6.25298">
        <ele>217.88</ele>
        <time>2015-12-01T13:34:31Z</time>
      </trkpt>
      <trkpt lat="43.5357" lon="6.25297">
        <ele>217.88</ele>
        <time>2015-12-01T13:34:47Z</time>
      </trkpt>
      <trkpt lat="43.53564" lon="6.25297">
        <ele>217.88</ele>
        <time>2015-12-01T13:34:53Z</time>
      </trkpt>
      <trkpt lat="43.53558" lon="6.25298">
        <ele>217.88</ele>
        <time>2015-12-01T13:34:59Z</time>
      </trkpt>
      <trkpt lat="43.53542" lon="6.25303">
        <ele>217.88</ele>
        <time>2015-12-01T13:35:13Z</time>
      </trkpt>
      <trkpt lat="43.53533" lon="6.25305">
        <ele>218.36</ele>
        <time>2015-12-01T13:35:21Z</time>
      </trkpt>
      <trkpt lat="43.53529" lon="6.25307">
        <ele>217.88</ele>
        <time>2015-12-01T13:35:25Z</time>
      </trkpt>
      <trkpt lat="43.53519" lon="6.25315">
        <ele>217.88</ele>
        <time>2015-12-01T13:35:35Z</time>
      </trkpt>
      <trkpt lat="43.53504" lon="6.25322">
        <ele>218.36</ele>
        <time>2015-12-01T13:35:48Z</time>
      </trkpt>
      <trkpt lat="43.53493" lon="6.2533">
        <ele>218.36</ele>
        <time>2015-12-01T13:35:57Z</time>
      </trkpt>
      <trkpt lat="43.53481" lon="6.25331">
        <ele>218.84</ele>
        <time>2015-12-01T13:36:08Z</time>
      </trkpt>
      <trkpt lat="43.53478" lon="6.25333">
        <ele>218.84</ele>
        <time>2015-12-01T13:36:11Z</time>
      </trkpt>
      <trkpt lat="43.53465" lon="6.2534">
        <ele>218.84</ele>
        <time>2015-12-01T13:36:23Z</time>
      </trkpt>
      <trkpt lat="43.5346" lon="6.25345">
        <ele>218.84</ele>
        <time>2015-12-01T13:36:27Z</time>
      </trkpt>
      <trkpt lat="43.53455" lon="6.25346">
        <ele>219.32</ele>
        <time>2015-12-01T13:36:31Z</time>
      </trkpt>
      <trkpt lat="43.53451" lon="6.25349">
        <ele>219.32</ele>
        <time>2015-12-01T13:36:35Z</time>
      </trkpt>
      <trkpt lat="43.53444" lon="6.2535">
        <ele>218.84</ele>
        <time>2015-12-01T13:36:41Z</time>
      </trkpt>
      <trkpt lat="43.5343" lon="6.25355">
        <ele>218.84</ele>
        <time>2015-12-01T13:36:54Z</time>
      </trkpt>
      <trkpt lat="43.53427" lon="6.25356">
        <ele>218.84</ele>
        <time>2015-12-01T13:36:56Z</time>
      </trkpt>
      <trkpt lat="43.53423" lon="6.25355">
        <ele>219.32</ele>
        <time>2015-12-01T13:37:00Z</time>
      </trkpt>
      <trkpt lat="43.53411" lon="6.25356">
        <ele>219.32</ele>
        <time>2015-12-01T13:37:13Z</time>
      </trkpt>
      <trkpt lat="43.53396" lon="6.2535">
        <ele>219.32</ele>
        <time>2015-12-01T13:37:27Z</time>
      </trkpt>
      <trkpt lat="43.53378" lon="6.25349">
        <ele>219.8</ele>
        <time>2015-12-01T13:37:42Z</time>
      </trkpt>
      <trkpt lat="43.53367" lon="6.25349">
        <ele>219.8</ele>
        <time>2015-12-01T13:37:53Z</time>
      </trkpt>
      <trkpt lat="43.53353" lon="6.25351">
        <ele>219.8</ele>
        <time>2015-12-01T13:38:05Z</time>
      </trkpt>
      <trkpt lat="43.53343" lon="6.25349">
        <ele>220.76</ele>
        <time>2015-12-01T13:38:21Z</time>
      </trkpt>
      <trkpt lat="43.53344" lon="6.25352">
        <ele>220.28</ele>
        <time>2015-12-01T13:38:41Z</time>
      </trkpt>
      <trkpt lat="43.53344" lon="6.25353">
        <ele>220.28</ele>
        <time>2015-12-01T13:39:01Z</time>
      </trkpt>
      <trkpt lat="43.53344" lon="6.25354">
        <ele>220.28</ele>
        <time>2015-12-01T13:39:20Z</time>
      </trkpt>
      <trkpt lat="43.53345" lon="6.25356">
        <ele>219.8</ele>
        <time>2015-12-01T13:39:40Z</time>
      </trkpt>
      <trkpt lat="43.53345" lon="6.25358">
        <ele>219.32</ele>
        <time>2015-12-01T13:39:54Z</time>
      </trkpt>
      <trkpt lat="43.53345" lon="6.25359">
        <ele>219.8</ele>
        <time>2015-12-01T13:40:08Z</time>
      </trkpt>
      <trkpt lat="43.53347" lon="6.2536">
        <ele>219.32</ele>
        <time>2015-12-01T13:40:28Z</time>
      </trkpt>
      <trkpt lat="43.53344" lon="6.25359">
        <ele>219.8</ele>
        <time>2015-12-01T13:40:41Z</time>
      </trkpt>
      <trkpt lat="43.53344" lon="6.2536">
        <ele>219.8</ele>
        <time>2015-12-01T13:41:05Z</time>
      </trkpt>
      <trkpt lat="43.53343" lon="6.25359">
        <ele>219.8</ele>
        <time>2015-12-01T13:41:08Z</time>
      </trkpt>
      <trkpt lat="43.53339" lon="6.25359">
        <ele>219.8</ele>
        <time>2015-12-01T13:41:11Z</time>
      </trkpt>
      <trkpt lat="43.53323" lon="6.25361">
        <ele>219.8</ele>
        <time>2015-12-01T13:41:22Z</time>
      </trkpt>
      <trkpt lat="43.53316" lon="6.25364">
        <ele>220.28</ele>
        <time>2015-12-01T13:41:30Z</time>
      </trkpt>
      <trkpt lat="43.53306" lon="6.25367">
        <ele>219.8</ele>
        <time>2015-12-01T13:41:37Z</time>
      </trkpt>
      <trkpt lat="43.53287" lon="6.25379">
        <ele>219.8</ele>
        <time>2015-12-01T13:41:52Z</time>
      </trkpt>
      <trkpt lat="43.53279" lon="6.25385">
        <ele>220.28</ele>
        <time>2015-12-01T13:42:01Z</time>
      </trkpt>
      <trkpt lat="43.53266" lon="6.25398">
        <ele>219.8</ele>
        <time>2015-12-01T13:42:14Z</time>
      </trkpt>
      <trkpt lat="43.53256" lon="6.25412">
        <ele>220.28</ele>
        <time>2015-12-01T13:42:25Z</time>
      </trkpt>
      <trkpt lat="43.53244" lon="6.2543">
        <ele>220.28</ele>
        <time>2015-12-01T13:42:39Z</time>
      </trkpt>
      <trkpt lat="43.53236" lon="6.25452">
        <ele>220.28</ele>
        <time>2015-12-01T13:42:54Z</time>
      </trkpt>
      <trkpt lat="43.53229" lon="6.25471">
        <ele>220.28</ele>
        <time>2015-12-01T13:43:07Z</time>
      </trkpt>
      <trkpt lat="43.53223" lon="6.25491">
        <ele>220.28</ele>
        <time>2015-12-01T13:43:21Z</time>
      </trkpt>
      <trkpt lat="43.53222" lon="6.25492">
        <ele>220.28</ele>
        <time>2015-12-01T13:43:22Z</time>
      </trkpt>
      <trkpt lat="43.53216" lon="6.25506">
        <ele>220.28</ele>
        <time>2015-12-01T13:43:34Z</time>
      </trkpt>
      <trkpt lat="43.53207" lon="6.25526">
        <ele>220.76</ele>
        <time>2015-12-01T13:43:48Z</time>
      </trkpt>
      <trkpt lat="43.53205" lon="6.2553">
        <ele>220.76</ele>
        <time>2015-12-01T13:43:52Z</time>
      </trkpt>
      <trkpt lat="43.53204" lon="6.25534">
        <ele>220.76</ele>
        <time>2015-12-01T13:43:55Z</time>
      </trkpt>
      <trkpt lat="43.53198" lon="6.25554">
        <ele>221.24</ele>
        <time>2015-12-01T13:44:10Z</time>
      </trkpt>
      <trkpt lat="43.5319" lon="6.25578">
        <ele>221.24</ele>
        <time>2015-12-01T13:44:25Z</time>
      </trkpt>
      <trkpt lat="43.53189" lon="6.25581">
        <ele>220.76</ele>
        <time>2015-12-01T13:44:27Z</time>
      </trkpt>
      <trkpt lat="43.53182" lon="6.25601">
        <ele>221.24</ele>
        <time>2015-12-01T13:44:42Z</time>
      </trkpt>
      <trkpt lat="43.5318" lon="6.25604">
        <ele>221.24</ele>
        <time>2015-12-01T13:44:44Z</time>
      </trkpt>
      <trkpt lat="43.53178" lon="6.2561">
        <ele>221.24</ele>
        <time>2015-12-01T13:44:48Z</time>
      </trkpt>
      <trkpt lat="43.53173" lon="6.25633">
        <ele>221.72</ele>
        <time>2015-12-01T13:45:03Z</time>
      </trkpt>
      <trkpt lat="43.53166" lon="6.25651">
        <ele>221.72</ele>
        <time>2015-12-01T13:45:16Z</time>
      </trkpt>
      <trkpt lat="43.53161" lon="6.25678">
        <ele>222.2</ele>
        <time>2015-12-01T13:45:33Z</time>
      </trkpt>
      <trkpt lat="43.53155" lon="6.25701">
        <ele>222.68</ele>
        <time>2015-12-01T13:45:48Z</time>
      </trkpt>
      <trkpt lat="43.53152" lon="6.25728">
        <ele>222.68</ele>
        <time>2015-12-01T13:46:05Z</time>
      </trkpt>
      <trkpt lat="43.53151" lon="6.25752">
        <ele>222.68</ele>
        <time>2015-12-01T13:46:22Z</time>
      </trkpt>
      <trkpt lat="43.53152" lon="6.25772">
        <ele>222.68</ele>
        <time>2015-12-01T13:46:34Z</time>
      </trkpt>
      <trkpt lat="43.53155" lon="6.25794">
        <ele>223.16</ele>
        <time>2015-12-01T13:46:49Z</time>
      </trkpt>
      <trkpt lat="43.53158" lon="6.25815">
        <ele>223.16</ele>
        <time>2015-12-01T13:47:03Z</time>
      </trkpt>
      <trkpt lat="43.53159" lon="6.25823">
        <ele>223.16</ele>
        <time>2015-12-01T13:47:08Z</time>
      </trkpt>
      <trkpt lat="43.53162" lon="6.25848">
        <ele>223.16</ele>
        <time>2015-12-01T13:47:25Z</time>
      </trkpt>
      <trkpt lat="43.53165" lon="6.25873">
        <ele>223.64</ele>
        <time>2015-12-01T13:47:42Z</time>
      </trkpt>
      <trkpt lat="43.53168" lon="6.25893">
        <ele>223.64</ele>
        <time>2015-12-01T13:47:54Z</time>
      </trkpt>
      <trkpt lat="43.5317" lon="6.25904">
        <ele>223.64</ele>
        <time>2015-12-01T13:48:01Z</time>
      </trkpt>
      <trkpt lat="43.53171" lon="6.25928">
        <ele>224.12</ele>
        <time>2015-12-01T13:48:16Z</time>
      </trkpt>
      <trkpt lat="43.53171" lon="6.25934">
        <ele>224.12</ele>
        <time>2015-12-01T13:48:29Z</time>
      </trkpt>
      <trkpt lat="43.53169" lon="6.25935">
        <ele>223.64</ele>
        <time>2015-12-01T13:48:40Z</time>
      </trkpt>
      <trkpt lat="43.5317" lon="6.25938">
        <ele>224.12</ele>
        <time>2015-12-01T13:48:59Z</time>
      </trkpt>
      <trkpt lat="43.5317" lon="6.25939">
        <ele>224.12</ele>
        <time>2015-12-01T13:49:17Z</time>
      </trkpt>
      <trkpt lat="43.5317" lon="6.25939">
        <ele>224.12</ele>
        <time>2015-12-01T13:49:44Z</time>
      </trkpt>
      <trkpt lat="43.53171" lon="6.2594">
        <ele>224.12</ele>
        <time>2015-12-01T13:50:16Z</time>
      </trkpt>
      <trkpt lat="43.53172" lon="6.2594">
        <ele>224.12</ele>
        <time>2015-12-01T13:50:52Z</time>
      </trkpt>
      <trkpt lat="43.53171" lon="6.2594">
        <ele>224.61</ele>
        <time>2015-12-01T13:51:17Z</time>
      </trkpt>
      <trkpt lat="43.53171" lon="6.25939">
        <ele>224.61</ele>
        <time>2015-12-01T13:51:49Z</time>
      </trkpt>
      <trkpt lat="43.53171" lon="6.25939">
        <ele>224.61</ele>
        <time>2015-12-01T13:52:17Z</time>
      </trkpt>
      <trkpt lat="43.53172" lon="6.2594">
        <ele>224.12</ele>
        <time>2015-12-01T13:52:50Z</time>
      </trkpt>
      <trkpt lat="43.53172" lon="6.25941">
        <ele>224.61</ele>
        <time>2015-12-01T13:53:21Z</time>
      </trkpt>
      <trkpt lat="43.53172" lon="6.25941">
        <ele>224.61</ele>
        <time>2015-12-01T13:53:47Z</time>
      </trkpt>
      <trkpt lat="43.53171" lon="6.25941">
        <ele>224.61</ele>
        <time>2015-12-01T13:54:13Z</time>
      </trkpt>
      <trkpt lat="43.53177" lon="6.25948">
        <ele>225.09</ele>
        <time>2015-12-01T13:54:38Z</time>
      </trkpt>
      <trkpt lat="43.53179" lon="6.25965">
        <ele>225.09</ele>
        <time>2015-12-01T13:54:51Z</time>
      </trkpt>
      <trkpt lat="43.5318" lon="6.25989">
        <ele>225.09</ele>
        <time>2015-12-01T13:55:06Z</time>
      </trkpt>
      <trkpt lat="43.53181" lon="6.25997">
        <ele>225.09</ele>
        <time>2015-12-01T13:55:11Z</time>
      </trkpt>
      <trkpt lat="43.53181" lon="6.26005">
        <ele>225.09</ele>
        <time>2015-12-01T13:55:17Z</time>
      </trkpt>
      <trkpt lat="43.5318" lon="6.26025">
        <ele>225.09</ele>
        <time>2015-12-01T13:55:32Z</time>
      </trkpt>
      <trkpt lat="43.53179" lon="6.26045">
        <ele>225.57</ele>
        <time>2015-12-01T13:55:45Z</time>
      </trkpt>
      <trkpt lat="43.53179" lon="6.26062">
        <ele>225.57</ele>
        <time>2015-12-01T13:55:56Z</time>
      </trkpt>
      <trkpt lat="43.53182" lon="6.26087">
        <ele>225.57</ele>
        <time>2015-12-01T13:56:10Z</time>
      </trkpt>
      <trkpt lat="43.53183" lon="6.26093">
        <ele>226.05</ele>
        <time>2015-12-01T13:56:14Z</time>
      </trkpt>
      <trkpt lat="43.53184" lon="6.26117">
        <ele>226.05</ele>
        <time>2015-12-01T13:56:30Z</time>
      </trkpt>
      <trkpt lat="43.53184" lon="6.26143">
        <ele>226.05</ele>
        <time>2015-12-01T13:56:44Z</time>
      </trkpt>
      <trkpt lat="43.53185" lon="6.26165">
        <ele>226.53</ele>
        <time>2015-12-01T13:56:58Z</time>
      </trkpt>
      <trkpt lat="43.53185" lon="6.26191">
        <ele>226.53</ele>
        <time>2015-12-01T13:57:13Z</time>
      </trkpt>
      <trkpt lat="43.53186" lon="6.2622">
        <ele>226.53</ele>
        <time>2015-12-01T13:57:31Z</time>
      </trkpt>
      <trkpt lat="43.53187" lon="6.26229">
        <ele>227.01</ele>
        <time>2015-12-01T13:57:36Z</time>
      </trkpt>
      <trkpt lat="43.53188" lon="6.26238">
        <ele>227.01</ele>
        <time>2015-12-01T13:57:42Z</time>
      </trkpt>
      <trkpt lat="43.53189" lon="6.26262">
        <ele>226.53</ele>
        <time>2015-12-01T13:57:57Z</time>
      </trkpt>
      <trkpt lat="43.53188" lon="6.2629">
        <ele>227.01</ele>
        <time>2015-12-01T13:58:14Z</time>
      </trkpt>
      <trkpt lat="43.53188" lon="6.26313">
        <ele>226.53</ele>
        <time>2015-12-01T13:58:27Z</time>
      </trkpt>
      <trkpt lat="43.53191" lon="6.26333">
        <ele>227.01</ele>
        <time>2015-12-01T13:58:40Z</time>
      </trkpt>
      <trkpt lat="43.5319" lon="6.26353">
        <ele>226.53</ele>
        <time>2015-12-01T13:58:54Z</time>
      </trkpt>
      <trkpt lat="43.53189" lon="6.26357">
        <ele>226.53</ele>
        <time>2015-12-01T13:58:57Z</time>
      </trkpt>
      <trkpt lat="43.53186" lon="6.2637">
        <ele>226.53</ele>
        <time>2015-12-01T13:59:04Z</time>
      </trkpt>
      <trkpt lat="43.53182" lon="6.26398">
        <ele>226.53</ele>
        <time>2015-12-01T13:59:20Z</time>
      </trkpt>
      <trkpt lat="43.53174" lon="6.2642">
        <ele>226.53</ele>
        <time>2015-12-01T13:59:34Z</time>
      </trkpt>
      <trkpt lat="43.53164" lon="6.26447">
        <ele>226.53</ele>
        <time>2015-12-01T13:59:52Z</time>
      </trkpt>
      <trkpt lat="43.5315" lon="6.26466">
        <ele>226.53</ele>
        <time>2015-12-01T14:00:08Z</time>
      </trkpt>
      <trkpt lat="43.53138" lon="6.2648">
        <ele>227.01</ele>
        <time>2015-12-01T14:00:23Z</time>
      </trkpt>
      <trkpt lat="43.53127" lon="6.26492">
        <ele>227.49</ele>
        <time>2015-12-01T14:00:34Z</time>
      </trkpt>
      <trkpt lat="43.53121" lon="6.26496">
        <ele>227.49</ele>
        <time>2015-12-01T14:00:40Z</time>
      </trkpt>
      <trkpt lat="43.53113" lon="6.26503">
        <ele>227.97</ele>
        <time>2015-12-01T14:00:50Z</time>
      </trkpt>
      <trkpt lat="43.5311" lon="6.26508">
        <ele>227.97</ele>
        <time>2015-12-01T14:01:05Z</time>
      </trkpt>
      <trkpt lat="43.5311" lon="6.26509">
        <ele>227.97</ele>
        <time>2015-12-01T14:01:23Z</time>
      </trkpt>
      <trkpt lat="43.53109" lon="6.26512">
        <ele>227.97</ele>
        <time>2015-12-01T14:01:52Z</time>
      </trkpt>
      <trkpt lat="43.53109" lon="6.26512">
        <ele>227.49</ele>
        <time>2015-12-01T14:02:08Z</time>
      </trkpt>
      <trkpt lat="43.53109" lon="6.26512">
        <ele>227.49</ele>
        <time>2015-12-01T14:02:30Z</time>
      </trkpt>
      <trkpt lat="43.53108" lon="6.26512">
        <ele>227.49</ele>
        <time>2015-12-01T14:02:59Z</time>
      </trkpt>
      <trkpt lat="43.53104" lon="6.26512">
        <ele>227.49</ele>
        <time>2015-12-01T14:03:18Z</time>
      </trkpt>
      <trkpt lat="43.531" lon="6.26511">
        <ele>227.49</ele>
        <time>2015-12-01T14:03:22Z</time>
      </trkpt>
      <trkpt lat="43.53095" lon="6.26512">
        <ele>227.49</ele>
        <time>2015-12-01T14:03:26Z</time>
      </trkpt>
      <trkpt lat="43.53085" lon="6.26514">
        <ele>227.97</ele>
        <time>2015-12-01T14:03:33Z</time>
      </trkpt>
      <trkpt lat="43.53068" lon="6.2652">
        <ele>227.97</ele>
        <time>2015-12-01T14:03:49Z</time>
      </trkpt>
      <trkpt lat="43.53051" lon="6.26517">
        <ele>228.93</ele>
        <time>2015-12-01T14:04:03Z</time>
      </trkpt>
      <trkpt lat="43.53032" lon="6.26516">
        <ele>229.41</ele>
        <time>2015-12-01T14:04:20Z</time>
      </trkpt>
      <trkpt lat="43.53024" lon="6.26517">
        <ele>229.89</ele>
        <time>2015-12-01T14:04:26Z</time>
      </trkpt>
      <trkpt lat="43.53018" lon="6.26517">
        <ele>229.89</ele>
        <time>2015-12-01T14:04:31Z</time>
      </trkpt>
      <trkpt lat="43.53013" lon="6.26515">
        <ele>229.89</ele>
        <time>2015-12-01T14:04:35Z</time>
      </trkpt>
      <trkpt lat="43.52994" lon="6.26514">
        <ele>230.37</ele>
        <time>2015-12-01T14:04:51Z</time>
      </trkpt>
      <trkpt lat="43.5299" lon="6.26513">
        <ele>230.85</ele>
        <time>2015-12-01T14:04:55Z</time>
      </trkpt>
      <trkpt lat="43.52974" lon="6.26508">
        <ele>231.33</ele>
        <time>2015-12-01T14:05:09Z</time>
      </trkpt>
      <trkpt lat="43.52962" lon="6.2651">
        <ele>231.81</ele>
        <time>2015-12-01T14:05:21Z</time>
      </trkpt>
      <trkpt lat="43.52959" lon="6.26512">
        <ele>231.81</ele>
        <time>2015-12-01T14:05:24Z</time>
      </trkpt>
      <trkpt lat="43.52945" lon="6.2652">
        <ele>232.3</ele>
        <time>2015-12-01T14:05:38Z</time>
      </trkpt>
      <trkpt lat="43.52924" lon="6.26526">
        <ele>233.26</ele>
        <time>2015-12-01T14:05:52Z</time>
      </trkpt>
      <trkpt lat="43.52908" lon="6.26537">
        <ele>233.74</ele>
        <time>2015-12-01T14:06:08Z</time>
      </trkpt>
      <trkpt lat="43.52897" lon="6.26549">
        <ele>234.22</ele>
        <time>2015-12-01T14:06:19Z</time>
      </trkpt>
      <trkpt lat="43.5289" lon="6.26555">
        <ele>234.22</ele>
        <time>2015-12-01T14:06:26Z</time>
      </trkpt>
      <trkpt lat="43.52883" lon="6.26565">
        <ele>234.22</ele>
        <time>2015-12-01T14:06:34Z</time>
      </trkpt>
      <trkpt lat="43.52872" lon="6.26584">
        <ele>235.18</ele>
        <time>2015-12-01T14:06:50Z</time>
      </trkpt>
      <trkpt lat="43.52864" lon="6.26606">
        <ele>235.66</ele>
        <time>2015-12-01T14:07:04Z</time>
      </trkpt>
      <trkpt lat="43.52859" lon="6.26619">
        <ele>236.14</ele>
        <time>2015-12-01T14:07:13Z</time>
      </trkpt>
      <trkpt lat="43.52851" lon="6.26642">
        <ele>236.62</ele>
        <time>2015-12-01T14:07:29Z</time>
      </trkpt>
      <trkpt lat="43.52846" lon="6.26663">
        <ele>237.1</ele>
        <time>2015-12-01T14:07:42Z</time>
      </trkpt>
      <trkpt lat="43.52841" lon="6.26679">
        <ele>237.1</ele>
        <time>2015-12-01T14:07:54Z</time>
      </trkpt>
      <trkpt lat="43.52837" lon="6.26685">
        <ele>237.58</ele>
        <time>2015-12-01T14:08:00Z</time>
      </trkpt>
      <trkpt lat="43.5283" lon="6.26705">
        <ele>238.06</ele>
        <time>2015-12-01T14:08:15Z</time>
      </trkpt>
      <trkpt lat="43.52823" lon="6.26722">
        <ele>238.06</ele>
        <time>2015-12-01T14:08:28Z</time>
      </trkpt>
      <trkpt lat="43.52815" lon="6.2674">
        <ele>239.02</ele>
        <time>2015-12-01T14:08:42Z</time>
      </trkpt>
      <trkpt lat="43.5281" lon="6.26757">
        <ele>239.51</ele>
        <time>2015-12-01T14:08:54Z</time>
      </trkpt>
      <trkpt lat="43.52801" lon="6.26777">
        <ele>239.51</ele>
        <time>2015-12-01T14:09:10Z</time>
      </trkpt>
      <trkpt lat="43.52792" lon="6.26793">
        <ele>239.99</ele>
        <time>2015-12-01T14:09:23Z</time>
      </trkpt>
      <trkpt lat="43.52789" lon="6.26797">
        <ele>240.47</ele>
        <time>2015-12-01T14:09:27Z</time>
      </trkpt>
      <trkpt lat="43.52776" lon="6.26815">
        <ele>241.43</ele>
        <time>2015-12-01T14:09:46Z</time>
      </trkpt>
      <trkpt lat="43.52765" lon="6.26827">
        <ele>241.91</ele>
        <time>2015-12-01T14:09:59Z</time>
      </trkpt>
      <trkpt lat="43.52761" lon="6.26831">
        <ele>241.91</ele>
        <time>2015-12-01T14:10:04Z</time>
      </trkpt>
      <trkpt lat="43.52759" lon="6.26833">
        <ele>241.91</ele>
        <time>2015-12-01T14:10:06Z</time>
      </trkpt>
      <trkpt lat="43.52748" lon="6.26844">
        <ele>242.39</ele>
        <time>2015-12-01T14:10:19Z</time>
      </trkpt>
      <trkpt lat="43.52733" lon="6.26853">
        <ele>242.87</ele>
        <time>2015-12-01T14:10:33Z</time>
      </trkpt>
      <trkpt lat="43.5273" lon="6.26855">
        <ele>242.87</ele>
        <time>2015-12-01T14:10:37Z</time>
      </trkpt>
      <trkpt lat="43.52718" lon="6.26867">
        <ele>243.35</ele>
        <time>2015-12-01T14:10:50Z</time>
      </trkpt>
      <trkpt lat="43.52708" lon="6.26874">
        <ele>243.83</ele>
        <time>2015-12-01T14:11:03Z</time>
      </trkpt>
      <trkpt lat="43.52689" lon="6.26885">
        <ele>244.31</ele>
        <time>2015-12-01T14:11:20Z</time>
      </trkpt>
      <trkpt lat="43.52685" lon="6.26889">
        <ele>244.31</ele>
        <time>2015-12-01T14:11:25Z</time>
      </trkpt>
      <trkpt lat="43.52666" lon="6.26897">
        <ele>245.27</ele>
        <time>2015-12-01T14:11:42Z</time>
      </trkpt>
      <trkpt lat="43.52659" lon="6.26899">
        <ele>245.27</ele>
        <time>2015-12-01T14:11:48Z</time>
      </trkpt>
      <trkpt lat="43.52644" lon="6.26908">
        <ele>245.75</ele>
        <time>2015-12-01T14:12:01Z</time>
      </trkpt>
      <trkpt lat="43.52631" lon="6.26915">
        <ele>245.75</ele>
        <time>2015-12-01T14:12:15Z</time>
      </trkpt>
      <trkpt lat="43.52632" lon="6.26918">
        <ele>246.23</ele>
        <time>2015-12-01T14:12:44Z</time>
      </trkpt>
      <trkpt lat="43.52632" lon="6.26919">
        <ele>245.75</ele>
        <time>2015-12-01T14:13:10Z</time>
      </trkpt>
      <trkpt lat="43.52631" lon="6.2692">
        <ele>245.75</ele>
        <time>2015-12-01T14:13:33Z</time>
      </trkpt>
      <trkpt lat="43.52631" lon="6.26921">
        <ele>245.75</ele>
        <time>2015-12-01T14:14:02Z</time>
      </trkpt>
      <trkpt lat="43.52631" lon="6.26921">
        <ele>245.75</ele>
        <time>2015-12-01T14:14:27Z</time>
      </trkpt>
      <trkpt lat="43.52631" lon="6.26922">
        <ele>245.75</ele>
        <time>2015-12-01T14:15:01Z</time>
      </trkpt>
      <trkpt lat="43.5263" lon="6.26922">
        <ele>245.75</ele>
        <time>2015-12-01T14:15:36Z</time>
      </trkpt>
      <trkpt lat="43.52631" lon="6.26922">
        <ele>245.75</ele>
        <time>2015-12-01T14:15:56Z</time>
      </trkpt>
      <trkpt lat="43.52631" lon="6.26922">
        <ele>245.75</ele>
        <time>2015-12-01T14:16:18Z</time>
      </trkpt>
      <trkpt lat="43.52631" lon="6.26922">
        <ele>245.75</ele>
        <time>2015-12-01T14:16:43Z</time>
      </trkpt>
      <trkpt lat="43.52632" lon="6.26921">
        <ele>245.75</ele>
        <time>2015-12-01T14:17:06Z</time>
      </trkpt>
      <trkpt lat="43.52632" lon="6.2692">
        <ele>245.75</ele>
        <time>2015-12-01T14:17:42Z</time>
      </trkpt>
      <trkpt lat="43.52634" lon="6.26919">
        <ele>245.75</ele>
        <time>2015-12-01T14:18:18Z</time>
      </trkpt>
      <trkpt lat="43.52634" lon="6.26919">
        <ele>245.75</ele>
        <time>2015-12-01T14:18:22Z</time>
      </trkpt>
      <trkpt lat="43.52627" lon="6.26922">
        <ele>245.75</ele>
        <time>2015-12-01T14:18:32Z</time>
      </trkpt>
      <trkpt lat="43.52623" lon="6.26925">
        <ele>245.75</ele>
        <time>2015-12-01T14:18:38Z</time>
      </trkpt>
      <trkpt lat="43.52609" lon="6.26934">
        <ele>246.23</ele>
        <time>2015-12-01T14:18:52Z</time>
      </trkpt>
      <trkpt lat="43.52595" lon="6.26944">
        <ele>246.72</ele>
        <time>2015-12-01T14:19:05Z</time>
      </trkpt>
      <trkpt lat="43.52581" lon="6.26958">
        <ele>247.2</ele>
        <time>2015-12-01T14:19:20Z</time>
      </trkpt>
      <trkpt lat="43.5258" lon="6.2696">
        <ele>247.2</ele>
        <time>2015-12-01T14:19:21Z</time>
      </trkpt>
      <trkpt lat="43.52566" lon="6.26978">
        <ele>247.68</ele>
        <time>2015-12-01T14:19:38Z</time>
      </trkpt>
      <trkpt lat="43.52556" lon="6.27002">
        <ele>248.64</ele>
        <time>2015-12-01T14:19:56Z</time>
      </trkpt>
      <trkpt lat="43.5255" lon="6.27026">
        <ele>249.12</ele>
        <time>2015-12-01T14:20:10Z</time>
      </trkpt>
      <trkpt lat="43.52549" lon="6.27037">
        <ele>249.12</ele>
        <time>2015-12-01T14:20:16Z</time>
      </trkpt>
      <trkpt lat="43.52547" lon="6.27072">
        <ele>250.08</ele>
        <time>2015-12-01T14:20:36Z</time>
      </trkpt>
      <trkpt lat="43.52546" lon="6.27079">
        <ele>250.08</ele>
        <time>2015-12-01T14:20:40Z</time>
      </trkpt>
      <trkpt lat="43.52546" lon="6.27106">
        <ele>250.56</ele>
        <time>2015-12-01T14:20:57Z</time>
      </trkpt>
      <trkpt lat="43.52549" lon="6.27135">
        <ele>250.56</ele>
        <time>2015-12-01T14:21:14Z</time>
      </trkpt>
      <trkpt lat="43.52554" lon="6.2716">
        <ele>250.56</ele>
        <time>2015-12-01T14:21:31Z</time>
      </trkpt>
      <trkpt lat="43.52555" lon="6.27165">
        <ele>250.56</ele>
        <time>2015-12-01T14:21:34Z</time>
      </trkpt>
      <trkpt lat="43.52561" lon="6.27181">
        <ele>250.56</ele>
        <time>2015-12-01T14:21:45Z</time>
      </trkpt>
      <trkpt lat="43.52567" lon="6.27201">
        <ele>250.56</ele>
        <time>2015-12-01T14:21:58Z</time>
      </trkpt>
      <trkpt lat="43.5257" lon="6.27219">
        <ele>250.08</ele>
        <time>2015-12-01T14:22:11Z</time>
      </trkpt>
      <trkpt lat="43.5257" lon="6.27222">
        <ele>250.08</ele>
        <time>2015-12-01T14:22:13Z</time>
      </trkpt>
      <trkpt lat="43.52572" lon="6.27228">
        <ele>249.6</ele>
        <time>2015-12-01T14:22:17Z</time>
      </trkpt>
      <trkpt lat="43.52573" lon="6.27253">
        <ele>249.12</ele>
        <time>2015-12-01T14:22:32Z</time>
      </trkpt>
      <trkpt lat="43.52573" lon="6.27264">
        <ele>249.12</ele>
        <time>2015-12-01T14:22:40Z</time>
      </trkpt>
      <trkpt lat="43.52574" lon="6.27267">
        <ele>249.12</ele>
        <time>2015-12-01T14:22:42Z</time>
      </trkpt>
      <trkpt lat="43.52573" lon="6.27292">
        <ele>248.64</ele>
        <time>2015-12-01T14:22:56Z</time>
      </trkpt>
      <trkpt lat="43.52568" lon="6.27314">
        <ele>248.16</ele>
        <time>2015-12-01T14:23:10Z</time>
      </trkpt>
      <trkpt lat="43.52567" lon="6.27315">
        <ele>248.16</ele>
        <time>2015-12-01T14:23:12Z</time>
      </trkpt>
      <trkpt lat="43.52565" lon="6.27328">
        <ele>248.16</ele>
        <time>2015-12-01T14:23:20Z</time>
      </trkpt>
      <trkpt lat="43.52564" lon="6.27335">
        <ele>247.68</ele>
        <time>2015-12-01T14:23:24Z</time>
      </trkpt>
      <trkpt lat="43.52557" lon="6.27361">
        <ele>247.2</ele>
        <time>2015-12-01T14:23:40Z</time>
      </trkpt>
      <trkpt lat="43.52553" lon="6.27374">
        <ele>247.2</ele>
        <time>2015-12-01T14:23:49Z</time>
      </trkpt>
      <trkpt lat="43.52552" lon="6.27377">
        <ele>247.2</ele>
        <time>2015-12-01T14:23:51Z</time>
      </trkpt>
      <trkpt lat="43.52546" lon="6.274">
        <ele>246.72</ele>
        <time>2015-12-01T14:24:06Z</time>
      </trkpt>
      <trkpt lat="43.52539" lon="6.27423">
        <ele>246.23</ele>
        <time>2015-12-01T14:24:20Z</time>
      </trkpt>
      <trkpt lat="43.52532" lon="6.27445">
        <ele>245.75</ele>
        <time>2015-12-01T14:24:35Z</time>
      </trkpt>
      <trkpt lat="43.52527" lon="6.27462">
        <ele>245.75</ele>
        <time>2015-12-01T14:24:46Z</time>
      </trkpt>
      <trkpt lat="43.52527" lon="6.27463">
        <ele>245.75</ele>
        <time>2015-12-01T14:24:47Z</time>
      </trkpt>
      <trkpt lat="43.5253" lon="6.27491">
        <ele>245.27</ele>
        <time>2015-12-01T14:25:03Z</time>
      </trkpt>
      <trkpt lat="43.52536" lon="6.2751">
        <ele>245.27</ele>
        <time>2015-12-01T14:25:15Z</time>
      </trkpt>
      <trkpt lat="43.52542" lon="6.27533">
        <ele>245.27</ele>
        <time>2015-12-01T14:25:29Z</time>
      </trkpt>
      <trkpt lat="43.52551" lon="6.27557">
        <ele>245.75</ele>
        <time>2015-12-01T14:25:44Z</time>
      </trkpt>
      <trkpt lat="43.52557" lon="6.27577">
        <ele>246.72</ele>
        <time>2015-12-01T14:25:58Z</time>
      </trkpt>
      <trkpt lat="43.52563" lon="6.276">
        <ele>247.2</ele>
        <time>2015-12-01T14:26:12Z</time>
      </trkpt>
      <trkpt lat="43.52562" lon="6.2762">
        <ele>247.68</ele>
        <time>2015-12-01T14:26:25Z</time>
      </trkpt>
      <trkpt lat="43.52558" lon="6.27642">
        <ele>248.16</ele>
        <time>2015-12-01T14:26:39Z</time>
      </trkpt>
      <trkpt lat="43.52554" lon="6.27653">
        <ele>248.16</ele>
        <time>2015-12-01T14:26:46Z</time>
      </trkpt>
      <trkpt lat="43.52547" lon="6.27669">
        <ele>248.16</ele>
        <time>2015-12-01T14:26:58Z</time>
      </trkpt>
      <trkpt lat="43.52535" lon="6.27676">
        <ele>247.68</ele>
        <time>2015-12-01T14:27:08Z</time>
      </trkpt>
      <trkpt lat="43.5253" lon="6.27684">
        <ele>247.2</ele>
        <time>2015-12-01T14:27:14Z</time>
      </trkpt>
      <trkpt lat="43.52528" lon="6.27688">
        <ele>247.68</ele>
        <time>2015-12-01T14:27:18Z</time>
      </trkpt>
      <trkpt lat="43.52525" lon="6.27697">
        <ele>247.68</ele>
        <time>2015-12-01T14:27:24Z</time>
      </trkpt>
      <trkpt lat="43.52526" lon="6.27712">
        <ele>247.2</ele>
        <time>2015-12-01T14:27:38Z</time>
      </trkpt>
      <trkpt lat="43.52525" lon="6.27712">
        <ele>247.68</ele>
        <time>2015-12-01T14:27:56Z</time>
      </trkpt>
      <trkpt lat="43.52525" lon="6.27711">
        <ele>245.75</ele>
        <time>2015-12-01T14:28:03Z</time>
      </trkpt>
    </trkseg>
  </trk>
</gpx>